Provisional Data: Ninemile Run near Walton, PA


Please select a monitoring station.
Please select start date.
Please select start date.

Toggle Unit: C/F Toggle Unit: C/F
Sample Time Temperature (C) Temperature (F) Specific Conductivity (mS/cm) pH   Turbidity (NTU+) DO (mg/L)
3/7/2021 12:00:00 AM 1.85 35.33 0.083 6.55 2.26 13.19
3/7/2021 12:15:00 AM 1.83 35.294 0.083 6.56 2.27 13.2
3/7/2021 12:30:00 AM 1.81 35.258 0.083 6.58 2.29 13.21
3/7/2021 12:45:00 AM 1.79 35.222 0.083 6.57 2.3 13.21
3/7/2021 1:00:00 AM 1.77 35.186 0.083 6.58 2.27 13.22
3/7/2021 1:15:00 AM 1.73 35.114 0.083 6.57 2.29 13.23
3/7/2021 1:30:00 AM 1.7 35.06 0.083 6.57 2.24 13.24
3/7/2021 1:45:00 AM 1.67 35.006 0.083 6.57 2.28 13.25
3/7/2021 2:00:00 AM 1.63 34.934 0.083 6.54 2.29 13.26
3/7/2021 2:15:00 AM 1.59 34.862 0.082 6.57 2.3 13.28
3/7/2021 2:30:00 AM 1.54 34.772 0.082 6.58 2.28 13.3
3/7/2021 2:45:00 AM 1.49 34.682 0.082 6.55 2.27 13.31
3/7/2021 3:00:00 AM 1.44 34.592 0.082 6.57 2.29 13.33
3/7/2021 3:15:00 AM 1.39 34.502 0.082 6.58 2.28 13.34
3/7/2021 3:30:00 AM 1.33 34.394 0.082 6.52 2.29 13.36
3/7/2021 3:45:00 AM 1.27 34.286 0.082 6.55 2.31 13.38
3/7/2021 4:00:00 AM 1.22 34.196 0.082 6.58 2.35 13.4
3/7/2021 4:15:00 AM 1.16 34.088 0.082 6.57 2.25 13.42
3/7/2021 4:30:00 AM 1.11 33.998 0.082 6.57 2.27 13.44
3/7/2021 4:45:00 AM 1.07 33.926 0.082 6.53 2.26 13.47
3/7/2021 5:00:00 AM 1.03 33.854 0.082 6.56 2.33 13.48
3/7/2021 5:15:00 AM 1 33.8 0.082 6.58 2.33 13.5
3/7/2021 5:30:00 AM 0.97 33.746 0.082 6.57 2.27 13.51
3/7/2021 5:45:00 AM 0.94 33.692 0.082 6.57 2.24 13.53
3/7/2021 6:00:00 AM 0.91 33.638 0.082 6.57 2.31 13.55
3/7/2021 6:15:00 AM 0.88 33.584 0.082 6.57 2.24 13.57
3/7/2021 6:30:00 AM 0.86 33.548 0.082 6.57 2.27 13.58
3/7/2021 6:45:00 AM 0.82 33.476 0.082 6.57 2.29 13.62
3/7/2021 7:00:00 AM 0.78 33.404 0.082 6.54 2.26 13.64
3/7/2021 7:15:00 AM 0.75 33.35 0.082 6.59 2.26 13.7
3/7/2021 7:30:00 AM 0.74 33.332 0.082 6.6 2.4 13.75
3/7/2021 7:45:00 AM 0.73 33.314 0.081 6.61 2.21 13.8
3/7/2021 8:00:00 AM 0.74 33.332 0.081 6.62 2.28 13.86
3/7/2021 8:15:00 AM 0.75 33.35 0.081 6.64 2.22 13.9
3/7/2021 8:30:00 AM 0.79 33.422 0.081 6.65 2.22 13.94
3/7/2021 8:45:00 AM 0.83 33.494 0.081 6.66 2.18 13.97
3/7/2021 9:00:00 AM 0.88 33.584 0.081 6.66 2.23 13.98
3/7/2021 9:15:00 AM 0.96 33.728 0.081 6.66 2.21 14
3/7/2021 9:30:00 AM 1.05 33.89 0.081 6.7 2.18 14.01
3/7/2021 9:45:00 AM 1.15 34.07 0.08 6.7 2.2 14
3/7/2021 10:00:00 AM 1.26 34.268 0.08 6.71 2.2 13.99
3/7/2021 10:15:00 AM 1.4 34.52 0.08 6.71 2.2 13.98
3/7/2021 10:30:00 AM 1.54 34.772 0.08 6.72 2.2 13.95
3/7/2021 10:45:00 AM 1.68 35.024 0.08 6.73 2.18 13.92
3/7/2021 11:00:00 AM 1.82 35.276 0.08 6.73 2.24 13.89
3/7/2021 11:15:00 AM 1.98 35.564 0.08 6.7 2.17 13.85
3/7/2021 11:30:00 AM 2.14 35.852 0.079 6.71 2.2 13.8
3/7/2021 11:45:00 AM 2.3 36.14 0.079 6.72 2.21 13.75
3/7/2021 12:00:00 PM 2.48 36.464 0.079 6.74 2.18 13.7
3/7/2021 12:15:00 PM 2.65 36.77 0.079 6.73 2.22 13.65
3/7/2021 12:30:00 PM 2.81 37.058 0.079 6.74 2.17 13.6
3/7/2021 12:45:00 PM 2.96 37.328 0.079 6.74 2.16 13.54
3/7/2021 1:00:00 PM 3.11 37.598 0.079 6.74 2.18 13.48
3/7/2021 1:15:00 PM 3.26 37.868 0.079 6.73 2.21 13.43
3/7/2021 1:30:00 PM 3.37 38.066 0.078 6.72 2.18 13.39
3/7/2021 1:45:00 PM 3.48 38.264 0.078 6.73 2.21 13.34
3/7/2021 2:00:00 PM 3.59 38.462 0.078 6.75 2.2 13.29
3/7/2021 2:15:00 PM 3.68 38.624 0.078 6.71 2.13 13.26
3/7/2021 2:30:00 PM 3.76 38.768 0.078 6.73 2.14 13.22
3/7/2021 2:45:00 PM 3.82 38.876 0.078 6.74 2.16 13.18
3/7/2021 3:00:00 PM 3.86 38.948 0.078 6.74 2.14 13.15
3/7/2021 3:15:00 PM 3.89 39.002 0.078 6.69 2.16 13.12
3/7/2021 3:30:00 PM 3.91 39.038 0.078 6.72 2.16 13.09
3/7/2021 3:45:00 PM 3.91 39.038 0.078 6.71 2.21 13.07
3/7/2021 4:00:00 PM 3.9 39.02 0.078 6.7 2.18 13.04
3/7/2021 4:15:00 PM 3.86 38.948 0.078 6.7 2.22 13.03
3/7/2021 4:30:00 PM 3.81 38.858 0.078 6.69 2.23 13.01
3/7/2021 4:45:00 PM 3.74 38.732 0.078 6.7 2.2 13
3/7/2021 5:00:00 PM 3.66 38.588 0.078 6.69 2.24 13
3/7/2021 5:15:00 PM 3.56 38.408 0.078 6.68 2.25 12.99
3/7/2021 5:30:00 PM 3.46 38.228 0.078 6.67 2.42 12.98
3/7/2021 5:45:00 PM 3.35 38.03 0.078 6.65 2.34 12.97
3/7/2021 6:00:00 PM 3.24 37.832 0.078 6.62 2.27 12.95
3/7/2021 6:15:00 PM 3.13 37.634 0.078 6.63 2.29 12.93
3/7/2021 6:30:00 PM 3.04 37.472 0.078 6.58 2.27 12.92
3/7/2021 6:45:00 PM 2.96 37.328 0.078 6.6 2.33 12.92
3/7/2021 7:00:00 PM 2.89 37.202 0.079 6.59 2.25 12.91
3/7/2021 7:15:00 PM 2.82 37.076 0.079 6.58 2.23 12.92
3/7/2021 7:30:00 PM 2.75 36.95 0.079 6.58 2.25 12.94
3/7/2021 7:45:00 PM 2.67 36.806 0.079 6.57 2.27 12.95
3/7/2021 8:00:00 PM 2.6 36.68 0.079 6.57 2.27 12.97
3/7/2021 8:15:00 PM 2.53 36.554 0.079 6.56 2.27 12.98
3/7/2021 8:30:00 PM 2.46 36.428 0.079 6.57 2.34 13
3/7/2021 8:45:00 PM 2.4 36.32 0.079 6.53 2.3 13.02
3/7/2021 9:00:00 PM 2.33 36.194 0.079 6.56 2.27 13.05
3/7/2021 9:15:00 PM 2.26 36.068 0.079 6.55 2.31 13.07
3/7/2021 9:30:00 PM 2.18 35.924 0.079 6.56 2.26 13.1
3/7/2021 9:45:00 PM 2.11 35.798 0.079 6.55 2.3 13.13
3/7/2021 10:00:00 PM 2.03 35.654 0.079 6.53 2.32 13.16
3/7/2021 10:15:00 PM 1.96 35.528 0.079 6.56 2.35 13.19
3/7/2021 10:30:00 PM 1.88 35.384 0.079 6.55 2.29 13.21
3/7/2021 10:45:00 PM 1.8 35.24 0.079 6.56 2.3 13.24
3/7/2021 11:00:00 PM 1.72 35.096 0.079 6.56 2.27 13.27
3/7/2021 11:15:00 PM 1.64 34.952 0.079 6.52 2.24 13.3
3/7/2021 11:30:00 PM 1.55 34.79 0.079 6.54 2.25 13.33
3/7/2021 11:45:00 PM 1.47 34.646 0.079 6.56 2.27 13.37
3/8/2021 12:00:00 AM 1.38 34.484 0.079 6.56 2.3 13.4
3/8/2021 12:15:00 AM 1.3 34.34 0.079 6.52 2.28 13.43
3/8/2021 12:30:00 AM 1.23 34.214 0.079 6.57 2.27 13.46
3/8/2021 12:45:00 AM 1.15 34.07 0.079 6.52 2.22 13.48
3/8/2021 1:00:00 AM 1.07 33.926 0.079 6.55 2.24 13.51
3/8/2021 1:15:00 AM 0.99 33.782 0.079 6.57 2.3 13.54
3/8/2021 1:30:00 AM 0.92 33.656 0.079 6.57 2.25 13.58
3/8/2021 1:45:00 AM 0.85 33.53 0.079 6.56 2.27 13.61
3/8/2021 2:00:00 AM 0.78 33.404 0.079 6.56 2.43 13.63
3/8/2021 2:15:00 AM 0.71 33.278 0.08 6.57 2.31 13.66
3/8/2021 2:30:00 AM 0.64 33.152 0.08 6.55 2.28 13.69
3/8/2021 2:45:00 AM 0.57 33.026 0.08 6.55 2.32 13.72
3/8/2021 3:00:00 AM 0.51 32.918 0.08 6.57 2.3 13.73
3/8/2021 3:15:00 AM 0.44 32.792 0.08 6.58 2.26 13.76
3/8/2021 3:30:00 AM 0.38 32.684 0.08 6.56 2.29 13.79
3/8/2021 3:45:00 AM 0.33 32.594 0.08 6.57 2.29 13.81
3/8/2021 4:00:00 AM 0.27 32.486 0.08 6.57 2.3 13.84
3/8/2021 4:15:00 AM 0.21 32.378 0.08 6.57 2.3 13.87
3/8/2021 4:30:00 AM 0.15 32.27 0.08 6.57 2.34 13.89
3/8/2021 4:45:00 AM 0.1 32.18 0.08 6.56 2.34 13.91
3/8/2021 5:00:00 AM 0.04 32.072 0.08 6.58 2.36 13.93
3/8/2021 5:15:00 AM -0.01 31.982 0.08 6.54 2.46 13.95
3/8/2021 5:30:00 AM -0.06 31.892 0.08 6.58 2.42 13.97
3/8/2021 5:45:00 AM -0.08 31.856 0.08 6.56 2.34 13.98
3/8/2021 6:00:00 AM -0.1 31.82 0.08 6.59 2.3 13.99
3/8/2021 6:15:00 AM -0.11 31.802 0.08 6.59 2.4 14
3/8/2021 6:30:00 AM -0.1 31.82 0.08 6.59 2.35 14
3/8/2021 6:45:00 AM -0.09 31.838 0.079 6.59 2.3 14.01
3/8/2021 7:00:00 AM -0.08 31.856 0.079 6.59 2.24 14.04
3/8/2021 7:15:00 AM -0.08 31.856 0.079 6.6 2.38 14.08
3/8/2021 7:30:00 AM -0.07 31.874 0.08 6.61 2.64 14.11
3/8/2021 7:45:00 AM -0.06 31.892 0.08 6.62 2.68 14.15
3/8/2021 8:00:00 AM -0.05 31.91 0.08 6.63 2.4 14.19
3/8/2021 8:15:00 AM -0.02 31.964 0.079 6.62 2.27 14.21
3/8/2021 8:30:00 AM 0.06 32.108 0.079 6.65 2.26 14.24
3/8/2021 8:45:00 AM 0.16 32.288 0.079 6.68 2.27 14.27
3/8/2021 9:00:00 AM 0.28 32.504 0.079 6.69 2.2 14.28
3/8/2021 9:15:00 AM 0.41 32.738 0.079 6.71 2.2 14.28
3/8/2021 9:30:00 AM 0.55 32.99 0.079 6.7 2.27 14.27
3/8/2021 9:45:00 AM 0.68 33.224 0.079 6.72 2.23 14.24
3/8/2021 10:00:00 AM 0.81 33.458 0.079 6.73 2.29 14.21
3/8/2021 10:15:00 AM 0.96 33.728 0.078 6.73 2.37 14.17
3/8/2021 10:30:00 AM 1.16 34.088 0.078 6.74 2.32 14.13
3/8/2021 10:45:00 AM 1.36 34.448 0.079 6.76 2.41 14.09
3/8/2021 11:00:00 AM 1.39 34.502 0.079 6.74 2.41 14.03
3/8/2021 11:15:00 AM 1.44 34.592 0.079 6.74 2.57 14.02
3/8/2021 11:30:00 AM 1.56 34.808 0.08 6.74 2.71 14.01
3/8/2021 11:45:00 AM 1.64 34.952 0.08 6.75 2.75 13.98
3/8/2021 12:00:00 PM 1.64 34.952 0.08 6.73 2.7 13.94
3/8/2021 12:15:00 PM 1.66 34.988 0.08 6.73 2.65 13.95
3/8/2021 12:30:00 PM 1.7 35.06 0.08 6.74 2.57 13.95
3/8/2021 12:45:00 PM 1.68 35.024 0.08 6.73 2.54 13.95
3/8/2021 1:00:00 PM 1.7 35.06 0.08 6.74 2.48 13.96
3/8/2021 1:15:00 PM 1.76 35.168 0.08 6.74 2.43 13.96
3/8/2021 1:30:00 PM 1.79 35.222 0.079 6.74 2.43 13.95
3/8/2021 1:45:00 PM 1.82 35.276 0.079 6.74 2.41 13.94
3/8/2021 2:00:00 PM 1.84 35.312 0.079 6.74 2.36 13.93
3/8/2021 2:15:00 PM 1.87 35.366 0.079 6.73 2.34 13.92
3/8/2021 2:30:00 PM 1.95 35.51 0.078 6.76 2.33 13.89
3/8/2021 2:45:00 PM 2.1 35.78 0.078 6.72 2.35 13.87
3/8/2021 3:00:00 PM 2.26 36.068 0.077 6.76 2.31 13.79
3/8/2021 3:15:00 PM 2.39 36.302 0.077 6.76 2.29 13.74
3/8/2021 3:30:00 PM 2.51 36.518 0.076 6.76 2.29 13.69
3/8/2021 3:45:00 PM 2.63 36.734 0.076 6.75 2.28 13.63
3/8/2021 4:00:00 PM 2.72 36.896 0.076 6.74 2.4 13.59
3/8/2021 4:15:00 PM 2.78 37.004 0.076 6.73 2.29 13.55
3/8/2021 4:30:00 PM 2.83 37.094 0.076 6.75 2.24 13.5
3/8/2021 4:45:00 PM 2.85 37.13 0.076 6.73 2.28 13.45
3/8/2021 5:00:00 PM 2.88 37.184 0.076 6.71 2.29 13.39
3/8/2021 5:15:00 PM 2.92 37.256 0.077 6.69 2.26 13.33
3/8/2021 5:30:00 PM 2.95 37.31 0.077 6.7 2.3 13.27
3/8/2021 5:45:00 PM 2.96 37.328 0.077 6.69 2.31 13.19
3/8/2021 6:00:00 PM 2.96 37.328 0.078 6.66 2.4 13.13
3/8/2021 6:15:00 PM 2.95 37.31 0.078 6.65 2.44 13.07
3/8/2021 6:30:00 PM 2.94 37.292 0.078 6.63 2.29 13.01
3/8/2021 6:45:00 PM 2.93 37.274 0.078 6.61 2.35 12.97
3/8/2021 7:00:00 PM 2.92 37.256 0.078 6.6 2.38 12.95
3/8/2021 7:15:00 PM 2.91 37.238 0.078 6.59 2.44 12.92
3/8/2021 7:30:00 PM 2.9 37.22 0.078 6.59 2.37 12.9
3/8/2021 7:45:00 PM 2.88 37.184 0.078 6.58 2.37 12.89
3/8/2021 8:00:00 PM 2.86 37.148 0.078 6.57 2.35 12.88
3/8/2021 8:15:00 PM 2.84 37.112 0.078 6.57 2.31 12.88
3/8/2021 8:30:00 PM 2.82 37.076 0.078 6.57 2.33 12.88
3/8/2021 8:45:00 PM 2.79 37.022 0.078 6.53 2.35 12.89
3/8/2021 9:00:00 PM 2.77 36.986 0.078 6.56 2.31 12.89
3/8/2021 9:15:00 PM 2.76 36.968 0.078 6.55 2.3 12.9
3/8/2021 9:30:00 PM 2.74 36.932 0.078 6.55 2.31 12.91
3/8/2021 9:45:00 PM 2.74 36.932 0.078 6.56 2.36 12.91
3/8/2021 10:00:00 PM 2.74 36.932 0.078 6.53 2.3 12.91
3/8/2021 10:15:00 PM 2.73 36.914 0.078 6.56 2.35 12.92
3/8/2021 10:30:00 PM 2.73 36.914 0.078 6.56 2.3 12.91
3/8/2021 10:45:00 PM 2.74 36.932 0.078 6.55 2.28 12.92
3/8/2021 11:00:00 PM 2.73 36.914 0.078 6.55 2.26 12.92
3/8/2021 11:15:00 PM 2.71 36.878 0.078 6.55 2.26 12.92
3/8/2021 11:30:00 PM 2.69 36.842 0.078 6.54 2.31 12.93
3/8/2021 11:45:00 PM 2.67 36.806 0.078 6.56 2.28 12.93
3/9/2021 12:00:00 AM 2.65 36.77 0.078 6.54 2.24 12.94
3/9/2021 12:15:00 AM 2.65 36.77 0.078 6.55 2.29 12.94
3/9/2021 12:30:00 AM 2.65 36.77 0.078 6.56 2.27 12.94
3/9/2021 12:45:00 AM 2.66 36.788 0.078 6.54 2.26 12.94
3/9/2021 1:00:00 AM 2.65 36.77 0.078 6.55 2.29 12.93
3/9/2021 1:15:00 AM 2.64 36.752 0.078 6.55 2.27 12.94
3/9/2021 1:30:00 AM 2.62 36.716 0.078 6.55 2.24 12.95
3/9/2021 1:45:00 AM 2.59 36.662 0.078 6.55 2.25 12.95
3/9/2021 2:00:00 AM 2.57 36.626 0.078 6.54 2.27 12.96
3/9/2021 2:15:00 AM 2.57 36.626 0.078 6.54 2.36 12.97
3/9/2021 2:30:00 AM 2.56 36.608 0.078 6.51 2.33 12.96
3/9/2021 2:45:00 AM 2.55 36.59 0.078 6.55 2.3 12.97
3/9/2021 3:00:00 AM 2.53 36.554 0.078 6.55 2.26 12.97
3/9/2021 3:15:00 AM 2.51 36.518 0.078 6.55 2.28 12.97
3/9/2021 3:30:00 AM 2.5 36.5 0.078 6.51 2.27 12.98
3/9/2021 3:45:00 AM 2.49 36.482 0.078 6.55 2.26 12.98
3/9/2021 4:00:00 AM 2.47 36.446 0.078 6.54 2.24 12.99
3/9/2021 4:15:00 AM 2.45 36.41 0.078 6.51 2.29 12.99
3/9/2021 4:30:00 AM 2.43 36.374 0.078 6.55 2.24 13
3/9/2021 4:45:00 AM 2.41 36.338 0.078 6.54 2.35 13
3/9/2021 5:00:00 AM 2.39 36.302 0.078 6.55 2.35 13.01
3/9/2021 5:15:00 AM 2.37 36.266 0.078 6.54 2.31 13.02
3/9/2021 5:30:00 AM 2.34 36.212 0.078 6.55 2.3 13.03
3/9/2021 5:45:00 AM 2.32 36.176 0.078 6.54 2.28 13.04
3/9/2021 6:00:00 AM 2.29 36.122 0.078 6.54 2.26 13.05
3/9/2021 6:15:00 AM 2.27 36.086 0.078 6.55 2.21 13.06
3/9/2021 6:30:00 AM 2.24 36.032 0.078 6.54 2.21 13.07
3/9/2021 6:45:00 AM 2.22 35.996 0.078 6.55 2.22 13.1
3/9/2021 7:00:00 AM 2.21 35.978 0.078 6.52 2.14 13.15
3/9/2021 7:15:00 AM 2.2 35.96 0.078 6.56 2.16 13.2
3/9/2021 7:30:00 AM 2.2 35.96 0.078 6.58 2.21 13.25
3/9/2021 7:45:00 AM 2.21 35.978 0.078 6.57 2.15 13.29
3/9/2021 8:00:00 AM 2.25 36.05 0.078 6.61 2.18 13.36
3/9/2021 8:15:00 AM 2.3 36.14 0.077 6.62 2.18 13.4
3/9/2021 8:30:00 AM 2.37 36.266 0.077 6.64 2.17 13.45
3/9/2021 8:45:00 AM 2.45 36.41 0.077 6.65 2.2 13.48
3/9/2021 9:00:00 AM 2.56 36.608 0.077 6.66 2.24 13.5
3/9/2021 9:15:00 AM 2.68 36.824 0.077 6.69 2.12 13.51
3/9/2021 9:30:00 AM 2.84 37.112 0.077 6.71 2.15 13.51
3/9/2021 9:45:00 AM 3.01 37.418 0.077 6.72 2.13 13.49
3/9/2021 10:00:00 AM 3.17 37.706 0.077 6.73 2.16 13.48
3/9/2021 10:15:00 AM 3.35 38.03 0.076 6.74 2.16 13.45
3/9/2021 10:30:00 AM 3.54 38.372 0.076 6.75 2.14 13.41
3/9/2021 10:45:00 AM 3.73 38.714 0.076 6.76 2.2 13.37
3/9/2021 11:00:00 AM 3.92 39.056 0.076 6.74 2.19 13.32
3/9/2021 11:15:00 AM 4.12 39.416 0.076 6.76 2.17 13.27
3/9/2021 11:30:00 AM 4.32 39.776 0.076 6.78 2.2 13.23
3/9/2021 11:45:00 AM 4.54 40.172 0.076 6.79 2.19 13.16
3/9/2021 12:00:00 PM 4.74 40.532 0.076 6.78 2.23 13.1
3/9/2021 12:15:00 PM 4.94 40.892 0.076 6.79 2.3 13.04
3/9/2021 12:30:00 PM 5.14 41.252 0.075 6.79 2.33 12.99
3/9/2021 12:45:00 PM 5.33 41.594 0.075 6.77 2.36 12.93
3/9/2021 1:00:00 PM 5.49 41.882 0.075 6.79 2.38 12.87
3/9/2021 1:15:00 PM 5.67 42.206 0.075 6.79 2.4 12.81
3/9/2021 1:30:00 PM 5.82 42.476 0.075 6.78 2.42 12.75
3/9/2021 1:45:00 PM 5.95 42.71 0.075 6.79 2.37 12.7
3/9/2021 2:00:00 PM 6.05 42.89 0.075 6.78 2.39 12.63
3/9/2021 2:15:00 PM 6.18 43.124 0.075 6.79 2.51 12.59
3/9/2021 2:30:00 PM 6.3 43.34 0.075 6.76 2.41 12.55
3/9/2021 2:45:00 PM 6.38 43.484 0.075 6.78 2.48 12.5
3/9/2021 3:00:00 PM 6.41 43.538 0.075 6.77 2.5 12.45
3/9/2021 3:15:00 PM 6.48 43.664 0.075 6.77 2.47 12.43
3/9/2021 3:30:00 PM 6.5 43.7 0.075 6.76 2.44 12.39
3/9/2021 3:45:00 PM 6.51 43.718 0.075 6.75 2.47 12.35
3/9/2021 4:00:00 PM 6.5 43.7 0.075 6.74 2.53 12.32
3/9/2021 4:15:00 PM 6.46 43.628 0.075 6.72 2.59 12.29
3/9/2021 4:30:00 PM 6.4 43.52 0.076 6.71 2.53 12.27
3/9/2021 4:45:00 PM 6.32 43.376 0.076 6.69 2.54 12.25
3/9/2021 5:00:00 PM 6.22 43.196 0.076 6.67 2.58 12.23
3/9/2021 5:15:00 PM 6.12 43.016 0.076 6.65 2.59 12.21
3/9/2021 5:30:00 PM 5.99 42.782 0.077 6.62 2.71 12.18
3/9/2021 5:45:00 PM 5.85 42.53 0.078 6.62 2.68 12.16
3/9/2021 6:00:00 PM 5.71 42.278 0.078 6.6 2.66 12.14
3/9/2021 6:15:00 PM 5.58 42.044 0.079 6.58 2.64 12.12
3/9/2021 6:30:00 PM 5.45 41.81 0.08 6.56 2.64 12.11
3/9/2021 6:45:00 PM 5.33 41.594 0.082 6.56 2.74 12.11
3/9/2021 7:00:00 PM 5.22 41.396 0.083 6.54 2.67 12.12
3/9/2021 7:15:00 PM 5.12 41.216 0.084 6.53 2.67 12.14
3/9/2021 7:30:00 PM 5.02 41.036 0.085 6.53 2.68 12.15
3/9/2021 7:45:00 PM 4.92 40.856 0.086 6.5 2.67 12.17
3/9/2021 8:00:00 PM 4.83 40.694 0.086 6.53 2.69 12.2
3/9/2021 8:15:00 PM 4.74 40.532 0.087 6.52 2.75 12.22
3/9/2021 8:30:00 PM 4.65 40.37 0.088 6.51 2.62 12.25
3/9/2021 8:45:00 PM 4.56 40.208 0.088 6.52 2.68 12.28
3/9/2021 9:00:00 PM 4.47 40.046 0.089 6.5 2.73 12.31
3/9/2021 9:15:00 PM 4.38 39.884 0.089 6.53 2.66 12.34
3/9/2021 9:30:00 PM 4.29 39.722 0.09 6.52 2.67 12.37
3/9/2021 9:45:00 PM 4.21 39.578 0.09 6.52 2.7 12.4
3/9/2021 10:00:00 PM 4.12 39.416 0.091 6.53 2.65 12.42
3/9/2021 10:15:00 PM 4.04 39.272 0.091 6.52 2.57 12.46
3/9/2021 10:30:00 PM 3.96 39.128 0.092 6.51 2.62 12.49
3/9/2021 10:45:00 PM 3.88 38.984 0.092 6.51 2.54 12.52
3/9/2021 11:00:00 PM 3.8 38.84 0.092 6.53 2.56 12.55
3/9/2021 11:15:00 PM 3.71 38.678 0.093 6.53 2.59 12.58
3/9/2021 11:30:00 PM 3.64 38.552 0.093 6.5 2.58 12.6
3/9/2021 11:45:00 PM 3.57 38.426 0.094 6.53 2.53 12.63
3/10/2021 12:00:00 AM 3.49 38.282 0.094 6.53 2.54 12.65
3/10/2021 12:15:00 AM 3.42 38.156 0.095 6.53 2.68 12.68
3/10/2021 12:30:00 AM 3.36 38.048 0.095 6.53 2.54 12.7
3/10/2021 12:45:00 AM 3.29 37.922 0.096 6.54 2.55 12.73
3/10/2021 1:00:00 AM 3.23 37.814 0.096 6.54 2.56 12.75
3/10/2021 1:15:00 AM 3.18 37.724 0.096 6.54 2.61 12.78
3/10/2021 1:30:00 AM 3.12 37.616 0.097 6.53 2.52 12.79
3/10/2021 1:45:00 AM 3.07 37.526 0.097 6.54 2.52 12.81
3/10/2021 2:00:00 AM 3.02 37.436 0.097 6.54 2.55 12.83
3/10/2021 2:15:00 AM 2.97 37.346 0.098 6.54 2.52 12.84
3/10/2021 2:30:00 AM 2.92 37.256 0.098 6.54 2.5 12.86
3/10/2021 2:45:00 AM 2.88 37.184 0.098 6.54 2.58 12.88
3/10/2021 3:00:00 AM 2.83 37.094 0.099 6.53 2.47 12.9
3/10/2021 3:15:00 AM 2.79 37.022 0.099 6.52 2.48 12.92
3/10/2021 3:30:00 AM 2.75 36.95 0.1 6.55 2.53 12.92
3/10/2021 3:45:00 AM 2.71 36.878 0.1 6.55 2.49 12.94
3/10/2021 4:00:00 AM 2.67 36.806 0.101 6.51 2.58 12.95
3/10/2021 4:15:00 AM 2.63 36.734 0.101 6.55 2.48 12.97
3/10/2021 4:30:00 AM 2.6 36.68 0.102 6.54 2.51 12.98
3/10/2021 4:45:00 AM 2.56 36.608 0.102 6.51 2.4 12.99
3/10/2021 5:00:00 AM 2.53 36.554 0.103 6.51 2.5 13.01
3/10/2021 5:15:00 AM 2.49 36.482 0.104 6.53 2.48 13.02
3/10/2021 5:30:00 AM 2.46 36.428 0.104 6.55 2.47 13.03
3/10/2021 5:45:00 AM 2.43 36.374 0.104 6.55 2.51 13.04
3/10/2021 6:00:00 AM 2.4 36.32 0.105 6.55 2.5 13.05
3/10/2021 6:15:00 AM 2.36 36.248 0.105 6.52 2.4 13.06
3/10/2021 6:30:00 AM 2.34 36.212 0.105 6.55 2.42 13.08
3/10/2021 6:45:00 AM 2.31 36.158 0.106 6.55 2.45 13.11
3/10/2021 7:00:00 AM 2.29 36.122 0.106 6.56 2.37 13.14
3/10/2021 7:15:00 AM 2.27 36.086 0.106 6.55 2.4 13.18
3/10/2021 7:30:00 AM 2.27 36.086 0.106 6.58 2.39 13.23
3/10/2021 7:45:00 AM 2.28 36.104 0.106 6.59 2.4 13.29
3/10/2021 8:00:00 AM 2.31 36.158 0.105 6.61 2.4 13.34
3/10/2021 8:15:00 AM 2.35 36.23 0.105 6.61 2.41 13.39
3/10/2021 8:30:00 AM 2.42 36.356 0.105 6.64 2.36 13.44
3/10/2021 8:45:00 AM 2.51 36.518 0.105 6.66 2.43 13.47
3/10/2021 9:00:00 AM 2.62 36.716 0.104 6.67 2.44 13.49
3/10/2021 9:15:00 AM 2.75 36.95 0.104 6.69 2.56 13.51
3/10/2021 9:30:00 AM 2.9 37.22 0.104 6.71 2.45 13.5
3/10/2021 9:45:00 AM 3.05 37.49 0.103 6.72 2.56 13.49
3/10/2021 10:00:00 AM 3.24 37.832 0.103 6.73 2.38 13.47
3/10/2021 10:15:00 AM 3.44 38.192 0.103 6.74 2.31 13.45
3/10/2021 10:30:00 AM 3.64 38.552 0.102 6.75 2.36 13.41
3/10/2021 10:45:00 AM 3.84 38.912 0.102 6.76 2.37 13.37
3/10/2021 11:00:00 AM 4.05 39.29 0.101 6.75 2.34 13.32
3/10/2021 11:15:00 AM 4.27 39.686 0.101 6.78 2.39 13.26
3/10/2021 11:30:00 AM 4.5 40.1 0.101 6.78 2.36 13.2
3/10/2021 11:45:00 AM 4.74 40.532 0.1 6.79 2.38 13.13
3/10/2021 12:00:00 PM 4.98 40.964 0.1 6.79 2.38 13.05
3/10/2021 12:15:00 PM 5.22 41.396 0.099 6.78 2.48 12.98
3/10/2021 12:30:00 PM 5.46 41.828 0.099 6.8 2.59 12.91
3/10/2021 12:45:00 PM 5.68 42.224 0.099 6.8 2.63 12.84
3/10/2021 1:00:00 PM 5.87 42.566 0.098 6.78 2.68 12.77
3/10/2021 1:15:00 PM 6.05 42.89 0.098 6.8 2.59 12.69
3/10/2021 1:30:00 PM 6.23 43.214 0.097 6.8 2.59 12.64
3/10/2021 1:45:00 PM 6.34 43.412 0.097 6.8 2.5 12.57
3/10/2021 2:00:00 PM 6.5 43.7 0.096 6.79 2.54 12.52
3/10/2021 2:15:00 PM 6.64 43.952 0.096 6.79 2.75 12.46
3/10/2021 2:30:00 PM 6.76 44.168 0.096 6.78 2.82 12.41
3/10/2021 2:45:00 PM 6.86 44.348 0.096 6.76 2.72 12.36
3/10/2021 3:00:00 PM 6.92 44.456 0.095 6.78 2.82 12.3
3/10/2021 3:15:00 PM 6.97 44.546 0.095 6.76 2.74 12.25
3/10/2021 3:30:00 PM 6.99 44.582 0.095 6.75 2.9 12.21
3/10/2021 3:45:00 PM 6.98 44.564 0.095 6.74 2.94 12.18
3/10/2021 4:00:00 PM 6.97 44.546 0.095 6.73 2.91 12.17
3/10/2021 4:15:00 PM 6.92 44.456 0.095 6.72 3.15 12.12
3/10/2021 4:30:00 PM 6.84 44.312 0.095 6.7 3.57 12.1
3/10/2021 4:45:00 PM 6.76 44.168 0.096 6.69 3.5 12.06
3/10/2021 5:00:00 PM 6.65 43.97 0.097 6.67 3.99 12.05
3/10/2021 5:15:00 PM 6.54 43.772 0.099 6.65 3.93 12.04
3/10/2021 5:30:00 PM 6.42 43.556 0.1 6.6 4.03 12.01
3/10/2021 5:45:00 PM 6.29 43.322 0.101 6.61 4.41 11.97
3/10/2021 6:00:00 PM 6.17 43.106 0.102 6.59 4.4 11.95
3/10/2021 6:15:00 PM 6.05 42.89 0.103 6.57 4.47 11.92
3/10/2021 6:30:00 PM 5.91 42.638 0.103 6.55 4.55 11.91
3/10/2021 6:45:00 PM 5.78 42.404 0.104 6.52 4.75 11.92
3/10/2021 7:00:00 PM 5.66 42.188 0.104 6.53 4.81 11.93
3/10/2021 7:15:00 PM 5.54 41.972 0.104 6.52 4.72 11.95
3/10/2021 7:30:00 PM 5.44 41.792 0.104 6.51 5.01 11.97
3/10/2021 7:45:00 PM 5.34 41.612 0.105 6.51 4.75 12
3/10/2021 8:00:00 PM 5.24 41.432 0.105 6.51 4.77 12.03
3/10/2021 8:15:00 PM 5.15 41.27 0.105 6.51 4.52 12.05
3/10/2021 8:30:00 PM 5.07 41.126 0.105 6.48 4.49 12.08
3/10/2021 8:45:00 PM 4.99 40.982 0.106 6.51 4.52 12.1
3/10/2021 9:00:00 PM 4.91 40.838 0.106 6.51 4.52 12.13
3/10/2021 9:15:00 PM 4.83 40.694 0.106 6.5 4.62 12.15
3/10/2021 9:30:00 PM 4.76 40.568 0.107 6.49 4.47 12.18
3/10/2021 9:45:00 PM 4.69 40.442 0.107 6.49 4.22 12.21
3/10/2021 10:00:00 PM 4.62 40.316 0.108 6.52 4.12 12.23
3/10/2021 10:15:00 PM 4.56 40.208 0.108 6.49 4.03 12.24
3/10/2021 10:30:00 PM 4.5 40.1 0.109 6.51 4.17 12.27
3/10/2021 10:45:00 PM 4.44 39.992 0.11 6.48 3.92 12.29
3/10/2021 11:00:00 PM 4.39 39.902 0.112 6.5 4.06 12.31
3/10/2021 11:15:00 PM 4.34 39.812 0.113 6.51 3.92 12.32
3/10/2021 11:30:00 PM 4.31 39.758 0.114 6.51 3.81 12.34
3/10/2021 11:45:00 PM 4.27 39.686 0.116 6.51 4.1 12.35
3/11/2021 12:00:00 AM 4.23 39.614 0.117 6.47 3.83 12.36
3/11/2021 12:15:00 AM 4.21 39.578 0.118 6.51 3.83 12.37
3/11/2021 12:30:00 AM 4.18 39.524 0.119 6.51 3.96 12.38
3/11/2021 12:45:00 AM 4.16 39.488 0.119 6.51 3.81 12.39
3/11/2021 1:00:00 AM 4.14 39.452 0.119 6.49 3.93 12.4
3/11/2021 1:15:00 AM 4.11 39.398 0.119 6.52 3.88 12.41
3/11/2021 1:30:00 AM 4.08 39.344 0.118 6.51 3.93 12.42
3/11/2021 1:45:00 AM 4.08 39.344 0.117 6.5 4.09 12.42
3/11/2021 2:00:00 AM 4.08 39.344 0.117 6.51 4 12.42
3/11/2021 2:15:00 AM 4.08 39.344 0.116 6.51 4.24 12.42
3/11/2021 2:30:00 AM 4.08 39.344 0.115 6.51 4.24 12.42
3/11/2021 2:45:00 AM 4.09 39.362 0.114 6.51 4.21 12.42
3/11/2021 3:00:00 AM 4.09 39.362 0.113 6.5 4.15 12.42
3/11/2021 3:15:00 AM 4.1 39.38 0.112 6.5 4.52 12.41
3/11/2021 3:30:00 AM 4.11 39.398 0.111 6.51 4.46 12.41
3/11/2021 3:45:00 AM 4.11 39.398 0.11 6.5 4.42 12.41
3/11/2021 4:00:00 AM 4.11 39.398 0.109 6.5 4.41 12.41
3/11/2021 4:15:00 AM 4.11 39.398 0.108 6.46 4.58 12.41
3/11/2021 4:30:00 AM 4.11 39.398 0.107 6.5 4.59 12.41
3/11/2021 4:45:00 AM 4.12 39.416 0.106 6.5 4.8 12.41
3/11/2021 5:00:00 AM 4.12 39.416 0.105 6.5 4.69 12.4
3/11/2021 5:15:00 AM 4.11 39.398 0.104 6.49 5.02 12.4
3/11/2021 5:30:00 AM 4.09 39.362 0.103 6.5 5.02 12.41
3/11/2021 5:45:00 AM 4.08 39.344 0.102 6.45 4.99 12.41
3/11/2021 6:00:00 AM 4.08 39.344 0.101 6.5 4.44 12.41
3/11/2021 6:15:00 AM 4.08 39.344 0.1 6.5 4.54 12.41
3/11/2021 6:30:00 AM 4.07 39.326 0.099 6.49 4.89 12.42
3/11/2021 6:45:00 AM 4.06 39.308 0.098 6.49 4.89 12.43
3/11/2021 7:00:00 AM 4.05 39.29 0.097 6.49 4.59 12.45
3/11/2021 7:15:00 AM 4.04 39.272 0.096 6.49 4.74 12.48
3/11/2021 7:30:00 AM 4.05 39.29 0.096 6.49 4.36 12.51
3/11/2021 7:45:00 AM 4.08 39.344 0.095 6.53 4.19 12.57
3/11/2021 8:00:00 AM 4.14 39.452 0.094 6.54 4.2 12.62
3/11/2021 8:15:00 AM 4.19 39.542 0.094 6.52 4.09 12.63
3/11/2021 8:30:00 AM 4.22 39.596 0.093 6.56 4.52 12.63
3/11/2021 8:45:00 AM 4.3 39.74 0.092 6.57 4.23 12.67
3/11/2021 9:00:00 AM 4.35 39.83 0.091 6.57 4.27 12.67
3/11/2021 9:15:00 AM 4.42 39.956 0.091 6.58 4.12 12.67
3/11/2021 9:30:00 AM 4.46 40.028 0.09 6.58 4.32 12.65
3/11/2021 9:45:00 AM 4.51 40.118 0.089 6.57 4.14 12.65
3/11/2021 10:00:00 AM 4.63 40.334 0.089 6.6 4.15 12.68
3/11/2021 10:15:00 AM 4.76 40.568 0.088 6.62 4.65 12.67
3/11/2021 10:30:00 AM 4.96 40.928 0.088 6.63 4.16 12.65
3/11/2021 10:45:00 AM 5.17 41.306 0.087 6.65 4.43 12.63
3/11/2021 11:00:00 AM 5.35 41.63 0.087 6.65 4.33 12.6
3/11/2021 11:15:00 AM 5.53 41.954 0.086 6.65 4.38 12.57
3/11/2021 11:30:00 AM 5.73 42.314 0.085 6.66 4.77 12.52
3/11/2021 11:45:00 AM 5.93 42.674 0.085 6.67 4.76 12.47
3/11/2021 12:00:00 PM 6.1 42.98 0.084 6.67 4.81 12.42
3/11/2021 12:15:00 PM 6.3 43.34 0.084 6.67 6.1 12.36
3/11/2021 12:30:00 PM 6.43 43.574 0.083 6.67 5.2 12.31
3/11/2021 12:45:00 PM 6.52 43.736 0.083 6.62 5.86 12.25
3/11/2021 1:00:00 PM 6.55 43.79 0.083 6.65 6.27 12.2
3/11/2021 1:15:00 PM 6.67 44.006 0.083 6.64 6.43 12.17
3/11/2021 1:30:00 PM 6.82 44.276 0.083 6.64 7.13 12.12
3/11/2021 1:45:00 PM 6.9 44.42 0.083 6.62 7.87 12.09
3/11/2021 2:00:00 PM 6.87 44.366 0.083 6.6 8.6 12.05
3/11/2021 2:15:00 PM 6.87 44.366 0.083 6.59 9.56 12.04
3/11/2021 2:30:00 PM 6.91 44.438 0.084 6.59 10.28 12
3/11/2021 2:45:00 PM 6.91 44.438 0.084 6.56 11.97 11.95
3/11/2021 3:00:00 PM 6.89 44.402 0.085 6.53 11.34 11.94
3/11/2021 3:15:00 PM 6.84 44.312 0.085 6.52 13.46 11.88
3/11/2021 3:30:00 PM 6.8 44.24 0.086 6.52 14.07 11.88
3/11/2021 3:45:00 PM 6.73 44.114 0.087 6.52 14.65 11.85
3/11/2021 4:00:00 PM 6.65 43.97 0.087 6.5 15 11.84
3/11/2021 4:15:00 PM 6.55 43.79 0.088 6.48 17.16 11.84
3/11/2021 4:30:00 PM 6.43 43.574 0.089 6.46 21.57 11.85
3/11/2021 4:45:00 PM 6.32 43.376 0.089 6.45 19.93 11.85
3/11/2021 5:00:00 PM 6.18 43.124 0.09 6.41 24.92 11.86
3/11/2021 5:15:00 PM 6.04 42.872 0.09 6.41 30.22 11.88
3/11/2021 5:30:00 PM 5.91 42.638 0.092 6.36 24.33 11.91
3/11/2021 5:45:00 PM 5.79 42.422 0.093 6.39 27.83 11.94
3/11/2021 6:00:00 PM 5.65 42.17 0.093 6.38 38.93 11.96
3/11/2021 6:15:00 PM 5.51 41.918 0.093 6.36 25.37 11.99
3/11/2021 6:30:00 PM 5.4 41.72 0.093 6.33 21.74 12.02
3/11/2021 6:45:00 PM 5.3 41.54 0.093 6.36 24.89 12.05
3/11/2021 7:00:00 PM 5.2 41.36 0.092 6.34 23.9 12.08
3/11/2021 7:15:00 PM 5.12 41.216 0.09 6.34 23.15 12.1
3/11/2021 7:30:00 PM 5.05 41.09 0.09 6.35 24.25 12.13
3/11/2021 7:45:00 PM 5 41 0.089 6.33 19.69 12.16
3/11/2021 8:00:00 PM 4.96 40.928 0.088 6.34 26.57 12.18
3/11/2021 8:15:00 PM 4.93 40.874 0.087 6.37 26.82 12.19
3/11/2021 8:30:00 PM 4.89 40.802 0.086 6.33 22.39 12.2
3/11/2021 8:45:00 PM 4.85 40.73 0.085 6.36 19.04 12.21
3/11/2021 9:00:00 PM 4.81 40.658 0.084 6.36 25.31 12.23
3/11/2021 9:15:00 PM 4.78 40.604 0.082 6.36 17.44 12.23
3/11/2021 9:30:00 PM 4.77 40.586 0.081 6.36 24.26 12.24
3/11/2021 9:45:00 PM 4.75 40.55 0.08 6.32 24.22 12.25
3/11/2021 10:00:00 PM 4.74 40.532 0.079 6.33 30.94 12.26
3/11/2021 10:15:00 PM 4.73 40.514 0.078 6.33 25.54 12.26
3/11/2021 10:30:00 PM 4.73 40.514 0.077 6.36 25.22 12.25
3/11/2021 10:45:00 PM 4.72 40.496 0.076 6.35 29.32 12.26
3/11/2021 11:00:00 PM 4.69 40.442 0.076 6.34 19.58 12.27
3/11/2021 11:15:00 PM 4.68 40.424 0.075 6.33 25.99 12.27
3/11/2021 11:30:00 PM 4.67 40.406 0.074 6.34 22.63 12.28
3/11/2021 11:45:00 PM 4.66 40.388 0.073 6.34 29.81 12.28
3/12/2021 12:00:00 AM 4.65 40.37 0.072 6.33 24.15 12.28
3/12/2021 12:15:00 AM 4.65 40.37 0.072 6.32 21.75 12.28
3/12/2021 12:30:00 AM 4.65 40.37 0.071 6.33 22.7 12.28
3/12/2021 12:45:00 AM 4.63 40.334 0.07 6.3 26.31 12.29
3/12/2021 1:00:00 AM 4.63 40.334 0.07 6.31 27.22 12.29
3/12/2021 1:15:00 AM 4.64 40.352 0.069 6.33 23.1 12.3
3/12/2021 1:30:00 AM 4.62 40.316 0.068 6.33 19.98 12.3
3/12/2021 1:45:00 AM 4.62 40.316 0.068 6.32 23.1 12.3
3/12/2021 2:00:00 AM 4.62 40.316 0.067 6.33 20.94 12.3
3/12/2021 2:15:00 AM 4.62 40.316 0.067 6.28 21.63 12.3
3/12/2021 2:30:00 AM 4.62 40.316 0.066 6.33 20.12 12.31
3/12/2021 2:45:00 AM 4.63 40.334 0.066 6.34 22.4 12.31
3/12/2021 3:00:00 AM 4.64 40.352 0.065 6.28 21.46 12.31
3/12/2021 3:15:00 AM 4.64 40.352 0.065 6.33 18.99 12.3
3/12/2021 3:30:00 AM 4.64 40.352 0.064 6.32 20.03 12.31
3/12/2021 3:45:00 AM 4.62 40.316 0.064 6.32 20.93 12.31
3/12/2021 4:00:00 AM 4.6 40.28 0.064 6.31 20.94 12.32
3/12/2021 4:15:00 AM 4.58 40.244 0.063 6.29 19.76 12.32
3/12/2021 4:30:00 AM 4.56 40.208 0.063 6.29 23.64 12.33
3/12/2021 4:45:00 AM 4.53 40.154 0.062 6.31 24.86 12.34
3/12/2021 5:00:00 AM 4.51 40.118 0.062 6.28 16.62 12.35
3/12/2021 5:15:00 AM 4.49 40.082 0.062 6.32 18.42 12.36
3/12/2021 5:30:00 AM 4.46 40.028 0.061 6.28 22.62 12.37
3/12/2021 5:45:00 AM 4.44 39.992 0.061 6.29 13.63 12.38
3/12/2021 6:00:00 AM 4.41 39.938 0.061 6.29 18.08 12.39
3/12/2021 6:15:00 AM 4.38 39.884 0.06 6.32 19.2 12.4
3/12/2021 6:30:00 AM 4.35 39.83 0.06 6.31 15.64 12.41
3/12/2021 6:45:00 AM 4.33 39.794 0.059 6.31 15.69 12.42
3/12/2021 7:00:00 AM 4.32 39.776 0.059 6.31 14.29 12.43
3/12/2021 7:15:00 AM 4.3 39.74 0.059 6.29 15.68 12.45
3/12/2021 7:30:00 AM 4.3 39.74 0.058 6.32 14.7 12.45
3/12/2021 7:45:00 AM 4.31 39.758 0.058 6.33 15.1 12.46
3/12/2021 8:00:00 AM 4.33 39.794 0.058 6.31 14.1 12.48
3/12/2021 8:15:00 AM 4.36 39.848 0.057 6.34 14.4 12.49
3/12/2021 8:30:00 AM 4.41 39.938 0.057 6.29 13.48 12.49
3/12/2021 8:45:00 AM 4.46 40.028 0.057 6.35 12.85 12.49
3/12/2021 9:00:00 AM 4.54 40.172 0.056 6.32 12.96 12.49
3/12/2021 9:15:00 AM 4.63 40.334 0.056 6.34 12.15 12.49
3/12/2021 9:30:00 AM 4.74 40.532 0.056 6.35 12.47 12.47
3/12/2021 9:45:00 AM 4.84 40.712 0.056 6.38 13.27 12.45
3/12/2021 10:00:00 AM 4.96 40.928 0.055 6.37 11.77 12.43
3/12/2021 10:15:00 AM 5.1 41.18 0.055 6.38 13.26 12.4
3/12/2021 10:30:00 AM 5.24 41.432 0.055 6.38 11.14 12.37
3/12/2021 10:45:00 AM 5.39 41.702 0.055 6.37 11.58 12.33
3/12/2021 11:00:00 AM 5.54 41.972 0.055 6.39 11.99 12.29
3/12/2021 11:15:00 AM 5.69 42.242 0.054 6.39 10.76 12.26
3/12/2021 11:30:00 AM 5.83 42.494 0.054 6.38 11.12 12.21
3/12/2021 11:45:00 AM 5.99 42.782 0.054 6.38 10.71 12.17
3/12/2021 12:00:00 PM 6.13 43.034 0.054 6.36 11.11 12.12
3/12/2021 12:15:00 PM 6.27 43.286 0.054 6.39 10.71 12.08
3/12/2021 12:30:00 PM 6.41 43.538 0.054 6.38 11.8 12.04
3/12/2021 12:45:00 PM 6.55 43.79 0.054 6.38 11.77 12
3/12/2021 1:00:00 PM 6.67 44.006 0.053 6.39 12.23 11.95
3/12/2021 1:15:00 PM 6.78 44.204 0.053 6.37 11.24 11.91
3/12/2021 1:30:00 PM 6.88 44.384 0.053 6.37 11.56 11.87
3/12/2021 1:45:00 PM 6.96 44.528 0.053 6.38 12.42 11.85
3/12/2021 2:00:00 PM 7.02 44.636 0.053 6.34 12.38 11.82
3/12/2021 2:15:00 PM 7.06 44.708 0.053 6.35 13.01 11.8
3/12/2021 2:30:00 PM 7.09 44.762 0.054 6.36 13.27 11.78
3/12/2021 2:45:00 PM 7.09 44.762 0.054 6.36 13.06 11.77
3/12/2021 3:00:00 PM 7.08 44.744 0.054 6.35 13.08 11.76
3/12/2021 3:15:00 PM 7.05 44.69 0.054 6.34 14.66 11.75
3/12/2021 3:30:00 PM 7.01 44.618 0.054 6.34 14.48 11.75
3/12/2021 3:45:00 PM 6.94 44.492 0.054 6.33 14.78 11.75
3/12/2021 4:00:00 PM 6.86 44.348 0.054 6.3 15.58 11.75
3/12/2021 4:15:00 PM 6.77 44.186 0.054 6.3 18.75 11.76
3/12/2021 4:30:00 PM 6.66 43.988 0.054 6.32 15.37 11.78
3/12/2021 4:45:00 PM 6.54 43.772 0.055 6.28 14.52 11.8
3/12/2021 5:00:00 PM 6.42 43.556 0.055 6.3 15.36 11.82
3/12/2021 5:15:00 PM 6.29 43.322 0.055 6.3 24.24 11.84
3/12/2021 5:30:00 PM 6.17 43.106 0.055 6.28 14.56 11.86
3/12/2021 5:45:00 PM 6.05 42.89 0.055 6.27 15.07 11.88
3/12/2021 6:00:00 PM 5.92 42.656 0.055 6.29 15.45 11.92
3/12/2021 6:15:00 PM 5.81 42.458 0.055 6.29 14.99 11.95
3/12/2021 6:30:00 PM 5.71 42.278 0.055 6.26 14.25 11.98
3/12/2021 6:45:00 PM 5.62 42.116 0.055 6.28 14.21 12
3/12/2021 7:00:00 PM 5.54 41.972 0.055 6.3 15.72 12.02
3/12/2021 7:15:00 PM 5.46 41.828 0.054 6.29 13.87 12.05
3/12/2021 7:30:00 PM 5.4 41.72 0.054 6.3 13.35 12.07
3/12/2021 7:45:00 PM 5.34 41.612 0.054 6.27 13.56 12.09
3/12/2021 8:00:00 PM 5.29 41.522 0.054 6.29 12.97 12.11
3/12/2021 8:15:00 PM 5.24 41.432 0.054 6.31 11.92 12.12
3/12/2021 8:30:00 PM 5.2 41.36 0.054 6.3 12.55 12.14
3/12/2021 8:45:00 PM 5.17 41.306 0.053 6.32 12.23 12.15
3/12/2021 9:00:00 PM 5.13 41.234 0.053 6.3 11.33 12.17
3/12/2021 9:15:00 PM 5.1 41.18 0.053 6.3 14.82 12.18
3/12/2021 9:30:00 PM 5.06 41.108 0.053 6.31 11.21 12.19
3/12/2021 9:45:00 PM 5.03 41.054 0.053 6.31 11.08 12.2
3/12/2021 10:00:00 PM 5 41 0.052 6.31 14.33 12.22
3/12/2021 10:15:00 PM 4.96 40.928 0.052 6.31 10.64 12.23
3/12/2021 10:30:00 PM 4.92 40.856 0.052 6.32 10.45 12.24
3/12/2021 10:45:00 PM 4.88 40.784 0.052 6.28 10.23 12.26
3/12/2021 11:00:00 PM 4.83 40.694 0.052 6.31 10 12.27
3/12/2021 11:15:00 PM 4.78 40.604 0.052 6.29 9.87 12.28
3/12/2021 11:30:00 PM 4.73 40.514 0.052 6.32 9.32 12.3
3/12/2021 11:45:00 PM 4.68 40.424 0.051 6.29 9.53 12.32
3/13/2021 12:00:00 AM 4.63 40.334 0.051 6.32 9.89 12.33
3/13/2021 12:15:00 AM 4.59 40.262 0.051 6.33 11.47 12.35
3/13/2021 12:30:00 AM 4.54 40.172 0.051 6.28 8.98 12.38
3/13/2021 12:45:00 AM 4.49 40.082 0.051 6.32 10.52 12.39
3/13/2021 1:00:00 AM 4.46 40.028 0.051 6.31 9.07 12.4
3/13/2021 1:15:00 AM 4.42 39.956 0.051 6.33 9.07 12.42
3/13/2021 1:30:00 AM 4.38 39.884 0.051 6.32 8.63 12.43
3/13/2021 1:45:00 AM 4.33 39.794 0.051 6.32 8.82 12.45
3/13/2021 2:00:00 AM 4.3 39.74 0.051 6.3 8.85 12.47
3/13/2021 2:15:00 AM 4.26 39.668 0.051 6.32 8.33 12.48
3/13/2021 2:30:00 AM 4.23 39.614 0.05 6.31 8.54 12.49
3/13/2021 2:45:00 AM 4.2 39.56 0.05 6.31 8.21 12.5
3/13/2021 3:00:00 AM 4.17 39.506 0.05 6.33 7.95 12.51
3/13/2021 3:15:00 AM 4.15 39.47 0.05 6.33 8.44 12.52
3/13/2021 3:30:00 AM 4.11 39.398 0.05 6.32 8.05 12.53
3/13/2021 3:45:00 AM 4.09 39.362 0.05 6.33 8.52 12.54
3/13/2021 4:00:00 AM 4.06 39.308 0.05 6.3 7.79 12.55
3/13/2021 4:15:00 AM 4.03 39.254 0.05 6.31 10.12 12.56
3/13/2021 4:30:00 AM 4 39.2 0.05 6.33 7.62 12.57
3/13/2021 4:45:00 AM 3.97 39.146 0.05 6.32 7.84 12.58
3/13/2021 5:00:00 AM 3.95 39.11 0.05 6.33 7.54 12.59
3/13/2021 5:15:00 AM 3.93 39.074 0.05 6.34 7.86 12.6
3/13/2021 5:30:00 AM 3.9 39.02 0.05 6.3 7.41 12.61
3/13/2021 5:45:00 AM 3.88 38.984 0.05 6.33 7.28 12.62
3/13/2021 6:00:00 AM 3.87 38.966 0.05 6.33 7.41 12.62
3/13/2021 6:15:00 AM 3.85 38.93 0.05 6.3 7.2 12.63
3/13/2021 6:30:00 AM 3.83 38.894 0.05 6.33 6.93 12.64
3/13/2021 6:45:00 AM 3.82 38.876 0.05 6.34 6.98 12.65
3/13/2021 7:00:00 AM 3.82 38.876 0.05 6.32 6.82 12.65
3/13/2021 7:15:00 AM 3.82 38.876 0.049 6.35 6.66 12.68
3/13/2021 7:30:00 AM 3.82 38.876 0.049 6.35 6.82 12.69
3/13/2021 7:45:00 AM 3.84 38.912 0.049 6.35 6.69 12.71
3/13/2021 8:00:00 AM 3.86 38.948 0.049 6.34 6.33 12.72
3/13/2021 8:15:00 AM 3.87 38.966 0.049 6.35 6.5 12.72
3/13/2021 8:30:00 AM 3.88 38.984 0.049 6.35 6.51 12.74
3/13/2021 8:45:00 AM 3.92 39.056 0.049 6.38 6.24 12.73
3/13/2021 9:00:00 AM 3.99 39.182 0.049 6.38 6.31 12.74
3/13/2021 9:15:00 AM 4.06 39.308 0.049 6.36 6.2 12.73
3/13/2021 9:30:00 AM 4.13 39.434 0.049 6.36 5.91 12.72
3/13/2021 9:45:00 AM 4.22 39.596 0.049 6.41 5.71 12.71
3/13/2021 10:00:00 AM 4.3 39.74 0.049 6.4 5.61 12.69
3/13/2021 10:15:00 AM 4.41 39.938 0.049 6.41 5.73 12.67
3/13/2021 10:30:00 AM 4.54 40.172 0.048 6.4 6.07 12.64
3/13/2021 10:45:00 AM 4.68 40.424 0.048 6.4 5.93 12.6
3/13/2021 11:00:00 AM 4.82 40.676 0.048 6.4 6 12.57
3/13/2021 11:15:00 AM 4.96 40.928 0.048 6.41 6.11 12.53
3/13/2021 11:30:00 AM 5.11 41.198 0.048 6.41 5.95 12.49
3/13/2021 11:45:00 AM 5.27 41.486 0.048 6.41 6.03 12.44
3/13/2021 12:00:00 PM 5.42 41.756 0.048 6.41 5.91 12.4
3/13/2021 12:15:00 PM 5.56 42.008 0.048 6.41 5.54 12.35
3/13/2021 12:30:00 PM 5.71 42.278 0.048 6.38 5.77 12.3
3/13/2021 12:45:00 PM 5.84 42.512 0.048 6.38 5.93 12.26
3/13/2021 1:00:00 PM 5.98 42.764 0.048 6.42 5.78 12.21
3/13/2021 1:15:00 PM 6.12 43.016 0.048 6.41 5.93 12.16
3/13/2021 1:30:00 PM 6.24 43.232 0.048 6.38 5.83 12.12
3/13/2021 1:45:00 PM 6.35 43.43 0.048 6.39 5.93 12.08
3/13/2021 2:00:00 PM 6.44 43.592 0.048 6.4 6.37 12.05
3/13/2021 2:15:00 PM 6.52 43.736 0.048 6.39 6.26 12.01
3/13/2021 2:30:00 PM 6.57 43.826 0.048 6.38 5.73 11.99
3/13/2021 2:45:00 PM 6.61 43.898 0.048 6.39 5.64 11.97
3/13/2021 3:00:00 PM 6.63 43.934 0.048 6.4 5.99 11.95
3/13/2021 3:15:00 PM 6.63 43.934 0.048 6.39 5.81 11.93
3/13/2021 3:30:00 PM 6.62 43.916 0.048 6.38 6.27 11.93
3/13/2021 3:45:00 PM 6.6 43.88 0.048 6.38 5.94 11.92
3/13/2021 4:00:00 PM 6.55 43.79 0.048 6.36 6.62 11.92
3/13/2021 4:15:00 PM 6.48 43.664 0.048 6.35 5.85 11.92
3/13/2021 4:30:00 PM 6.41 43.538 0.048 6.38 5.83 11.93
3/13/2021 4:45:00 PM 6.33 43.394 0.048 6.36 5.79 11.93
3/13/2021 5:00:00 PM 6.23 43.214 0.048 6.36 5.71 11.94
3/13/2021 5:15:00 PM 6.12 43.016 0.048 6.34 5.89 11.95
3/13/2021 5:30:00 PM 6.01 42.818 0.048 6.34 5.89 11.97
3/13/2021 5:45:00 PM 5.91 42.638 0.048 6.34 6.12 11.98
3/13/2021 6:00:00 PM 5.81 42.458 0.048 6.34 5.9 11.99
3/13/2021 6:15:00 PM 5.71 42.278 0.048 6.31 6.01 12.01
3/13/2021 6:30:00 PM 5.61 42.098 0.048 6.32 6.3 12.03
3/13/2021 6:45:00 PM 5.52 41.936 0.048 6.34 6.22 12.05
3/13/2021 7:00:00 PM 5.43 41.774 0.048 6.31 6.85 12.06
3/13/2021 7:15:00 PM 5.35 41.63 0.048 6.32 5.86 12.08
3/13/2021 7:30:00 PM 5.28 41.504 0.048 6.32 5.79 12.1
3/13/2021 7:45:00 PM 5.22 41.396 0.048 6.31 6.2 12.12
3/13/2021 8:00:00 PM 5.16 41.288 0.048 6.32 5.61 12.14
3/13/2021 8:15:00 PM 5.1 41.18 0.048 6.29 6.64 12.16
3/13/2021 8:30:00 PM 5.05 41.09 0.048 6.35 6.06 12.17
3/13/2021 8:45:00 PM 5 41 0.048 6.3 5.79 12.18
3/13/2021 9:00:00 PM 4.96 40.928 0.048 6.33 5.91 12.19
3/13/2021 9:15:00 PM 4.92 40.856 0.048 6.33 6.2 12.21
3/13/2021 9:30:00 PM 4.89 40.802 0.048 6.34 5.75 12.21
3/13/2021 9:45:00 PM 4.86 40.748 0.048 6.32 5.88 12.22
3/13/2021 10:00:00 PM 4.83 40.694 0.048 6.33 5.74 12.23
3/13/2021 10:15:00 PM 4.8 40.64 0.048 6.35 6.23 12.23
3/13/2021 10:30:00 PM 4.78 40.604 0.048 6.34 5.65 12.24
3/13/2021 10:45:00 PM 4.76 40.568 0.048 6.33 5.57 12.25
3/13/2021 11:00:00 PM 4.74 40.532 0.048 6.33 6.04 12.26
3/13/2021 11:15:00 PM 4.72 40.496 0.048 6.34 5.91 12.26
3/13/2021 11:30:00 PM 4.69 40.442 0.048 6.35 5.84 12.27
3/13/2021 11:45:00 PM 4.68 40.424 0.048 6.36 5.61 12.27
3/14/2021 12:00:00 AM 4.66 40.388 0.048 6.34 5.79 12.28
3/14/2021 12:15:00 AM 4.64 40.352 0.048 6.35 5.28 12.28
3/14/2021 12:30:00 AM 4.63 40.334 0.048 6.35 5.58 12.29
3/14/2021 12:45:00 AM 4.61 40.298 0.048 6.34 5.61 12.29
3/14/2021 1:00:00 AM 4.6 40.28 0.048 6.35 5.78 12.29
3/14/2021 1:15:00 AM 4.59 40.262 0.048 6.35 5.23 12.3
3/14/2021 1:30:00 AM 4.58 40.244 0.048 6.36 5.65 12.3
3/14/2021 1:45:00 AM 4.57 40.226 0.048 6.32 5.38 12.3
3/14/2021 3:00:00 AM 4.53 40.154 0.048 6.32 6.02 12.3
3/14/2021 4:15:00 AM 4.52 40.136 0.047 6.34 5.75 12.3
3/14/2021 4:30:00 AM 4.51 40.118 0.047 6.33 5.73 12.3
3/14/2021 4:45:00 AM 4.5 40.1 0.047 6.34 5.55 12.3
3/14/2021 5:00:00 AM 4.5 40.1 0.047 6.35 5.38 12.3
3/14/2021 5:15:00 AM 4.49 40.082 0.047 6.3 5.58 12.3
3/14/2021 5:30:00 AM 4.48 40.064 0.047 6.35 5.85 12.31
3/14/2021 5:45:00 AM 4.47 40.046 0.047 6.33 5.59 12.3
3/14/2021 6:00:00 AM 4.46 40.028 0.047 6.36 5.51 12.31
3/14/2021 6:15:00 AM 4.45 40.01 0.047 6.34 5.91 12.31
3/14/2021 6:30:00 AM 4.44 39.992 0.047 6.34 5.41 12.31
3/14/2021 6:45:00 AM 4.43 39.974 0.047 6.34 5.43 12.32
3/14/2021 7:00:00 AM 4.41 39.938 0.047 6.32 4.97 12.32
3/14/2021 7:15:00 AM 4.4 39.92 0.047 6.33 5.69 12.33
3/14/2021 7:30:00 AM 4.39 39.902 0.047 6.35 5.34 12.33
3/14/2021 7:45:00 AM 4.37 39.866 0.047 6.35 5.12 12.35
3/14/2021 8:00:00 AM 4.37 39.866 0.047 6.36 4.95 12.35
3/14/2021 8:15:00 AM 4.37 39.866 0.047 6.36 5 12.37
3/14/2021 8:30:00 AM 4.37 39.866 0.047 6.36 4.98 12.38
3/14/2021 8:45:00 AM 4.39 39.902 0.047 6.33 5.05 12.4
3/14/2021 9:00:00 AM 4.43 39.974 0.047 6.38 4.9 12.41
3/14/2021 9:15:00 AM 4.47 40.046 0.047 6.35 4.78 12.42
3/14/2021 9:30:00 AM 4.52 40.136 0.047 6.39 4.72 12.43
3/14/2021 9:45:00 AM 4.58 40.244 0.047 6.4 4.58 12.43
3/14/2021 10:00:00 AM 4.66 40.388 0.047 6.42 4.62 12.43
3/14/2021 10:15:00 AM 4.75 40.55 0.047 6.36 4.44 12.41
3/14/2021 10:30:00 AM 4.84 40.712 0.047 6.41 4.42 12.4
3/14/2021 10:45:00 AM 4.95 40.91 0.047 6.4 5.13 12.39
3/14/2021 11:00:00 AM 5.06 41.108 0.047 6.44 4.45 12.38
3/14/2021 11:15:00 AM 5.16 41.288 0.047 6.4 4.59 12.34
3/14/2021 11:30:00 AM 5.27 41.486 0.047 6.43 4.8 12.31
3/14/2021 11:45:00 AM 5.41 41.738 0.047 6.43 4.4 12.28
3/14/2021 12:00:00 PM 5.53 41.954 0.047 6.4 4.27 12.24
3/14/2021 12:15:00 PM 5.7 42.26 0.047 6.42 4.84 12.21
3/14/2021 12:30:00 PM 5.81 42.458 0.047 6.41 4.69 12.17
3/14/2021 12:45:00 PM 5.95 42.71 0.047 6.44 4.4 12.14
3/14/2021 1:00:00 PM 6.18 43.124 0.047 6.45 4.79 12.1
3/14/2021 1:15:00 PM 6.32 43.376 0.047 6.46 4.32 12.06
3/14/2021 1:30:00 PM 6.42 43.556 0.047 6.43 4.89 12.03
3/14/2021 1:45:00 PM 6.39 43.502 0.046 6.39 4.71 12.01
3/14/2021 2:00:00 PM 6.38 43.484 0.047 6.41 4.36 11.99
3/14/2021 2:15:00 PM 6.46 43.628 0.047 6.42 4.53 11.98
3/14/2021 2:30:00 PM 6.43 43.574 0.047 6.43 4.44 11.96
3/14/2021 2:45:00 PM 6.41 43.538 0.047 6.39 4.48 11.96
3/14/2021 3:00:00 PM 6.53 43.754 0.047 6.42 4.46 11.95
3/14/2021 3:15:00 PM 6.62 43.916 0.047 6.44 4.9 11.92
3/14/2021 3:30:00 PM 6.65 43.97 0.047 6.43 4.46 11.9
3/14/2021 3:45:00 PM 6.63 43.934 0.047 6.41 4.55 11.89
3/14/2021 4:00:00 PM 6.66 43.988 0.047 6.42 5.03 11.89
3/14/2021 4:15:00 PM 6.57 43.826 0.047 6.41 4.67 11.89
3/14/2021 4:30:00 PM 6.58 43.844 0.047 6.41 4.65 11.91
3/14/2021 4:45:00 PM 6.58 43.844 0.047 6.42 4.63 11.91
3/14/2021 5:00:00 PM 6.53 43.754 0.047 6.4 4.68 11.92
3/14/2021 5:15:00 PM 6.43 43.574 0.047 6.41 4.6 11.92
3/14/2021 5:30:00 PM 6.34 43.412 0.047 6.4 4.51 11.93
3/14/2021 5:45:00 PM 6.21 43.178 0.047 6.39 4.44 11.95
3/14/2021 6:00:00 PM 6.07 42.926 0.047 6.36 4.44 11.97
3/14/2021 6:15:00 PM 5.92 42.656 0.047 6.36 4.56 12
3/14/2021 6:30:00 PM 5.77 42.386 0.047 6.37 4.47 12.02
3/14/2021 6:45:00 PM 5.61 42.098 0.047 6.34 4.63 12.05
3/14/2021 7:00:00 PM 5.45 41.81 0.047 6.34 4.51 12.08
3/14/2021 7:15:00 PM 5.3 41.54 0.047 6.36 5.01 12.11
3/14/2021 7:30:00 PM 5.19 41.342 0.047 6.36 4.83 12.13
3/14/2021 7:45:00 PM 5.06 41.108 0.047 6.36 4.67 12.17
3/14/2021 8:00:00 PM 4.94 40.892 0.047 6.31 5.01 12.2
3/14/2021 8:15:00 PM 4.82 40.676 0.047 6.36 4.85 12.24
3/14/2021 8:30:00 PM 4.71 40.478 0.047 6.33 5.12 12.28
3/14/2021 8:45:00 PM 4.62 40.316 0.047 6.36 4.76 12.31
3/14/2021 9:00:00 PM 4.52 40.136 0.047 6.36 6.41 12.34
3/14/2021 9:15:00 PM 4.44 39.992 0.047 6.32 4.99 12.37
3/14/2021 9:30:00 PM 4.37 39.866 0.047 6.36 4.72 12.4
3/14/2021 9:45:00 PM 4.31 39.758 0.047 6.33 4.79 12.42
3/14/2021 10:00:00 PM 4.24 39.632 0.047 6.37 4.96 12.44
3/14/2021 10:15:00 PM 4.18 39.524 0.047 6.37 4.57 12.47
3/14/2021 10:30:00 PM 4.11 39.398 0.047 6.34 4.57 12.49
3/14/2021 10:45:00 PM 4.03 39.254 0.047 6.33 6.1 12.52
3/14/2021 11:00:00 PM 3.96 39.128 0.047 6.36 4.62 12.55
3/14/2021 11:15:00 PM 3.89 39.002 0.047 6.38 4.49 12.57
3/14/2021 11:30:00 PM 3.82 38.876 0.047 6.34 4.73 12.6
3/14/2021 11:45:00 PM 3.77 38.786 0.047 6.36 4.55 12.62
3/15/2021 12:00:00 AM 3.71 38.678 0.047 6.36 4.62 12.64
3/15/2021 12:15:00 AM 3.66 38.588 0.047 6.35 4.79 12.66
3/15/2021 12:30:00 AM 3.62 38.516 0.047 6.39 4.41 12.67
3/15/2021 12:45:00 AM 3.58 38.444 0.047 6.38 4.57 12.69
3/15/2021 1:00:00 AM 3.55 38.39 0.047 6.37 4.8 12.7
3/15/2021 1:15:00 AM 3.52 38.336 0.047 6.34 4.43 12.71
3/15/2021 1:30:00 AM 3.47 38.246 0.047 6.36 4.63 12.73
3/15/2021 1:45:00 AM 3.43 38.174 0.047 6.38 4.53 12.74
3/15/2021 2:00:00 AM 3.4 38.12 0.047 6.38 4.42 12.76
3/15/2021 2:15:00 AM 3.36 38.048 0.047 6.37 4.39 12.77
3/15/2021 2:30:00 AM 3.34 38.012 0.047 6.36 4.32 12.78
3/15/2021 2:45:00 AM 3.3 37.94 0.047 6.39 4.56 12.79
3/15/2021 3:00:00 AM 3.28 37.904 0.047 6.38 4.33 12.8
3/15/2021 3:15:00 AM 3.25 37.85 0.047 6.36 4.53 12.81
3/15/2021 3:30:00 AM 3.22 37.796 0.047 6.38 4.48 12.82
3/15/2021 3:45:00 AM 3.2 37.76 0.047 6.36 4.36 12.82
3/15/2021 4:00:00 AM 3.17 37.706 0.047 6.36 4.23 12.83
3/15/2021 4:15:00 AM 3.15 37.67 0.047 6.39 4.62 12.84
3/15/2021 4:30:00 AM 3.13 37.634 0.047 6.4 4.23 12.85
3/15/2021 4:45:00 AM 3.1 37.58 0.047 6.39 4.25 12.85
3/15/2021 5:00:00 AM 3.08 37.544 0.047 6.38 4.21 12.87
3/15/2021 5:15:00 AM 3.06 37.508 0.047 6.35 4.57 12.87
3/15/2021 5:30:00 AM 3.04 37.472 0.047 6.35 4.2 12.87
3/15/2021 5:45:00 AM 3.02 37.436 0.047 6.38 4.14 12.88
3/15/2021 6:00:00 AM 3 37.4 0.047 6.37 4.14 12.89
3/15/2021 6:15:00 AM 2.98 37.364 0.047 6.37 4.13 12.9
3/15/2021 6:30:00 AM 2.96 37.328 0.047 6.39 4.45 12.91
3/15/2021 6:45:00 AM 2.94 37.292 0.047 6.39 3.99 12.92
3/15/2021 7:00:00 AM 2.92 37.256 0.047 6.37 4.15 12.93
3/15/2021 7:15:00 AM 2.9 37.22 0.047 6.36 4.17 12.94
3/15/2021 7:30:00 AM 2.87 37.166 0.047 6.37 4.02 12.96
3/15/2021 7:45:00 AM 2.85 37.13 0.047 6.4 4.2 12.97
3/15/2021 8:00:00 AM 2.84 37.112 0.047 6.39 4.43 12.98
3/15/2021 8:15:00 AM 2.83 37.094 0.047 6.37 4.22 13
3/15/2021 8:30:00 AM 2.82 37.076 0.047 6.41 4.66 13.03
3/15/2021 8:45:00 AM 2.82 37.076 0.047 6.39 5.02 13.05
3/15/2021 9:00:00 AM 2.82 37.076 0.047 6.39 3.87 13.07
3/15/2021 9:15:00 AM 2.85 37.13 0.047 6.41 3.98 13.09
3/15/2021 9:30:00 AM 2.86 37.148 0.047 6.42 3.98 13.1
3/15/2021 9:45:00 AM 2.89 37.202 0.047 6.45 3.84 13.12
3/15/2021 10:00:00 AM 2.95 37.31 0.047 6.42 4.27 13.12
3/15/2021 10:15:00 AM 3.03 37.454 0.047 6.45 3.72 13.12
3/15/2021 10:30:00 AM 3.11 37.598 0.047 6.45 3.67 13.11
3/15/2021 10:45:00 AM 3.22 37.796 0.047 6.43 3.67 13.09
3/15/2021 11:00:00 AM 3.31 37.958 0.047 6.43 3.82 13.08
3/15/2021 11:15:00 AM 3.42 38.156 0.047 6.47 4.01 13.06
3/15/2021 11:30:00 AM 3.52 38.336 0.047 6.46 3.69 13.03
3/15/2021 11:45:00 AM 3.66 38.588 0.047 6.44 3.8 13
3/15/2021 12:00:00 PM 3.81 38.858 0.047 6.45 3.6 12.96
3/15/2021 12:15:00 PM 3.94 39.092 0.047 6.48 3.79 12.92
3/15/2021 12:30:00 PM 4.07 39.326 0.047 6.44 3.78 12.88
3/15/2021 12:45:00 PM 4.24 39.632 0.047 6.45 3.56 12.83
3/15/2021 1:00:00 PM 4.41 39.938 0.047 6.48 3.79 12.78
3/15/2021 1:15:00 PM 4.56 40.208 0.047 6.44 3.52 12.73
3/15/2021 1:30:00 PM 4.72 40.496 0.047 6.46 3.52 12.67
3/15/2021 1:45:00 PM 4.88 40.784 0.047 6.45 3.56 12.63
3/15/2021 2:00:00 PM 5.03 41.054 0.047 6.45 3.5 12.58
3/15/2021 2:15:00 PM 5.17 41.306 0.047 6.45 3.64 12.53
3/15/2021 2:30:00 PM 5.32 41.576 0.047 6.46 3.56 12.48
3/15/2021 2:45:00 PM 5.46 41.828 0.047 6.47 3.66 12.42
3/15/2021 3:00:00 PM 5.56 42.008 0.047 6.47 3.6 12.38
3/15/2021 3:15:00 PM 5.63 42.134 0.047 6.47 3.6 12.35
3/15/2021 3:30:00 PM 5.68 42.224 0.047 6.44 3.77 12.33
3/15/2021 3:45:00 PM 5.75 42.35 0.047 6.43 3.6 12.3
3/15/2021 4:00:00 PM 5.79 42.422 0.047 6.46 3.63 12.28
3/15/2021 4:15:00 PM 5.81 42.458 0.046 6.45 3.64 12.26
3/15/2021 4:30:00 PM 5.82 42.476 0.047 6.42 3.61 12.25
3/15/2021 4:45:00 PM 5.82 42.476 0.047 6.43 3.86 12.24
3/15/2021 5:00:00 PM 5.79 42.422 0.047 6.45 3.61 12.23
3/15/2021 5:15:00 PM 5.74 42.332 0.047 6.44 3.75 12.22
3/15/2021 5:30:00 PM 5.66 42.188 0.047 6.39 3.67 12.22
3/15/2021 5:45:00 PM 5.57 42.026 0.047 6.4 3.57 12.23
3/15/2021 6:00:00 PM 5.47 41.846 0.047 6.42 3.71 12.23
3/15/2021 6:15:00 PM 5.36 41.648 0.047 6.4 3.66 12.25
3/15/2021 6:30:00 PM 5.25 41.45 0.047 6.37 3.7 12.26
3/15/2021 6:45:00 PM 5.16 41.288 0.047 6.4 4 12.26
3/15/2021 7:00:00 PM 5.06 41.108 0.047 6.39 4.07 12.28
3/15/2021 7:15:00 PM 4.97 40.946 0.047 6.38 3.82 12.29
3/15/2021 7:30:00 PM 4.87 40.766 0.047 6.39 3.9 12.3
3/15/2021 7:45:00 PM 4.77 40.586 0.047 6.37 3.94 12.32
3/15/2021 8:00:00 PM 4.68 40.424 0.047 6.33 3.96 12.34
3/15/2021 8:15:00 PM 4.6 40.28 0.047 6.36 3.88 12.37
3/15/2021 8:30:00 PM 4.52 40.136 0.047 6.34 3.84 12.39
3/15/2021 8:45:00 PM 4.44 39.992 0.047 6.37 4.11 12.41
3/15/2021 9:00:00 PM 4.37 39.866 0.047 6.33 3.75 12.43
3/15/2021 9:15:00 PM 4.3 39.74 0.047 6.35 4.42 12.44
3/15/2021 9:30:00 PM 4.24 39.632 0.047 6.34 4 12.46
3/15/2021 9:45:00 PM 4.19 39.542 0.047 6.35 4.12 12.48
3/15/2021 10:00:00 PM 4.14 39.452 0.047 6.38 3.93 12.5
3/15/2021 10:15:00 PM 4.1 39.38 0.047 6.33 3.89 12.51
3/15/2021 10:30:00 PM 4.06 39.308 0.047 6.37 3.65 12.52
3/15/2021 10:45:00 PM 4.02 39.236 0.047 6.35 3.89 12.54
3/15/2021 11:00:00 PM 4 39.2 0.047 6.36 3.57 12.55
3/15/2021 11:15:00 PM 3.98 39.164 0.047 6.37 4.17 12.55
3/15/2021 11:30:00 PM 3.96 39.128 0.047 6.38 3.63 12.56
3/15/2021 11:45:00 PM 3.94 39.092 0.047 6.36 3.72 12.56
3/16/2021 12:00:00 AM 3.92 39.056 0.047 6.38 3.68 12.57
3/16/2021 12:15:00 AM 3.91 39.038 0.047 6.35 3.84 12.57
3/16/2021 12:30:00 AM 3.89 39.002 0.047 6.36 3.66 12.57
3/16/2021 12:45:00 AM 3.89 39.002 0.047 6.38 3.79 12.57
3/16/2021 1:00:00 AM 3.88 38.984 0.047 6.34 3.79 12.58
3/16/2021 1:15:00 AM 3.87 38.966 0.047 6.37 3.62 12.58
3/16/2021 1:30:00 AM 3.85 38.93 0.047 6.36 4.06 12.58
3/16/2021 1:45:00 AM 3.84 38.912 0.047 6.39 3.73 12.58
3/16/2021 2:00:00 AM 3.83 38.894 0.047 6.38 3.65 12.58
3/16/2021 2:15:00 AM 3.82 38.876 0.047 6.34 3.55 12.59
3/16/2021 2:30:00 AM 3.82 38.876 0.047 6.39 3.7 12.59
3/16/2021 2:45:00 AM 3.81 38.858 0.047 6.36 3.83 12.59
3/16/2021 3:00:00 AM 3.81 38.858 0.047 6.37 3.58 12.59
3/16/2021 3:15:00 AM 3.81 38.858 0.047 6.37 3.67 12.59
3/16/2021 3:30:00 AM 3.8 38.84 0.047 6.38 3.63 12.59
3/16/2021 3:45:00 AM 3.8 38.84 0.047 6.36 3.48 12.59
3/16/2021 4:00:00 AM 3.8 38.84 0.047 6.39 3.75 12.58
3/16/2021 4:15:00 AM 3.8 38.84 0.047 6.36 3.62 12.58
3/16/2021 4:30:00 AM 3.79 38.822 0.047 6.35 3.73 12.58
3/16/2021 4:45:00 AM 3.79 38.822 0.047 6.39 3.63 12.58
3/16/2021 5:00:00 AM 3.78 38.804 0.047 6.35 3.73 12.58
3/16/2021 5:15:00 AM 3.77 38.786 0.047 6.37 3.9 12.58
3/16/2021 5:30:00 AM 3.77 38.786 0.047 6.39 3.49 12.57
3/16/2021 5:45:00 AM 3.77 38.786 0.047 6.35 3.52 12.57
3/16/2021 6:00:00 AM 3.78 38.804 0.047 6.39 3.46 12.57
3/16/2021 6:15:00 AM 3.78 38.804 0.047 6.36 3.72 12.57
3/16/2021 6:30:00 AM 3.79 38.822 0.047 6.36 3.59 12.57
3/16/2021 6:45:00 AM 3.79 38.822 0.047 6.37 3.5 12.57
3/16/2021 7:00:00 AM 3.8 38.84 0.047 6.39 3.42 12.57
3/16/2021 7:15:00 AM 3.8 38.84 0.047 6.39 3.41 12.56
3/16/2021 7:30:00 AM 3.81 38.858 0.047 6.35 3.37 12.56
3/16/2021 7:45:00 AM 3.81 38.858 0.047 6.35 3.59 12.56
3/16/2021 8:00:00 AM 3.81 38.858 0.047 6.36 3.72 12.57
3/16/2021 8:15:00 AM 3.81 38.858 0.047 6.38 3.5 12.57
3/16/2021 8:30:00 AM 3.79 38.822 0.047 6.38 3.32 12.57
3/16/2021 8:45:00 AM 3.76 38.768 0.047 6.4 3.3 12.58
3/16/2021 9:00:00 AM 3.73 38.714 0.047 6.39 3.64 12.6
3/16/2021 9:15:00 AM 3.66 38.588 0.047 6.38 3.49 12.62
3/16/2021 9:30:00 AM 3.65 38.57 0.047 6.4 3.17 12.63
3/16/2021 9:45:00 AM 3.66 38.588 0.047 6.39 3.15 12.65
3/16/2021 10:00:00 AM 3.68 38.624 0.047 6.4 3.13 12.67
3/16/2021 10:15:00 AM 3.68 38.624 0.047 6.39 3.07 12.68
3/16/2021 10:30:00 AM 3.68 38.624 0.047 6.4 3.14 12.69
3/16/2021 10:45:00 AM 3.69 38.642 0.047 6.41 3.03 12.7
3/16/2021 11:00:00 AM 3.72 38.696 0.047 6.39 3.03 12.71
3/16/2021 11:15:00 AM 3.75 38.75 0.047 6.44 3.11 12.73
3/16/2021 11:30:00 AM 3.77 38.786 0.047 6.41 3.09 12.73
3/16/2021 11:45:00 AM 3.78 38.804 0.047 6.42 2.98 12.74
3/16/2021 12:00:00 PM 3.8 38.84 0.047 6.44 3.27 12.73
3/16/2021 12:15:00 PM 3.84 38.912 0.047 6.46 3.13 12.73
3/16/2021 12:30:00 PM 3.89 39.002 0.047 6.45 3.03 12.74
3/16/2021 12:45:00 PM 3.93 39.074 0.047 6.45 3.24 12.72
3/16/2021 1:00:00 PM 3.97 39.146 0.047 6.44 2.98 12.71
3/16/2021 1:15:00 PM 4.01 39.218 0.047 6.44 3.01 12.7
3/16/2021 1:30:00 PM 4.05 39.29 0.047 6.47 3.05 12.66
3/16/2021 1:45:00 PM 4.07 39.326 0.047 6.44 3 12.64
3/16/2021 2:00:00 PM 4.09 39.362 0.047 6.42 3 12.62
3/16/2021 2:15:00 PM 4.12 39.416 0.047 6.43 3.09 12.59
3/16/2021 2:30:00 PM 4.15 39.47 0.047 6.43 3.04 12.58
3/16/2021 2:45:00 PM 4.17 39.506 0.047 6.42 3.21 12.56
3/16/2021 3:00:00 PM 4.19 39.542 0.047 6.43 2.99 12.55
3/16/2021 3:15:00 PM 4.21 39.578 0.047 6.45 3.02 12.55
3/16/2021 3:30:00 PM 4.25 39.65 0.047 6.45 3.05 12.56
3/16/2021 3:45:00 PM 4.29 39.722 0.047 6.42 3.2 12.55
3/16/2021 4:00:00 PM 4.33 39.794 0.047 6.45 3.29 12.56
3/16/2021 4:15:00 PM 4.38 39.884 0.047 6.45 3.12 12.55
3/16/2021 4:30:00 PM 4.42 39.956 0.047 6.44 3.13 12.55
3/16/2021 4:45:00 PM 4.45 40.01 0.047 6.47 3.06 12.54
3/16/2021 5:00:00 PM 4.49 40.082 0.047 6.42 3.17 12.52
3/16/2021 5:15:00 PM 4.51 40.118 0.047 6.45 3.25 12.5
3/16/2021 5:30:00 PM 4.52 40.136 0.047 6.44 3.01 12.49
3/16/2021 5:45:00 PM 4.53 40.154 0.047 6.43 2.93 12.47
3/16/2021 6:00:00 PM 4.52 40.136 0.047 6.44 3.04 12.44
3/16/2021 6:15:00 PM 4.52 40.136 0.047 6.44 3.07 12.42
3/16/2021 6:30:00 PM 4.52 40.136 0.047 6.44 3.3 12.41
3/16/2021 6:45:00 PM 4.52 40.136 0.047 6.42 3.43 12.39
3/16/2021 7:00:00 PM 4.52 40.136 0.047 6.38 3.28 12.37
3/16/2021 7:15:00 PM 4.52 40.136 0.047 6.4 3.14 12.35
3/16/2021 7:30:00 PM 4.52 40.136 0.047 6.41 3.12 12.34
3/16/2021 7:45:00 PM 4.53 40.154 0.047 6.39 3.17 12.33
3/16/2021 8:00:00 PM 4.52 40.136 0.047 6.37 3.19 12.32
3/16/2021 8:15:00 PM 4.51 40.118 0.047 6.36 3.2 12.32
3/16/2021 8:30:00 PM 4.51 40.118 0.047 6.4 3.42 12.32
3/16/2021 8:45:00 PM 4.5 40.1 0.047 6.35 3.23 12.31
3/16/2021 9:00:00 PM 4.5 40.1 0.047 6.38 3.34 12.32
3/16/2021 9:15:00 PM 4.5 40.1 0.047 6.36 3.31 12.32
3/16/2021 9:30:00 PM 4.49 40.082 0.047 6.37 3.43 12.32
3/16/2021 9:45:00 PM 4.48 40.064 0.047 6.37 3.25 12.33
3/16/2021 10:00:00 PM 4.48 40.064 0.047 6.36 3.18 12.33
3/16/2021 10:15:00 PM 4.47 40.046 0.047 6.37 3.37 12.33
3/16/2021 10:30:00 PM 4.47 40.046 0.047 6.36 3.35 12.33
3/16/2021 10:45:00 PM 4.46 40.028 0.047 6.37 3.41 12.34
3/16/2021 11:00:00 PM 4.46 40.028 0.047 6.37 3.26 12.34
3/16/2021 11:15:00 PM 4.46 40.028 0.047 6.36 3.23 12.34
3/16/2021 11:30:00 PM 4.45 40.01 0.047 6.36 3.24 12.33
3/16/2021 11:45:00 PM 4.45 40.01 0.047 6.39 3.14 12.34
3/17/2021 12:00:00 AM 4.44 39.992 0.047 6.38 3.16 12.34
3/17/2021 12:15:00 AM 4.44 39.992 0.047 6.35 3.1 12.34
3/17/2021 12:30:00 AM 4.44 39.992 0.047 6.37 3.16 12.34
3/17/2021 12:45:00 AM 4.43 39.974 0.047 6.39 3.07 12.34
3/17/2021 1:00:00 AM 4.43 39.974 0.047 6.39 3.1 12.34
3/17/2021 1:15:00 AM 4.43 39.974 0.047 6.38 3.65 12.34
3/17/2021 1:30:00 AM 4.42 39.956 0.047 6.34 3.2 12.34
3/17/2021 1:45:00 AM 4.42 39.956 0.047 6.37 3.49 12.34
3/17/2021 2:00:00 AM 4.42 39.956 0.047 6.39 3.43 12.34
3/17/2021 2:15:00 AM 4.42 39.956 0.047 6.38 3.18 12.34
3/17/2021 2:30:00 AM 4.41 39.938 0.047 6.36 3.29 12.34
3/17/2021 2:45:00 AM 4.41 39.938 0.047 6.4 3.1 12.34
3/17/2021 3:00:00 AM 4.41 39.938 0.047 6.33 3.06 12.34
3/17/2021 3:15:00 AM 4.41 39.938 0.047 6.38 3.2 12.34
3/17/2021 3:30:00 AM 4.41 39.938 0.047 6.37 3.15 12.34
3/17/2021 3:45:00 AM 4.41 39.938 0.047 6.37 3.15 12.34
3/17/2021 4:00:00 AM 4.4 39.92 0.047 6.38 3.09 12.34
3/17/2021 4:15:00 AM 4.4 39.92 0.047 6.34 3.15 12.34
3/17/2021 4:30:00 AM 4.4 39.92 0.047 6.39 3.27 12.34
3/17/2021 4:45:00 AM 4.4 39.92 0.047 6.37 3.33 12.34
3/17/2021 5:00:00 AM 4.39 39.902 0.047 6.37 3.2 12.34
3/17/2021 5:15:00 AM 4.39 39.902 0.047 6.39 3.02 12.35
3/17/2021 5:30:00 AM 4.39 39.902 0.047 6.34 3.4 12.35
3/17/2021 5:45:00 AM 4.39 39.902 0.047 6.37 3.21 12.34
3/17/2021 6:00:00 AM 4.39 39.902 0.047 6.39 3.15 12.35
3/17/2021 6:15:00 AM 4.4 39.92 0.047 6.36 3.07 12.35
3/17/2021 6:30:00 AM 4.4 39.92 0.047 6.37 3.12 12.35
3/17/2021 6:45:00 AM 4.4 39.92 0.047 6.36 2.96 12.35
3/17/2021 7:00:00 AM 4.4 39.92 0.047 6.39 3.18 12.35
3/17/2021 7:15:00 AM 4.4 39.92 0.047 6.38 3.06 12.35
3/17/2021 7:30:00 AM 4.4 39.92 0.047 6.37 3.08 12.36
3/17/2021 7:45:00 AM 4.41 39.938 0.047 6.38 2.98 12.37
3/17/2021 8:00:00 AM 4.42 39.956 0.047 6.41 2.98 12.38
3/17/2021 8:15:00 AM 4.43 39.974 0.047 6.4 3.06 12.39
3/17/2021 8:30:00 AM 4.44 39.992 0.047 6.38 2.88 12.41
3/17/2021 8:45:00 AM 4.46 40.028 0.047 6.41 2.98 12.43
3/17/2021 9:00:00 AM 4.48 40.064 0.047 6.43 2.88 12.45
3/17/2021 9:15:00 AM 4.51 40.118 0.047 6.43 2.8 12.47
3/17/2021 9:30:00 AM 4.55 40.19 0.047 6.43 2.81 12.49
3/17/2021 9:45:00 AM 4.59 40.262 0.047 6.46 2.92 12.5
3/17/2021 10:00:00 AM 4.65 40.37 0.047 6.44 3.04 12.5
3/17/2021 10:15:00 AM 4.7 40.46 0.047 6.45 3 12.5
3/17/2021 10:30:00 AM 4.79 40.622 0.047 6.48 2.87 12.5
3/17/2021 10:45:00 AM 4.91 40.838 0.047 6.48 2.89 12.5
3/17/2021 11:00:00 AM 5.05 41.09 0.047 6.5 2.9 12.48
3/17/2021 11:15:00 AM 5.19 41.342 0.047 6.47 2.7 12.45
3/17/2021 11:30:00 AM 5.34 41.612 0.047 6.48 2.74 12.42
3/17/2021 11:45:00 AM 5.51 41.918 0.047 6.48 2.86 12.37
3/17/2021 12:00:00 PM 5.66 42.188 0.047 6.49 2.87 12.34
3/17/2021 12:15:00 PM 5.83 42.494 0.047 6.5 2.91 12.3
3/17/2021 12:30:00 PM 6 42.8 0.047 6.47 2.79 12.25
3/17/2021 12:45:00 PM 6.18 43.124 0.047 6.51 2.76 12.19
3/17/2021 1:00:00 PM 6.38 43.484 0.047 6.49 2.79 12.14
3/17/2021 1:15:00 PM 6.57 43.826 0.047 6.52 2.7 12.08
3/17/2021 1:30:00 PM 6.75 44.15 0.047 6.5 2.79 12.02
3/17/2021 1:45:00 PM 6.94 44.492 0.047 6.48 2.76 11.97
3/17/2021 2:00:00 PM 7.15 44.87 0.047 6.52 2.69 11.91
3/17/2021 2:15:00 PM 7.34 45.212 0.047 6.48 2.71 11.84
3/17/2021 2:30:00 PM 7.51 45.518 0.047 6.52 2.8 11.79
3/17/2021 2:45:00 PM 7.67 45.806 0.047 6.49 2.81 11.74
3/17/2021 3:00:00 PM 7.82 46.076 0.047 6.47 2.81 11.69
3/17/2021 3:15:00 PM 7.96 46.328 0.047 6.5 3.04 11.64
3/17/2021 3:30:00 PM 8.08 46.544 0.047 6.51 2.83 11.59
3/17/2021 3:45:00 PM 8.18 46.724 0.047 6.5 2.93 11.55
3/17/2021 4:00:00 PM 8.26 46.868 0.047 6.47 2.85 11.52
3/17/2021 4:15:00 PM 8.32 46.976 0.047 6.47 3.09 11.49
3/17/2021 4:30:00 PM 8.37 47.066 0.047 6.48 2.99 11.46
3/17/2021 4:45:00 PM 8.39 47.102 0.047 6.49 2.8 11.45
3/17/2021 5:00:00 PM 8.38 47.084 0.047 6.47 2.85 11.43
3/17/2021 5:15:00 PM 8.36 47.048 0.048 6.47 3.05 11.41
3/17/2021 5:30:00 PM 8.33 46.994 0.048 6.44 2.78 11.39
3/17/2021 5:45:00 PM 8.27 46.886 0.048 6.46 2.92 11.38
3/17/2021 6:00:00 PM 8.19 46.742 0.048 6.43 3.07 11.38
3/17/2021 6:15:00 PM 8.1 46.58 0.048 6.41 2.9 11.38
3/17/2021 6:30:00 PM 8 46.4 0.048 6.43 2.94 11.38
3/17/2021 6:45:00 PM 7.88 46.184 0.049 6.41 2.82 11.38
3/17/2021 7:00:00 PM 7.75 45.95 0.049 6.4 2.9 11.39
3/17/2021 7:15:00 PM 7.62 45.716 0.049 6.37 2.87 11.39
3/17/2021 7:30:00 PM 7.47 45.446 0.049 6.38 2.89 11.41
3/17/2021 7:45:00 PM 7.34 45.212 0.049 6.34 3.11 11.42
3/17/2021 8:00:00 PM 7.2 44.96 0.049 6.33 2.98 11.46
3/17/2021 8:15:00 PM 7.06 44.708 0.049 6.34 3.28 11.49
3/17/2021 8:30:00 PM 6.92 44.456 0.049 6.34 3.18 11.52
3/17/2021 8:45:00 PM 6.78 44.204 0.049 6.34 3.13 11.56
3/17/2021 9:00:00 PM 6.63 43.934 0.049 6.36 3.25 11.6
3/17/2021 9:15:00 PM 6.49 43.682 0.05 6.35 3.19 11.64
3/17/2021 9:30:00 PM 6.36 43.448 0.05 6.31 3.42 11.68
3/17/2021 9:45:00 PM 6.24 43.232 0.05 6.33 3.02 11.72
3/17/2021 10:00:00 PM 6.12 43.016 0.05 6.35 3.09 11.75
3/17/2021 10:15:00 PM 6.01 42.818 0.05 6.36 3.04 11.79
3/17/2021 10:30:00 PM 5.9 42.62 0.05 6.32 2.96 11.82
3/17/2021 10:45:00 PM 5.8 42.44 0.05 6.37 3.01 11.85
3/17/2021 11:00:00 PM 5.71 42.278 0.05 6.36 3.06 11.88
3/17/2021 11:15:00 PM 5.62 42.116 0.05 6.36 3.16 11.9
3/17/2021 11:30:00 PM 5.55 41.99 0.05 6.34 3.01 11.93
3/17/2021 11:45:00 PM 5.48 41.864 0.05 6.38 2.99 11.95
3/18/2021 12:00:00 AM 5.42 41.756 0.05 6.33 3.07 11.97
3/18/2021 12:15:00 AM 5.36 41.648 0.05 6.37 3.08 11.99
3/18/2021 12:30:00 AM 5.3 41.54 0.05 6.38 2.92 12
3/18/2021 12:45:00 AM 5.25 41.45 0.05 6.37 3.13 12.02
3/18/2021 1:00:00 AM 5.21 41.378 0.05 6.34 2.95 12.03
3/18/2021 1:15:00 AM 5.18 41.324 0.05 6.39 2.99 12.04
3/18/2021 1:30:00 AM 5.16 41.288 0.05 6.38 2.96 12.05
3/18/2021 1:45:00 AM 5.14 41.252 0.05 6.38 3 12.06
3/18/2021 2:00:00 AM 5.12 41.216 0.05 6.34 3.05 12.07
3/18/2021 2:15:00 AM 5.11 41.198 0.05 6.37 2.95 12.07
3/18/2021 2:30:00 AM 5.11 41.198 0.05 6.37 2.89 12.07
3/18/2021 2:45:00 AM 5.1 41.18 0.05 6.37 2.87 12.08
3/18/2021 3:00:00 AM 5.09 41.162 0.05 6.39 3.06 12.08
3/18/2021 3:15:00 AM 5.09 41.162 0.05 6.4 3.02 12.07
3/18/2021 3:30:00 AM 5.09 41.162 0.05 6.39 3.09 12.07
3/18/2021 3:45:00 AM 5.09 41.162 0.05 6.36 2.95 12.07
3/18/2021 4:00:00 AM 5.09 41.162 0.05 6.39 2.87 12.07
3/18/2021 4:15:00 AM 5.1 41.18 0.05 6.36 2.98 12.07
3/18/2021 4:30:00 AM 5.1 41.18 0.049 6.4 2.92 12.06
3/18/2021 4:45:00 AM 5.11 41.198 0.049 6.36 2.95 12.06
3/18/2021 5:00:00 AM 5.12 41.216 0.049 6.36 3.17 12.06
3/18/2021 5:15:00 AM 5.12 41.216 0.049 6.38 3.31 12.05
3/18/2021 5:30:00 AM 5.13 41.234 0.049 6.4 2.96 12.05
3/18/2021 5:45:00 AM 5.14 41.252 0.049 6.36 2.98 12.04
3/18/2021 6:00:00 AM 5.14 41.252 0.049 6.37 3.12 12.05
3/18/2021 6:15:00 AM 5.15 41.27 0.049 6.39 3.01 12.04
3/18/2021 6:30:00 AM 5.16 41.288 0.049 6.39 2.81 12.04
3/18/2021 6:45:00 AM 5.16 41.288 0.049 6.38 2.97 12.04
3/18/2021 7:00:00 AM 5.17 41.306 0.049 6.4 3.01 12.03
3/18/2021 7:15:00 AM 5.17 41.306 0.049 6.34 2.94 12.03
3/18/2021 7:30:00 AM 5.18 41.324 0.049 6.37 3.14 12.03
3/18/2021 7:45:00 AM 5.18 41.324 0.049 6.39 3.27 12.03
3/18/2021 8:00:00 AM 5.18 41.324 0.049 6.4 2.94 12.03
3/18/2021 8:15:00 AM 5.18 41.324 0.049 6.39 2.82 12.04
3/18/2021 8:30:00 AM 5.19 41.342 0.049 6.38 3.12 12.04
3/18/2021 8:45:00 AM 5.19 41.342 0.049 6.4 2.86 12.05
3/18/2021 9:00:00 AM 5.2 41.36 0.049 6.34 2.88 12.06
3/18/2021 9:15:00 AM 5.21 41.378 0.049 6.4 2.94 12.07
3/18/2021 9:30:00 AM 5.22 41.396 0.049 6.4 2.88 12.07
3/18/2021 9:45:00 AM 5.23 41.414 0.049 6.37 2.8 12.08
3/18/2021 10:00:00 AM 5.24 41.432 0.049 6.39 2.9 12.09
3/18/2021 10:15:00 AM 5.26 41.468 0.049 6.39 2.9 12.1
3/18/2021 10:30:00 AM 5.28 41.504 0.05 6.4 2.94 12.11
3/18/2021 10:45:00 AM 5.3 41.54 0.05 6.4 2.86 12.12
3/18/2021 11:00:00 AM 5.32 41.576 0.05 6.4 2.94 12.11
3/18/2021 11:15:00 AM 5.34 41.612 0.05 6.41 3.05 12.13
3/18/2021 11:30:00 AM 5.37 41.666 0.05 6.42 2.86 12.14
3/18/2021 11:45:00 AM 5.4 41.72 0.051 6.45 2.98 12.14
3/18/2021 12:00:00 PM 5.43 41.774 0.051 6.42 3.08 12.14
3/18/2021 12:15:00 PM 5.47 41.846 0.051 6.45 3.05 12.14
3/18/2021 12:30:00 PM 5.52 41.936 0.052 6.43 2.96 12.15
3/18/2021 12:45:00 PM 5.56 42.008 0.052 6.45 3.03 12.15
3/18/2021 1:00:00 PM 5.59 42.062 0.052 6.46 3.05 12.14
3/18/2021 1:15:00 PM 5.64 42.152 0.053 6.47 3.32 12.14
3/18/2021 1:30:00 PM 5.69 42.242 0.053 6.48 3.15 12.14
3/18/2021 1:45:00 PM 5.71 42.278 0.053 6.47 3.17 12.12
3/18/2021 2:00:00 PM 5.73 42.314 0.053 6.48 3.17 12.1
3/18/2021 2:15:00 PM 5.74 42.332 0.054 6.45 3.18 12.09
3/18/2021 2:30:00 PM 5.75 42.35 0.054 6.46 3.15 12.09
3/18/2021 2:45:00 PM 5.76 42.368 0.054 6.49 3.21 12.07
3/18/2021 3:00:00 PM 5.77 42.386 0.055 6.44 3.28 12.07
3/18/2021 3:15:00 PM 5.77 42.386 0.055 6.47 3.34 12.06
3/18/2021 3:30:00 PM 5.77 42.386 0.055 6.48 3.37 12.04
3/18/2021 3:45:00 PM 5.76 42.368 0.056 6.48 3.04 12.02
3/18/2021 4:00:00 PM 5.75 42.35 0.056 6.45 3.26 12.02
3/18/2021 4:15:00 PM 5.73 42.314 0.056 6.46 3.26 12
3/18/2021 4:30:00 PM 5.71 42.278 0.057 6.44 3.31 12
3/18/2021 4:45:00 PM 5.69 42.242 0.057 6.42 3.21 11.99
3/18/2021 5:00:00 PM 5.67 42.206 0.058 6.45 3.24 11.99
3/18/2021 5:15:00 PM 5.66 42.188 0.058 6.45 3.24 12.01
3/18/2021 5:30:00 PM 5.64 42.152 0.059 6.43 3.3 12.01
3/18/2021 5:45:00 PM 5.61 42.098 0.059 6.42 3.3 12
3/18/2021 6:00:00 PM 5.58 42.044 0.06 6.45 3.37 12
3/18/2021 6:15:00 PM 5.54 41.972 0.06 6.43 3.39 11.99
3/18/2021 6:30:00 PM 5.5 41.9 0.061 6.43 3.35 11.98
3/18/2021 6:45:00 PM 5.46 41.828 0.061 6.41 3.57 11.98
3/18/2021 7:00:00 PM 5.42 41.756 0.062 6.4 3.65 11.98
3/18/2021 7:15:00 PM 5.38 41.684 0.062 6.4 3.43 11.98
3/18/2021 7:30:00 PM 5.34 41.612 0.063 6.42 3.4 11.99
3/18/2021 7:45:00 PM 5.29 41.522 0.063 6.4 3.47 11.99
3/18/2021 8:00:00 PM 5.23 41.414 0.063 6.41 3.6 12.01
3/18/2021 8:15:00 PM 5.18 41.324 0.064 6.38 3.58 12.02
3/18/2021 8:30:00 PM 5.14 41.252 0.064 6.42 3.61 12.03
3/18/2021 8:45:00 PM 5.1 41.18 0.064 6.41 3.68 12.04
3/18/2021 9:00:00 PM 5.05 41.09 0.064 6.37 3.63 12.06
3/18/2021 9:15:00 PM 5.01 41.018 0.064 6.42 3.5 12.07
3/18/2021 9:30:00 PM 4.96 40.928 0.065 6.38 3.63 12.09
3/18/2021 9:45:00 PM 4.91 40.838 0.065 6.41 3.42 12.1
3/18/2021 10:00:00 PM 4.86 40.748 0.065 6.4 3.4 12.12
3/18/2021 10:15:00 PM 4.81 40.658 0.065 6.42 3.43 12.14
3/18/2021 10:30:00 PM 4.76 40.568 0.065 6.41 3.31 12.16
3/18/2021 10:45:00 PM 4.72 40.496 0.065 6.42 3.32 12.17
3/18/2021 11:00:00 PM 4.67 40.406 0.065 6.42 3.39 12.19
3/18/2021 11:15:00 PM 4.62 40.316 0.065 6.41 3.51 12.21
3/18/2021 11:30:00 PM 4.56 40.208 0.065 6.37 3.37 12.23
3/18/2021 11:45:00 PM 4.5 40.1 0.065 6.42 3.21 12.25
3/19/2021 12:00:00 AM 4.45 40.01 0.065 6.39 3.11 12.26
3/19/2021 12:15:00 AM 4.41 39.938 0.064 6.42 3.23 12.28
3/19/2021 12:30:00 AM 4.36 39.848 0.064 6.38 3.19 12.3
3/19/2021 12:45:00 AM 4.32 39.776 0.064 6.41 3.16 12.31
3/19/2021 1:00:00 AM 4.27 39.686 0.064 6.43 3.1 12.33
3/19/2021 1:15:00 AM 4.22 39.596 0.064 6.41 3.07 12.35
3/19/2021 1:30:00 AM 4.16 39.488 0.063 6.43 3.03 12.37
3/19/2021 1:45:00 AM 4.11 39.398 0.063 6.42 3.1 12.39
3/19/2021 2:00:00 AM 4.07 39.326 0.063 6.39 3 12.41
3/19/2021 2:15:00 AM 4.01 39.218 0.063 6.42 3.02 12.43
3/19/2021 2:30:00 AM 3.96 39.128 0.062 6.41 2.96 12.45
3/19/2021 2:45:00 AM 3.89 39.002 0.062 6.41 2.89 12.47
3/19/2021 3:00:00 AM 3.83 38.894 0.062 6.43 2.98 12.49
3/19/2021 3:15:00 AM 3.76 38.768 0.062 6.43 2.95 12.51
3/19/2021 3:30:00 AM 3.69 38.642 0.061 6.39 2.94 12.53
3/19/2021 3:45:00 AM 3.63 38.534 0.061 6.41 2.84 12.56
3/19/2021 4:00:00 AM 3.56 38.408 0.061 6.41 2.82 12.58
3/19/2021 4:15:00 AM 3.49 38.282 0.06 6.42 2.81 12.6
3/19/2021 4:30:00 AM 3.42 38.156 0.06 6.39 2.77 12.63
3/19/2021 4:45:00 AM 3.36 38.048 0.06 6.44 2.9 12.65
3/19/2021 5:00:00 AM 3.3 37.94 0.06 6.42 2.96 12.68
3/19/2021 5:15:00 AM 3.24 37.832 0.06 6.4 2.99 12.71
3/19/2021 5:30:00 AM 3.19 37.742 0.059 6.43 2.85 12.72
3/19/2021 5:45:00 AM 3.13 37.634 0.059 6.43 3.01 12.75
3/19/2021 6:00:00 AM 3.08 37.544 0.059 6.39 3.06 12.77
3/19/2021 6:15:00 AM 3.03 37.454 0.059 6.44 3.02 12.79
3/19/2021 6:30:00 AM 2.98 37.364 0.059 6.43 2.9 12.81
3/19/2021 6:45:00 AM 2.94 37.292 0.058 6.39 2.91 12.83
3/19/2021 7:00:00 AM 2.88 37.184 0.058 6.45 2.77 12.85
3/19/2021 7:15:00 AM 2.84 37.112 0.058 6.4 2.84 12.87
3/19/2021 7:30:00 AM 2.8 37.04 0.058 6.44 2.87 12.9
3/19/2021 7:45:00 AM 2.76 36.968 0.058 6.44 3.02 12.93
3/19/2021 8:00:00 AM 2.72 36.896 0.058 6.42 2.81 12.96
3/19/2021 8:15:00 AM 2.69 36.842 0.057 6.45 2.73 13
3/19/2021 8:30:00 AM 2.67 36.806 0.057 6.43 2.91 13.04
3/19/2021 8:45:00 AM 2.66 36.788 0.057 6.45 2.89 13.08
3/19/2021 9:00:00 AM 2.67 36.806 0.057 6.46 2.74 13.12
3/19/2021 9:15:00 AM 2.7 36.86 0.057 6.47 2.69 13.14
3/19/2021 9:30:00 AM 2.74 36.932 0.056 6.47 2.63 13.15
3/19/2021 9:45:00 AM 2.77 36.986 0.056 6.51 2.58 13.17
3/19/2021 10:00:00 AM 2.82 37.076 0.056 6.5 2.59 13.18
3/19/2021 10:15:00 AM 2.9 37.22 0.056 6.49 2.57 13.18
3/19/2021 10:30:00 AM 2.98 37.364 0.056 6.49 2.51 13.18
3/19/2021 10:45:00 AM 3.07 37.526 0.056 6.54 2.57 13.17
3/19/2021 11:00:00 AM 3.19 37.742 0.055 6.49 2.49 13.16
3/19/2021 11:15:00 AM 3.32 37.976 0.055 6.52 2.49 13.12
3/19/2021 11:30:00 AM 3.45 38.21 0.055 6.54 2.57 13.1
3/19/2021 11:45:00 AM 3.59 38.462 0.055 6.5 2.52 13.07
3/19/2021 12:00:00 PM 3.73 38.714 0.055 6.54 2.48 13.03
3/19/2021 12:15:00 PM 3.9 39.02 0.055 6.54 2.39 12.99
3/19/2021 12:30:00 PM 4.06 39.308 0.054 6.54 2.43 12.95
3/19/2021 12:45:00 PM 4.24 39.632 0.054 6.5 2.42 12.89
3/19/2021 1:00:00 PM 4.42 39.956 0.054 6.53 2.47 12.84
3/19/2021 1:15:00 PM 4.61 40.298 0.054 6.54 2.43 12.78
3/19/2021 1:30:00 PM 4.81 40.658 0.054 6.53 2.37 12.72
3/19/2021 1:45:00 PM 5 41 0.054 6.53 2.51 12.66
3/19/2021 2:00:00 PM 5.19 41.342 0.054 6.52 2.44 12.6
3/19/2021 2:15:00 PM 5.37 41.666 0.054 6.54 2.41 12.53
3/19/2021 2:30:00 PM 5.54 41.972 0.053 6.54 2.46 12.48
3/19/2021 2:45:00 PM 5.68 42.224 0.053 6.53 2.52 12.43
3/19/2021 3:00:00 PM 5.83 42.494 0.053 6.54 2.5 12.38
3/19/2021 3:15:00 PM 5.96 42.728 0.053 6.51 2.5 12.33
3/19/2021 3:30:00 PM 6.07 42.926 0.053 6.54 2.49 12.28
3/19/2021 3:45:00 PM 6.15 43.07 0.053 6.52 2.5 12.25
3/19/2021 4:00:00 PM 6.22 43.196 0.053 6.51 2.48 12.21
3/19/2021 4:15:00 PM 6.26 43.268 0.053 6.49 2.51 12.19
3/19/2021 4:30:00 PM 6.27 43.286 0.053 6.5 2.69 12.18
3/19/2021 4:45:00 PM 6.27 43.286 0.053 6.49 2.65 12.16
3/19/2021 5:00:00 PM 6.26 43.268 0.053 6.49 2.52 12.14
3/19/2021 5:15:00 PM 6.22 43.196 0.053 6.48 2.56 12.14
3/19/2021 5:30:00 PM 6.15 43.07 0.053 6.48 2.52 12.13
3/19/2021 5:45:00 PM 6.09 42.962 0.053 6.46 2.58 12.13
3/19/2021 6:00:00 PM 6.02 42.836 0.053 6.47 2.6 12.13
3/19/2021 6:15:00 PM 5.93 42.674 0.053 6.45 2.6 12.14
3/19/2021 6:30:00 PM 5.83 42.494 0.053 6.47 2.61 12.14
3/19/2021 6:45:00 PM 5.72 42.296 0.053 6.43 2.6 12.15
3/19/2021 7:00:00 PM 5.6 42.08 0.053 6.45 2.74 12.16
3/19/2021 7:15:00 PM 5.49 41.882 0.053 6.43 2.87 12.17
3/19/2021 7:30:00 PM 5.37 41.666 0.053 6.43 2.68 12.18
3/19/2021 7:45:00 PM 5.25 41.45 0.053 6.38 2.62 12.21
3/19/2021 8:00:00 PM 5.13 41.234 0.052 6.42 2.76 12.23
3/19/2021 8:15:00 PM 5.01 41.018 0.052 6.37 2.74 12.26
3/19/2021 8:30:00 PM 4.9 40.82 0.052 6.39 2.67 12.29
3/19/2021 8:45:00 PM 4.78 40.604 0.052 6.41 2.77 12.32
3/19/2021 9:00:00 PM 4.67 40.406 0.052 6.37 2.91 12.36
3/19/2021 9:15:00 PM 4.56 40.208 0.052 6.39 2.76 12.39
3/19/2021 9:30:00 PM 4.46 40.028 0.052 6.38 2.89 12.43
3/19/2021 9:45:00 PM 4.36 39.848 0.052 6.4 2.82 12.46
3/19/2021 10:00:00 PM 4.27 39.686 0.052 6.4 2.74 12.49
3/19/2021 10:15:00 PM 4.19 39.542 0.052 6.38 2.6 12.52
3/19/2021 10:30:00 PM 4.11 39.398 0.052 6.41 2.65 12.55
3/19/2021 10:45:00 PM 4.04 39.272 0.052 6.41 2.58 12.58
3/19/2021 11:00:00 PM 3.97 39.146 0.052 6.4 2.61 12.6
3/19/2021 11:15:00 PM 3.9 39.02 0.052 6.39 2.58 12.62
3/19/2021 11:30:00 PM 3.84 38.912 0.052 6.39 2.69 12.65
3/19/2021 11:45:00 PM 3.78 38.804 0.052 6.42 2.61 12.67
3/20/2021 12:00:00 AM 3.72 38.696 0.052 6.41 2.63 12.69
3/20/2021 12:15:00 AM 3.66 38.588 0.052 6.42 2.62 12.71
3/20/2021 12:30:00 AM 3.61 38.498 0.052 6.38 2.5 12.73
3/20/2021 12:45:00 AM 3.56 38.408 0.052 6.4 2.64 12.75
3/20/2021 1:00:00 AM 3.51 38.318 0.052 6.4 2.71 12.76
3/20/2021 1:15:00 AM 3.46 38.228 0.052 6.4 2.79 12.78
3/20/2021 1:30:00 AM 3.42 38.156 0.052 6.4 2.54 12.8
3/20/2021 1:45:00 AM 3.38 38.084 0.052 6.43 2.66 12.81
3/20/2021 2:00:00 AM 3.34 38.012 0.052 6.42 2.6 12.84
3/20/2021 2:15:00 AM 3.3 37.94 0.052 6.38 2.53 12.85
3/20/2021 2:30:00 AM 3.26 37.868 0.052 6.41 2.66 12.86
3/20/2021 2:45:00 AM 3.22 37.796 0.052 6.4 2.64 12.88
3/20/2021 3:00:00 AM 3.19 37.742 0.052 6.43 2.48 12.89
3/20/2021 3:15:00 AM 3.15 37.67 0.052 6.42 2.52 12.9
3/20/2021 3:30:00 AM 3.12 37.616 0.052 6.42 2.52 12.91
3/20/2021 3:45:00 AM 3.09 37.562 0.052 6.41 2.55 12.92
3/20/2021 4:00:00 AM 3.06 37.508 0.052 6.43 2.5 12.93
3/20/2021 4:15:00 AM 3.03 37.454 0.051 6.42 2.57 12.94
3/20/2021 4:30:00 AM 3 37.4 0.051 6.42 2.41 12.95
3/20/2021 4:45:00 AM 2.97 37.346 0.051 6.43 2.51 12.97
3/20/2021 5:00:00 AM 2.94 37.292 0.051 6.41 2.43 12.98
3/20/2021 5:15:00 AM 2.92 37.256 0.051 6.43 2.53 12.98
3/20/2021 5:30:00 AM 2.89 37.202 0.051 6.43 2.49 12.99
3/20/2021 5:45:00 AM 2.86 37.148 0.051 6.38 2.53 13
3/20/2021 6:00:00 AM 2.84 37.112 0.051 6.42 2.56 13.02
3/20/2021 6:15:00 AM 2.81 37.058 0.051 6.41 2.54 13.03
3/20/2021 6:30:00 AM 2.78 37.004 0.051 6.41 2.67 13.03
3/20/2021 6:45:00 AM 2.76 36.968 0.051 6.43 2.62 13.05
3/20/2021 7:00:00 AM 2.74 36.932 0.051 6.43 2.44 13.06
3/20/2021 7:15:00 AM 2.71 36.878 0.051 6.41 2.48 13.07
3/20/2021 7:30:00 AM 2.69 36.842 0.051 6.44 2.4 13.09
3/20/2021 7:45:00 AM 2.68 36.824 0.051 6.41 2.47 13.11
3/20/2021 8:00:00 AM 2.67 36.806 0.051 6.41 2.43 13.13
3/20/2021 8:15:00 AM 2.67 36.806 0.051 6.45 2.52 13.16
3/20/2021 8:30:00 AM 2.69 36.842 0.051 6.46 2.47 13.19
3/20/2021 8:45:00 AM 2.72 36.896 0.051 6.47 2.45 13.21
3/20/2021 9:00:00 AM 2.77 36.986 0.051 6.48 2.33 13.22
3/20/2021 9:15:00 AM 2.84 37.112 0.05 6.44 2.32 13.23
3/20/2021 9:30:00 AM 2.91 37.238 0.05 6.5 2.39 13.23
3/20/2021 9:45:00 AM 3 37.4 0.05 6.5 2.35 13.23
3/20/2021 10:00:00 AM 3.11 37.598 0.05 6.5 2.39 13.22
3/20/2021 10:15:00 AM 3.24 37.832 0.05 6.48 2.44 13.21
3/20/2021 10:30:00 AM 3.39 38.102 0.05 6.52 2.31 13.18
3/20/2021 10:45:00 AM 3.56 38.408 0.05 6.52 2.39 13.13
3/20/2021 11:00:00 AM 3.76 38.768 0.05 6.49 2.31 13.1
3/20/2021 11:15:00 AM 3.97 39.146 0.05 6.53 2.33 13.05
3/20/2021 11:30:00 AM 4.18 39.524 0.05 6.54 2.26 12.99
3/20/2021 11:45:00 AM 4.4 39.92 0.05 6.5 2.25 12.93
3/20/2021 12:00:00 PM 4.63 40.334 0.05 6.52 2.34 12.87
3/20/2021 12:15:00 PM 4.86 40.748 0.049 6.54 2.4 12.8
3/20/2021 12:30:00 PM 5.09 41.162 0.05 6.53 2.36 12.73
3/20/2021 12:45:00 PM 5.32 41.576 0.049 6.54 2.28 12.66
3/20/2021 1:00:00 PM 5.56 42.008 0.049 6.53 2.47 12.59
3/20/2021 1:15:00 PM 5.8 42.44 0.049 6.53 2.27 12.52
3/20/2021 1:30:00 PM 6.03 42.854 0.049 6.54 2.33 12.43
3/20/2021 1:45:00 PM 6.27 43.286 0.049 6.5 2.33 12.36
3/20/2021 2:00:00 PM 6.5 43.7 0.049 6.54 2.36 12.29
3/20/2021 2:15:00 PM 6.73 44.114 0.049 6.53 2.28 12.21
3/20/2021 2:30:00 PM 6.95 44.51 0.049 6.52 2.64 12.14
3/20/2021 2:45:00 PM 7.15 44.87 0.049 6.5 2.41 12.08
3/20/2021 3:00:00 PM 7.33 45.194 0.049 6.52 2.5 12.01
3/20/2021 3:15:00 PM 7.5 45.5 0.049 6.53 2.38 11.95
3/20/2021 3:30:00 PM 7.64 45.752 0.049 6.48 2.54 11.9
3/20/2021 3:45:00 PM 7.77 45.986 0.049 6.53 2.41 11.85
3/20/2021 4:00:00 PM 7.87 46.166 0.049 6.49 2.43 11.81
3/20/2021 4:15:00 PM 7.93 46.274 0.049 6.51 2.42 11.77
3/20/2021 4:30:00 PM 7.97 46.346 0.049 6.5 2.42 11.74
3/20/2021 4:45:00 PM 7.99 46.382 0.049 6.5 2.42 11.72
3/20/2021 5:00:00 PM 7.99 46.382 0.049 6.46 2.46 11.69
3/20/2021 5:15:00 PM 7.97 46.346 0.049 6.5 2.4 11.68
3/20/2021 5:30:00 PM 7.94 46.292 0.049 6.48 2.51 11.67
3/20/2021 5:45:00 PM 7.88 46.184 0.049 6.47 2.5 11.67
3/20/2021 6:00:00 PM 7.8 46.04 0.049 6.46 2.61 11.66
3/20/2021 6:15:00 PM 7.7 45.86 0.049 6.45 2.67 11.66
3/20/2021 6:30:00 PM 7.59 45.662 0.049 6.44 2.84 11.67
3/20/2021 6:45:00 PM 7.46 45.428 0.049 6.42 2.77 11.67
3/20/2021 7:00:00 PM 7.33 45.194 0.049 6.41 2.65 11.67
3/20/2021 7:15:00 PM 7.19 44.942 0.049 6.36 2.69 11.69
3/20/2021 7:30:00 PM 7.04 44.672 0.05 6.37 2.68 11.71
3/20/2021 7:45:00 PM 6.89 44.402 0.05 6.39 2.66 11.73
3/20/2021 8:00:00 PM 6.74 44.132 0.05 6.36 2.81 11.76
3/20/2021 8:15:00 PM 6.59 43.862 0.05 6.35 2.78 11.8
3/20/2021 8:30:00 PM 6.43 43.574 0.05 6.38 2.7 11.85
3/20/2021 8:45:00 PM 6.29 43.322 0.05 6.35 2.91 11.89
3/20/2021 9:00:00 PM 6.14 43.052 0.05 6.37 2.71 11.93
3/20/2021 9:15:00 PM 5.99 42.782 0.05 6.36 2.7 11.97
3/20/2021 9:30:00 PM 5.85 42.53 0.05 6.36 2.77 12.02
3/20/2021 9:45:00 PM 5.72 42.296 0.05 6.34 2.66 12.06
3/20/2021 10:00:00 PM 5.59 42.062 0.05 6.36 2.71 12.1
3/20/2021 10:15:00 PM 5.47 41.846 0.05 6.35 2.72 12.14
3/20/2021 10:30:00 PM 5.36 41.648 0.05 6.39 2.67 12.17
3/20/2021 10:45:00 PM 5.26 41.468 0.05 6.35 2.63 12.21
3/20/2021 11:00:00 PM 5.16 41.288 0.05 6.35 2.67 12.24
3/20/2021 11:15:00 PM 5.07 41.126 0.05 6.37 2.65 12.27
3/20/2021 11:30:00 PM 4.98 40.964 0.05 6.36 2.67 12.3
3/20/2021 11:45:00 PM 4.89 40.802 0.05 6.38 2.67 12.33
3/21/2021 12:00:00 AM 4.81 40.658 0.05 6.38 2.69 12.35
3/21/2021 12:15:00 AM 4.74 40.532 0.05 6.4 2.54 12.37
3/21/2021 12:30:00 AM 4.66 40.388 0.05 6.39 2.68 12.41
3/21/2021 12:45:00 AM 4.6 40.28 0.05 6.38 2.63 12.43
3/21/2021 1:00:00 AM 4.53 40.154 0.049 6.39 2.51 12.44
3/21/2021 1:15:00 AM 4.47 40.046 0.049 6.39 2.46 12.46
3/21/2021 1:30:00 AM 4.41 39.938 0.049 6.4 2.56 12.48
3/21/2021 1:45:00 AM 4.35 39.83 0.049 6.4 2.52 12.51
3/21/2021 2:00:00 AM 4.29 39.722 0.049 6.39 2.47 12.52
3/21/2021 2:15:00 AM 4.23 39.614 0.049 6.39 2.53 12.54
3/21/2021 2:30:00 AM 4.18 39.524 0.049 6.38 2.62 12.56
3/21/2021 2:45:00 AM 4.12 39.416 0.049 6.41 2.47 12.58
3/21/2021 3:00:00 AM 4.07 39.326 0.049 6.4 2.5 12.59
3/21/2021 3:15:00 AM 4.03 39.254 0.049 6.41 2.5 12.61
3/21/2021 3:30:00 AM 3.98 39.164 0.049 6.39 2.53 12.62
3/21/2021 3:45:00 AM 3.93 39.074 0.049 6.41 2.48 12.64
3/21/2021 4:00:00 AM 3.89 39.002 0.049 6.35 2.55 12.65
3/21/2021 4:15:00 AM 3.85 38.93 0.049 6.38 2.64 12.67
3/21/2021 4:30:00 AM 3.8 38.84 0.049 6.38 2.53 12.68
3/21/2021 4:45:00 AM 3.76 38.768 0.049 6.42 2.5 12.7
3/21/2021 5:00:00 AM 3.72 38.696 0.049 6.41 2.57 12.71
3/21/2021 5:15:00 AM 3.68 38.624 0.049 6.38 3.38 12.72
3/21/2021 5:30:00 AM 3.64 38.552 0.049 6.39 2.59 12.73
3/21/2021 5:45:00 AM 3.61 38.498 0.049 6.41 2.64 12.75
3/21/2021 6:00:00 AM 3.57 38.426 0.049 6.38 2.6 12.76
3/21/2021 6:15:00 AM 3.54 38.372 0.049 6.41 2.51 12.77
3/21/2021 6:30:00 AM 3.5 38.3 0.049 6.39 2.72 12.78
3/21/2021 6:45:00 AM 3.47 38.246 0.049 6.41 2.58 12.8
3/21/2021 7:00:00 AM 3.44 38.192 0.049 6.37 2.56 12.81
3/21/2021 7:15:00 AM 3.4 38.12 0.049 6.4 2.41 12.83
3/21/2021 7:30:00 AM 3.38 38.084 0.049 6.42 2.52 12.85
3/21/2021 7:45:00 AM 3.35 38.03 0.049 6.42 2.49 12.88
3/21/2021 8:00:00 AM 3.34 38.012 0.049 6.42 2.54 12.91
3/21/2021 8:15:00 AM 3.34 38.012 0.049 6.42 2.46 12.93
3/21/2021 8:30:00 AM 3.36 38.048 0.049 6.45 2.47 12.95
3/21/2021 8:45:00 AM 3.39 38.102 0.049 6.46 2.35 12.98
3/21/2021 9:00:00 AM 3.44 38.192 0.049 6.46 2.37 12.99
3/21/2021 9:15:00 AM 3.51 38.318 0.049 6.47 2.3 13
3/21/2021 9:30:00 AM 3.58 38.444 0.049 6.48 2.37 13
3/21/2021 9:45:00 AM 3.67 38.606 0.049 6.47 2.37 13
3/21/2021 10:00:00 AM 3.78 38.804 0.049 6.47 2.76 12.99
3/21/2021 10:15:00 AM 3.92 39.056 0.048 6.49 2.38 12.98
3/21/2021 10:30:00 AM 4.07 39.326 0.048 6.49 2.31 12.95
3/21/2021 10:45:00 AM 4.25 39.65 0.048 6.52 2.62 12.91
3/21/2021 11:00:00 AM 4.45 40.01 0.048 6.52 2.45 12.87
3/21/2021 11:15:00 AM 4.66 40.388 0.048 6.47 2.39 12.82
3/21/2021 11:30:00 AM 4.88 40.784 0.048 6.53 2.45 12.76
3/21/2021 11:45:00 AM 5.11 41.198 0.048 6.53 2.3 12.7
3/21/2021 12:00:00 PM 5.34 41.612 0.048 6.52 2.29 12.64
3/21/2021 12:15:00 PM 5.58 42.044 0.048 6.54 2.48 12.57
3/21/2021 12:30:00 PM 5.81 42.458 0.048 6.52 2.47 12.51
3/21/2021 12:45:00 PM 6.06 42.908 0.048 6.49 2.23 12.43
3/21/2021 1:00:00 PM 6.31 43.358 0.048 6.54 2.34 12.35
3/21/2021 1:15:00 PM 6.55 43.79 0.048 6.53 2.24 12.28
3/21/2021 1:30:00 PM 6.79 44.222 0.048 6.52 2.28 12.21
3/21/2021 1:45:00 PM 7.03 44.654 0.048 6.54 2.29 12.13
3/21/2021 2:00:00 PM 7.27 45.086 0.048 6.53 2.22 12.05
3/21/2021 2:15:00 PM 7.51 45.518 0.048 6.5 2.38 11.98
3/21/2021 2:30:00 PM 7.74 45.932 0.048 6.55 2.42 11.91
3/21/2021 2:45:00 PM 7.95 46.31 0.047 6.5 2.41 11.83
3/21/2021 3:00:00 PM 8.14 46.652 0.047 6.54 2.35 11.77
3/21/2021 3:15:00 PM 8.32 46.976 0.047 6.53 2.46 11.72
3/21/2021 3:30:00 PM 8.47 47.246 0.047 6.53 2.39 11.66
3/21/2021 3:45:00 PM 8.6 47.48 0.047 6.49 2.37 11.61
3/21/2021 4:00:00 PM 8.7 47.66 0.047 6.52 2.49 11.56
3/21/2021 4:15:00 PM 8.77 47.786 0.047 6.49 2.48 11.53
3/21/2021 4:30:00 PM 8.82 47.876 0.048 6.51 2.4 11.49
3/21/2021 4:45:00 PM 8.85 47.93 0.048 6.51 2.42 11.47
3/21/2021 5:00:00 PM 8.84 47.912 0.048 6.49 2.52 11.45
3/21/2021 5:15:00 PM 8.81 47.858 0.048 6.45 2.42 11.44
3/21/2021 5:30:00 PM 8.77 47.786 0.048 6.49 2.51 11.42
3/21/2021 5:45:00 PM 8.69 47.642 0.048 6.47 2.56 11.42
3/21/2021 6:00:00 PM 8.61 47.498 0.048 6.43 2.59 11.41
3/21/2021 6:15:00 PM 8.5 47.3 0.048 6.43 2.48 11.42
3/21/2021 6:30:00 PM 8.38 47.084 0.048 6.45 2.51 11.42
3/21/2021 6:45:00 PM 8.24 46.832 0.048 6.43 2.49 11.42
3/21/2021 7:00:00 PM 8.09 46.562 0.048 6.41 2.54 11.43
3/21/2021 7:15:00 PM 7.94 46.292 0.048 6.4 2.66 11.44
3/21/2021 7:30:00 PM 7.78 46.004 0.049 6.39 2.74 11.47
3/21/2021 7:45:00 PM 7.62 45.716 0.049 6.34 2.96 11.49
3/21/2021 8:00:00 PM 7.45 45.41 0.049 6.36 2.62 11.52
3/21/2021 8:15:00 PM 7.29 45.122 0.049 6.35 2.75 11.56
3/21/2021 8:30:00 PM 7.13 44.834 0.049 6.34 2.8 11.6
3/21/2021 8:45:00 PM 6.96 44.528 0.049 6.36 2.7 11.65
3/21/2021 9:00:00 PM 6.8 44.24 0.049 6.35 2.65 11.69
3/21/2021 9:15:00 PM 6.63 43.934 0.049 6.36 2.71 11.74
3/21/2021 9:30:00 PM 6.48 43.664 0.049 6.36 2.73 11.79
3/21/2021 9:45:00 PM 6.33 43.394 0.049 6.35 2.79 11.83
3/21/2021 10:00:00 PM 6.19 43.142 0.049 6.36 2.76 11.87
3/21/2021 10:15:00 PM 6.06 42.908 0.049 6.36 2.78 11.91
3/21/2021 10:30:00 PM 5.93 42.674 0.049 6.34 2.79 11.95
3/21/2021 10:45:00 PM 5.81 42.458 0.049 6.37 2.71 11.99
3/21/2021 11:00:00 PM 5.7 42.26 0.049 6.36 2.64 12.03
3/21/2021 11:15:00 PM 5.6 42.08 0.049 6.38 2.58 12.06
3/21/2021 11:30:00 PM 5.5 41.9 0.049 6.35 2.66 12.09
3/21/2021 11:45:00 PM 5.4 41.72 0.049 6.38 2.72 12.12
3/22/2021 12:00:00 AM 5.31 41.558 0.049 6.33 2.6 12.15
3/22/2021 12:15:00 AM 5.22 41.396 0.049 6.37 2.59 12.18
3/22/2021 12:30:00 AM 5.14 41.252 0.049 6.35 2.55 12.2
3/22/2021 12:45:00 AM 5.06 41.108 0.049 6.39 2.51 12.22
3/22/2021 1:00:00 AM 4.98 40.964 0.049 6.39 2.59 12.25
3/22/2021 1:15:00 AM 4.91 40.838 0.049 6.35 2.64 12.27
3/22/2021 1:30:00 AM 4.84 40.712 0.049 6.39 2.57 12.29
3/22/2021 1:45:00 AM 4.77 40.586 0.049 6.35 2.55 12.31
3/22/2021 2:00:00 AM 4.71 40.478 0.049 6.36 2.59 12.33
3/22/2021 2:15:00 AM 4.65 40.37 0.049 6.37 2.52 12.36
3/22/2021 2:30:00 AM 4.59 40.262 0.048 6.39 2.51 12.37
3/22/2021 2:45:00 AM 4.53 40.154 0.048 6.36 2.5 12.39
3/22/2021 3:00:00 AM 4.47 40.046 0.048 6.41 2.54 12.41
3/22/2021 3:15:00 AM 4.42 39.956 0.048 6.35 2.47 12.43
3/22/2021 3:30:00 AM 4.37 39.866 0.048 6.41 2.61 12.44
3/22/2021 3:45:00 AM 4.32 39.776 0.048 6.37 2.57 12.45
3/22/2021 4:00:00 AM 4.27 39.686 0.048 6.4 2.64 12.47
3/22/2021 4:15:00 AM 4.22 39.596 0.048 6.36 2.44 12.49
3/22/2021 4:30:00 AM 4.17 39.506 0.048 6.38 2.45 12.49
3/22/2021 4:45:00 AM 4.12 39.416 0.048 6.4 2.55 12.52
3/22/2021 5:00:00 AM 4.08 39.344 0.048 6.41 2.57 12.53
3/22/2021 5:15:00 AM 4.03 39.254 0.048 6.35 2.44 12.55
3/22/2021 5:30:00 AM 3.99 39.182 0.048 6.37 2.59 12.56
3/22/2021 5:45:00 AM 3.95 39.11 0.048 6.38 2.65 12.58
3/22/2021 6:00:00 AM 3.91 39.038 0.048 6.37 2.46 12.59
3/22/2021 6:15:00 AM 3.88 38.984 0.048 6.41 2.44 12.6
3/22/2021 6:30:00 AM 3.84 38.912 0.048 6.4 2.61 12.62
3/22/2021 6:45:00 AM 3.8 38.84 0.048 6.41 2.46 12.63
3/22/2021 7:00:00 AM 3.77 38.786 0.048 6.38 2.53 12.64
3/22/2021 7:15:00 AM 3.74 38.732 0.048 6.41 2.39 12.65
3/22/2021 7:30:00 AM 3.71 38.678 0.048 6.41 2.41 12.67
3/22/2021 7:45:00 AM 3.69 38.642 0.048 6.39 2.38 12.69
3/22/2021 8:00:00 AM 3.68 38.624 0.048 6.42 2.36 12.72
3/22/2021 8:15:00 AM 3.68 38.624 0.048 6.4 2.35 12.75
3/22/2021 8:30:00 AM 3.7 38.66 0.048 6.44 2.4 12.78
3/22/2021 8:45:00 AM 3.74 38.732 0.047 6.44 2.42 12.8
3/22/2021 9:00:00 AM 3.79 38.822 0.047 6.47 2.3 12.82
3/22/2021 9:15:00 AM 3.86 38.948 0.047 6.48 2.3 12.83
3/22/2021 9:30:00 AM 3.94 39.092 0.047 6.48 2.27 12.84
3/22/2021 9:45:00 AM 4.04 39.272 0.047 6.49 2.37 12.82
3/22/2021 10:00:00 AM 4.16 39.488 0.047 6.5 2.21 12.81
3/22/2021 10:15:00 AM 4.3 39.74 0.047 6.46 2.25 12.79
3/22/2021 10:30:00 AM 4.47 40.046 0.047 6.5 2.35 12.76
3/22/2021 10:45:00 AM 4.65 40.37 0.047 6.49 2.3 12.73
3/22/2021 11:00:00 AM 4.86 40.748 0.047 6.53 2.39 12.68
3/22/2021 11:15:00 AM 5.07 41.126 0.047 6.53 2.3 12.63
3/22/2021 11:30:00 AM 5.3 41.54 0.047 6.53 2.27 12.57
3/22/2021 11:45:00 AM 5.53 41.954 0.047 6.52 2.27 12.51
3/22/2021 12:00:00 PM 5.76 42.368 0.047 6.53 2.28 12.45
3/22/2021 12:15:00 PM 6 42.8 0.047 6.49 2.27 12.38
3/22/2021 12:30:00 PM 6.24 43.232 0.047 6.53 2.28 12.31
3/22/2021 12:45:00 PM 6.49 43.682 0.047 6.51 2.34 12.24
3/22/2021 1:00:00 PM 6.74 44.132 0.047 6.52 2.21 12.16
3/22/2021 1:15:00 PM 6.99 44.582 0.047 6.55 2.35 12.09
3/22/2021 1:30:00 PM 7.24 45.032 0.047 6.54 2.35 12.01
3/22/2021 1:45:00 PM 7.49 45.482 0.047 6.51 2.46 11.93
3/22/2021 2:00:00 PM 7.73 45.914 0.046 6.52 2.27 11.86
3/22/2021 2:15:00 PM 7.96 46.328 0.046 6.56 2.39 11.79
3/22/2021 2:30:00 PM 8.19 46.742 0.046 6.54 2.33 11.72
3/22/2021 2:45:00 PM 8.4 47.12 0.046 6.54 2.62 11.65
3/22/2021 3:00:00 PM 8.59 47.462 0.046 6.53 2.54 11.59
3/22/2021 3:15:00 PM 8.76 47.768 0.046 6.53 2.58 11.53
3/22/2021 3:30:00 PM 8.91 48.038 0.046 6.53 2.58 11.48
3/22/2021 3:45:00 PM 9.02 48.236 0.046 6.5 2.71 11.43
3/22/2021 4:00:00 PM 9.11 48.398 0.046 6.51 2.45 11.39
3/22/2021 4:15:00 PM 9.18 48.524 0.046 6.52 2.48 11.35
3/22/2021 4:30:00 PM 9.23 48.614 0.046 6.51 2.53 11.32
3/22/2021 4:45:00 PM 9.25 48.65 0.046 6.47 2.43 11.3
3/22/2021 5:00:00 PM 9.24 48.632 0.046 6.51 2.52 11.28
3/22/2021 5:15:00 PM 9.22 48.596 0.046 6.49 2.49 11.26
3/22/2021 5:30:00 PM 9.18 48.524 0.046 6.48 2.56 11.25
3/22/2021 5:45:00 PM 9.11 48.398 0.047 6.44 2.47 11.24
3/22/2021 6:00:00 PM 9.03 48.254 0.047 6.44 2.51 11.24
3/22/2021 6:15:00 PM 8.93 48.074 0.047 6.44 2.51 11.24
3/22/2021 6:30:00 PM 8.81 47.858 0.047 6.45 2.57 11.23
3/22/2021 6:45:00 PM 8.67 47.606 0.047 6.42 2.68 11.23
3/22/2021 7:00:00 PM 8.53 47.354 0.047 6.41 2.66 11.24
3/22/2021 7:15:00 PM 8.37 47.066 0.047 6.4 2.7 11.26
3/22/2021 7:30:00 PM 8.21 46.778 0.047 6.35 2.76 11.28
3/22/2021 7:45:00 PM 8.04 46.472 0.047 6.38 2.69 11.3
3/22/2021 8:00:00 PM 7.87 46.166 0.047 6.33 2.74 11.33
3/22/2021 8:15:00 PM 7.7 45.86 0.047 6.33 2.82 11.37
3/22/2021 8:30:00 PM 7.53 45.554 0.047 6.36 2.88 11.42
3/22/2021 8:45:00 PM 7.36 45.248 0.047 6.32 2.74 11.46
3/22/2021 9:00:00 PM 7.19 44.942 0.047 6.33 3.01 11.51
3/22/2021 9:15:00 PM 7.03 44.654 0.048 6.32 2.83 11.55
3/22/2021 9:30:00 PM 6.87 44.366 0.048 6.35 2.86 11.6
3/22/2021 9:45:00 PM 6.72 44.096 0.048 6.32 2.85 11.64
3/22/2021 10:00:00 PM 6.57 43.826 0.048 6.33 2.76 11.69
3/22/2021 10:15:00 PM 6.43 43.574 0.048 6.34 2.84 11.73
3/22/2021 10:30:00 PM 6.3 43.34 0.048 6.37 2.83 11.77
3/22/2021 10:45:00 PM 6.18 43.124 0.048 6.36 2.72 11.81
3/22/2021 11:00:00 PM 6.06 42.908 0.048 6.36 2.79 11.84
3/22/2021 11:15:00 PM 5.95 42.71 0.048 6.34 2.88 11.88
3/22/2021 11:30:00 PM 5.85 42.53 0.048 6.35 2.84 11.92
3/22/2021 11:45:00 PM 5.75 42.35 0.047 6.34 2.75 11.95
3/23/2021 12:00:00 AM 5.65 42.17 0.047 6.36 2.77 11.98
3/23/2021 12:15:00 AM 5.57 42.026 0.047 6.36 2.68 12
3/23/2021 12:30:00 AM 5.48 41.864 0.047 6.36 2.87 12.03
3/23/2021 12:45:00 AM 5.4 41.72 0.047 6.36 2.81 12.05
3/23/2021 1:00:00 AM 5.32 41.576 0.047 6.38 2.74 12.08
3/23/2021 1:15:00 AM 5.25 41.45 0.047 6.38 2.71 12.1
3/23/2021 1:30:00 AM 5.19 41.342 0.047 6.39 2.67 12.13
3/23/2021 1:45:00 AM 5.12 41.216 0.047 6.36 2.62 12.14
3/23/2021 2:00:00 AM 5.06 41.108 0.047 6.39 2.83 12.17
3/23/2021 2:15:00 AM 5 41 0.047 6.38 2.6 12.18
3/23/2021 2:30:00 AM 4.94 40.892 0.047 6.38 2.62 12.2
3/23/2021 2:45:00 AM 4.89 40.802 0.047 6.34 2.63 12.21
3/23/2021 3:00:00 AM 4.83 40.694 0.047 6.36 2.65 12.24
3/23/2021 3:15:00 AM 4.78 40.604 0.047 6.38 2.6 12.25
3/23/2021 3:30:00 AM 4.73 40.514 0.047 6.4 2.73 12.26
3/23/2021 3:45:00 AM 4.69 40.442 0.047 6.4 2.55 12.28
3/23/2021 4:00:00 AM 4.64 40.352 0.047 6.36 2.56 12.3
3/23/2021 4:15:00 AM 4.59 40.262 0.046 6.4 2.64 12.31
3/23/2021 4:30:00 AM 4.55 40.19 0.046 6.36 2.71 12.32
3/23/2021 4:45:00 AM 4.5 40.1 0.046 6.4 2.65 12.34
3/23/2021 5:00:00 AM 4.46 40.028 0.046 6.39 2.75 12.35
3/23/2021 5:15:00 AM 4.42 39.956 0.046 6.39 2.54 12.36
3/23/2021 5:30:00 AM 4.38 39.884 0.046 6.39 2.65 12.38
3/23/2021 5:45:00 AM 4.34 39.812 0.046 6.36 2.76 12.39
3/23/2021 6:00:00 AM 4.3 39.74 0.046 6.41 2.49 12.4
3/23/2021 6:15:00 AM 4.26 39.668 0.046 6.39 2.68 12.41
3/23/2021 6:30:00 AM 4.23 39.614 0.046 6.39 2.54 12.43
3/23/2021 6:45:00 AM 4.19 39.542 0.046 6.35 2.55 12.44
3/23/2021 7:00:00 AM 4.15 39.47 0.046 6.41 2.52 12.46
3/23/2021 7:15:00 AM 4.12 39.416 0.046 6.38 2.62 12.47
3/23/2021 7:30:00 AM 4.1 39.38 0.046 6.39 2.49 12.49
3/23/2021 7:45:00 AM 4.08 39.344 0.046 6.41 2.56 12.52
3/23/2021 8:00:00 AM 4.07 39.326 0.046 6.42 2.47 12.55
3/23/2021 8:15:00 AM 4.07 39.326 0.046 6.4 2.47 12.58
3/23/2021 8:30:00 AM 4.1 39.38 0.046 6.41 2.42 12.61
3/23/2021 8:45:00 AM 4.14 39.452 0.046 6.45 2.42 12.64
3/23/2021 9:00:00 AM 4.2 39.56 0.046 6.46 2.36 12.65
3/23/2021 9:15:00 AM 4.26 39.668 0.045 6.46 2.38 12.66
3/23/2021 9:30:00 AM 4.34 39.812 0.045 6.48 2.38 12.66
3/23/2021 9:45:00 AM 4.44 39.992 0.045 6.49 2.37 12.66
3/23/2021 10:00:00 AM 4.56 40.208 0.045 6.46 2.29 12.65
3/23/2021 10:15:00 AM 4.7 40.46 0.045 6.48 2.32 12.63
3/23/2021 10:30:00 AM 4.87 40.766 0.045 6.5 2.42 12.6
3/23/2021 10:45:00 AM 5.06 41.108 0.045 6.5 2.33 12.56
3/23/2021 11:00:00 AM 5.26 41.468 0.045 6.52 2.21 12.52
3/23/2021 11:15:00 AM 5.48 41.864 0.045 6.52 2.32 12.47
3/23/2021 11:30:00 AM 5.69 42.242 0.045 6.54 2.3 12.42
3/23/2021 11:45:00 AM 5.9 42.62 0.045 6.51 2.29 12.37
3/23/2021 12:00:00 PM 6.12 43.016 0.045 6.52 2.32 12.31
3/23/2021 12:15:00 PM 6.35 43.43 0.045 6.55 2.33 12.25
3/23/2021 12:30:00 PM 6.59 43.862 0.045 6.51 2.29 12.18
3/23/2021 12:45:00 PM 6.83 44.294 0.045 6.55 2.35 12.11
3/23/2021 1:00:00 PM 7.02 44.636 0.045 6.54 2.36 12.05
3/23/2021 1:15:00 PM 7.24 45.032 0.045 6.51 2.38 11.99
3/23/2021 1:30:00 PM 7.43 45.374 0.045 6.55 2.33 11.91
3/23/2021 1:45:00 PM 7.66 45.788 0.044 6.52 2.41 11.85
3/23/2021 2:00:00 PM 7.84 46.112 0.044 6.55 2.44 11.78
3/23/2021 2:15:00 PM 8.02 46.436 0.044 6.54 2.37 11.72
3/23/2021 2:30:00 PM 8.21 46.778 0.044 6.55 2.34 11.67
3/23/2021 2:45:00 PM 8.33 46.994 0.044 6.49 2.41 11.62
3/23/2021 3:00:00 PM 8.45 47.21 0.044 6.52 2.48 11.57
3/23/2021 3:15:00 PM 8.55 47.39 0.044 6.5 2.43 11.54
3/23/2021 3:30:00 PM 8.62 47.516 0.044 6.53 2.47 11.49
3/23/2021 3:45:00 PM 8.64 47.552 0.044 6.5 2.41 11.46
3/23/2021 4:00:00 PM 8.67 47.606 0.044 6.52 2.54 11.45
3/23/2021 4:15:00 PM 8.69 47.642 0.044 6.51 2.56 11.43
3/23/2021 4:30:00 PM 8.71 47.678 0.045 6.53 2.58 11.42
3/23/2021 4:45:00 PM 8.7 47.66 0.045 6.47 2.5 11.4
3/23/2021 5:00:00 PM 8.73 47.714 0.045 6.48 2.62 11.4
3/23/2021 5:15:00 PM 8.72 47.696 0.045 6.51 2.68 11.39
3/23/2021 5:30:00 PM 8.67 47.606 0.045 6.5 2.66 11.36
3/23/2021 5:45:00 PM 8.61 47.498 0.045 6.45 2.55 11.35
3/23/2021 6:00:00 PM 8.58 47.444 0.045 6.49 2.71 11.36
3/23/2021 6:15:00 PM 8.53 47.354 0.045 6.48 2.71 11.36
3/23/2021 6:30:00 PM 8.46 47.228 0.045 6.47 2.72 11.36
3/23/2021 6:45:00 PM 8.38 47.084 0.045 6.42 2.69 11.35
3/23/2021 7:00:00 PM 8.3 46.94 0.045 6.44 2.9 11.35
3/23/2021 7:15:00 PM 8.2 46.76 0.046 6.43 2.93 11.33
3/23/2021 7:30:00 PM 8.11 46.598 0.046 6.42 2.9 11.32
3/23/2021 7:45:00 PM 8.02 46.436 0.046 6.4 2.94 11.32
3/23/2021 8:00:00 PM 7.92 46.256 0.046 6.35 3.03 11.32
3/23/2021 8:15:00 PM 7.82 46.076 0.046 6.39 3.04 11.34
3/23/2021 8:30:00 PM 7.74 45.932 0.046 6.36 3.12 11.36
3/23/2021 8:45:00 PM 7.64 45.752 0.046 6.38 3.18 11.38
3/23/2021 9:00:00 PM 7.55 45.59 0.046 6.33 2.99 11.4
3/23/2021 9:15:00 PM 7.46 45.428 0.046 6.35 3.18 11.42
3/23/2021 9:30:00 PM 7.37 45.266 0.046 6.37 3.15 11.44
3/23/2021 9:45:00 PM 7.27 45.086 0.046 6.33 3.21 11.47
3/23/2021 10:00:00 PM 7.17 44.906 0.046 6.37 3.06 11.5
3/23/2021 10:15:00 PM 7.09 44.762 0.046 6.37 3.06 11.52
3/23/2021 10:30:00 PM 7 44.6 0.046 6.33 3.07 11.54
3/23/2021 10:45:00 PM 6.91 44.438 0.046 6.34 3.23 11.57
3/23/2021 11:00:00 PM 6.82 44.276 0.046 6.38 3.05 11.59
3/23/2021 11:15:00 PM 6.74 44.132 0.046 6.37 3.05 11.62
3/23/2021 11:30:00 PM 6.65 43.97 0.046 6.35 2.88 11.64
3/23/2021 11:45:00 PM 6.57 43.826 0.046 6.37 2.95 11.66
3/24/2021 12:00:00 AM 6.5 43.7 0.046 6.37 2.94 11.68
3/24/2021 12:15:00 AM 6.43 43.574 0.046 6.38 2.92 11.71
3/24/2021 12:30:00 AM 6.36 43.448 0.045 6.37 2.97 11.73
3/24/2021 12:45:00 AM 6.31 43.358 0.045 6.37 2.98 11.74
3/24/2021 1:00:00 AM 6.26 43.268 0.045 6.38 3.07 11.76
3/24/2021 1:15:00 AM 6.21 43.178 0.045 6.34 2.99 11.78
3/24/2021 1:30:00 AM 6.17 43.106 0.045 6.39 2.82 11.79
3/24/2021 1:45:00 AM 6.13 43.034 0.045 6.38 2.91 11.8
3/24/2021 2:00:00 AM 6.09 42.962 0.045 6.34 2.92 11.81
3/24/2021 2:15:00 AM 6.06 42.908 0.045 6.36 3.07 11.82
3/24/2021 2:30:00 AM 6.02 42.836 0.045 6.36 3.01 11.83
3/24/2021 2:45:00 AM 6 42.8 0.045 6.36 2.9 11.84
3/24/2021 3:00:00 AM 5.99 42.782 0.045 6.39 2.89 11.85
3/24/2021 3:15:00 AM 5.97 42.746 0.045 6.36 2.93 11.85
3/24/2021 3:30:00 AM 5.96 42.728 0.045 6.36 3.14 11.86
3/24/2021 3:45:00 AM 5.96 42.728 0.045 6.33 2.92 11.86
3/24/2021 4:00:00 AM 5.96 42.728 0.045 6.4 2.95 11.86
3/24/2021 4:15:00 AM 5.96 42.728 0.045 6.38 2.89 11.86
3/24/2021 4:30:00 AM 5.96 42.728 0.045 6.34 2.79 11.85
3/24/2021 4:45:00 AM 5.97 42.746 0.045 6.39 2.99 11.86
3/24/2021 5:00:00 AM 5.98 42.764 0.044 6.35 2.96 11.85
3/24/2021 5:15:00 AM 5.99 42.782 0.044 6.37 3.12 11.85
3/24/2021 5:30:00 AM 6.01 42.818 0.044 6.39 3.09 11.84
3/24/2021 5:45:00 AM 6.02 42.836 0.044 6.38 2.97 11.84
3/24/2021 6:00:00 AM 6.04 42.872 0.044 6.38 3.05 11.82
3/24/2021 6:15:00 AM 6.06 42.908 0.044 6.36 2.95 11.82
3/24/2021 6:30:00 AM 6.08 42.944 0.044 6.37 3.05 11.81
3/24/2021 6:45:00 AM 6.11 42.998 0.044 6.36 3.07 11.81
3/24/2021 7:00:00 AM 6.13 43.034 0.044 6.35 3.05 11.8
3/24/2021 7:15:00 AM 6.15 43.07 0.044 6.39 2.99 11.8
3/24/2021 7:30:00 AM 6.17 43.106 0.044 6.38 3.13 11.8
3/24/2021 7:45:00 AM 6.19 43.142 0.044 6.38 3.06 11.79
3/24/2021 8:00:00 AM 6.22 43.196 0.044 6.34 3.31 11.79
3/24/2021 8:15:00 AM 6.24 43.232 0.044 6.37 3.24 11.78
3/24/2021 8:30:00 AM 6.26 43.268 0.044 6.39 3.29 11.78
3/24/2021 8:45:00 AM 6.28 43.304 0.044 6.38 3.5 11.79
3/24/2021 9:00:00 AM 6.31 43.358 0.044 6.39 3.78 11.8
3/24/2021 9:15:00 AM 6.33 43.394 0.044 6.35 4.22 11.81
3/24/2021 9:30:00 AM 6.36 43.448 0.044 6.38 4.49 11.81
3/24/2021 9:45:00 AM 6.4 43.52 0.044 6.38 4.86 11.83
3/24/2021 10:00:00 AM 6.44 43.592 0.044 6.42 4.97 11.84
3/24/2021 10:15:00 AM 6.48 43.664 0.044 6.4 5.42 11.85
3/24/2021 10:30:00 AM 6.53 43.754 0.045 6.38 5.34 11.86
3/24/2021 10:45:00 AM 6.59 43.862 0.045 6.45 5.85 11.86
3/24/2021 11:00:00 AM 6.64 43.952 0.045 6.39 5.35 11.85
3/24/2021 11:15:00 AM 6.69 44.042 0.046 6.43 5.55 11.83
3/24/2021 11:30:00 AM 6.74 44.132 0.046 6.47 5.75 11.83
3/24/2021 11:45:00 AM 6.79 44.222 0.046 6.45 5.64 11.81
3/24/2021 12:00:00 PM 6.83 44.294 0.046 6.4 5.11 11.79
3/24/2021 12:15:00 PM 6.88 44.384 0.046 6.46 8.11 11.77
3/24/2021 12:30:00 PM 6.94 44.492 0.046 6.46 4.91 11.76
3/24/2021 12:45:00 PM 7 44.6 0.046 6.42 4.83 11.75
3/24/2021 1:00:00 PM -99999.99 -179968 -99999.99 -99999.99 -99999.99 -99999.99
3/24/2021 1:15:00 PM 7.1 44.78 0.045 6.84 4.6 11.71
3/24/2021 1:30:00 PM 7.17 44.906 0.045 6.86 5.57 11.7
3/24/2021 1:45:00 PM 7.23 45.014 0.045 6.84 5.6 11.69
3/24/2021 2:00:00 PM 7.31 45.158 0.046 6.85 5.03 11.68
3/24/2021 2:15:00 PM 7.37 45.266 0.046 6.86 5.1 11.65
3/24/2021 2:30:00 PM 7.41 45.338 0.046 6.83 5.88 11.62
3/24/2021 2:45:00 PM 7.46 45.428 0.047 6.85 5.38 11.61
3/24/2021 3:00:00 PM 7.51 45.518 0.047 6.82 5.3 11.6
3/24/2021 3:15:00 PM 7.55 45.59 0.047 6.82 5.19 11.58
3/24/2021 3:30:00 PM 7.61 45.698 0.047 6.85 4.74 11.57
3/24/2021 3:45:00 PM 7.68 45.824 0.047 6.83 4.95 11.56
3/24/2021 4:00:00 PM 7.76 45.968 0.047 6.83 4.99 11.57
3/24/2021 4:15:00 PM 7.81 46.058 0.047 6.82 4.75 11.55
3/24/2021 4:30:00 PM 7.85 46.13 0.047 6.83 5.07 11.52
3/24/2021 4:45:00 PM 7.89 46.202 0.047 6.82 4.75 11.5
3/24/2021 5:00:00 PM 7.92 46.256 0.047 6.83 4.93 11.48
3/24/2021 5:15:00 PM 7.94 46.292 0.046 6.8 4.89 11.44
3/24/2021 5:30:00 PM 7.95 46.31 0.048 6.78 8.44 11.41
3/24/2021 5:45:00 PM 7.95 46.31 0.046 6.83 5.03 11.38
3/24/2021 6:00:00 PM 7.96 46.328 0.046 6.8 4.9 11.36
3/24/2021 6:15:00 PM 7.97 46.346 0.046 6.8 5.05 11.35
3/24/2021 6:30:00 PM 7.98 46.364 0.046 6.79 4.99 11.33
3/24/2021 6:45:00 PM 7.97 46.346 0.045 6.81 4.88 11.3
3/24/2021 7:00:00 PM 7.95 46.31 0.046 6.79 5.15 11.29
3/24/2021 7:15:00 PM 7.94 46.292 0.045 6.79 4.84 11.28
3/24/2021 7:30:00 PM 7.93 46.274 0.045 6.79 5.07 11.27
3/24/2021 7:45:00 PM 7.9 46.22 0.045 6.78 5.11 11.26
3/24/2021 8:00:00 PM 7.87 46.166 0.045 6.79 5.16 11.26
3/24/2021 8:15:00 PM 7.83 46.094 0.045 6.78 5.83 11.26
3/24/2021 8:30:00 PM 7.8 46.04 0.045 6.76 5.46 11.27
3/24/2021 8:45:00 PM 7.77 45.986 0.044 6.77 5.91 11.26
3/24/2021 9:00:00 PM 7.73 45.914 0.044 6.77 5.85 11.28
3/24/2021 9:15:00 PM 7.7 45.86 0.044 6.77 5.84 11.28
3/24/2021 9:30:00 PM 7.66 45.788 0.044 6.76 5.47 11.29
3/24/2021 9:45:00 PM 7.63 45.734 0.044 6.74 6.19 11.3
3/24/2021 10:00:00 PM 7.6 45.68 0.044 6.77 5.69 11.31
3/24/2021 10:15:00 PM 7.58 45.644 0.044 6.78 5.41 11.32
3/24/2021 10:30:00 PM 7.55 45.59 0.044 6.76 5.81 11.32
3/24/2021 10:45:00 PM 7.52 45.536 0.044 6.75 5.78 11.34
3/24/2021 11:00:00 PM 7.5 45.5 0.044 6.76 6.2 11.34
3/24/2021 11:15:00 PM 7.48 45.464 0.044 6.76 5.55 11.35
3/24/2021 11:30:00 PM 7.46 45.428 0.043 6.75 5.84 11.35
3/24/2021 11:45:00 PM 7.44 45.392 0.043 6.75 5.9 11.36
3/25/2021 12:00:00 AM 7.42 45.356 0.043 6.75 5.45 11.36
3/25/2021 12:15:00 AM 7.41 45.338 0.043 6.76 5.93 11.37
3/25/2021 12:30:00 AM 7.4 45.32 0.043 6.77 6.17 11.37
3/25/2021 12:45:00 AM 7.39 45.302 0.043 6.77 5.96 11.38
3/25/2021 1:00:00 AM 7.38 45.284 0.043 6.75 5.73 11.38
3/25/2021 1:15:00 AM 7.37 45.266 0.043 6.72 5.38 11.38
3/25/2021 1:30:00 AM 7.36 45.248 0.042 6.73 5.98 11.38
3/25/2021 1:45:00 AM 7.34 45.212 0.042 6.75 5.19 11.39
3/25/2021 2:00:00 AM 7.34 45.212 0.042 6.75 5.5 11.39
3/25/2021 2:15:00 AM 7.33 45.194 0.042 6.76 5.72 11.4
3/25/2021 2:30:00 AM 7.32 45.176 0.042 6.75 5.69 11.4
3/25/2021 2:45:00 AM 7.31 45.158 0.042 6.75 5.52 11.4
3/25/2021 3:00:00 AM 7.31 45.158 0.042 6.73 5.34 11.4
3/25/2021 3:15:00 AM 7.3 45.14 0.042 6.75 5.66 11.4
3/25/2021 3:30:00 AM 7.3 45.14 0.042 6.76 5.83 11.4
3/25/2021 3:45:00 AM 7.29 45.122 0.042 6.76 5.85 11.41
3/25/2021 4:00:00 AM 7.28 45.104 0.042 6.75 5.21 11.41
3/25/2021 4:15:00 AM 7.27 45.086 0.042 6.75 5.69 11.41
3/25/2021 4:30:00 AM 7.26 45.068 0.042 6.73 5.38 11.41
3/25/2021 4:45:00 AM 7.25 45.05 0.042 6.74 5.79 11.42
3/25/2021 5:00:00 AM 7.24 45.032 0.042 6.75 5.36 11.42
3/25/2021 5:15:00 AM 7.23 45.014 0.042 6.76 5.92 11.43
3/25/2021 5:30:00 AM 7.23 45.014 0.042 6.75 5.12 11.43
3/25/2021 5:45:00 AM 7.22 44.996 0.042 6.72 5.21 11.43
3/25/2021 6:00:00 AM 7.21 44.978 0.042 6.75 5.21 11.43
3/25/2021 6:15:00 AM 7.2 44.96 0.041 6.72 5.16 11.44
3/25/2021 6:30:00 AM 7.2 44.96 0.041 6.74 5.36 11.44
3/25/2021 6:45:00 AM 7.19 44.942 0.041 6.73 5.46 11.45
3/25/2021 7:00:00 AM 7.18 44.924 0.041 6.75 5.03 11.45
3/25/2021 7:15:00 AM 7.17 44.906 0.041 6.72 5.28 11.46
3/25/2021 7:30:00 AM 7.17 44.906 0.041 6.75 5.23 11.46
3/25/2021 7:45:00 AM 7.17 44.906 0.041 6.75 5.6 11.48
3/25/2021 8:00:00 AM 7.17 44.906 0.041 6.73 5.22 11.49
3/25/2021 8:15:00 AM 7.17 44.906 0.041 6.76 5.07 11.5
3/25/2021 8:30:00 AM 7.18 44.924 0.041 6.76 5.25 11.52
3/25/2021 8:45:00 AM 7.2 44.96 0.041 6.76 4.79 11.55
3/25/2021 9:00:00 AM 7.23 45.014 0.041 6.79 4.77 11.56
3/25/2021 9:15:00 AM 7.3 45.14 0.041 6.78 4.77 11.59
3/25/2021 9:30:00 AM 7.33 45.194 0.041 6.82 4.79 11.59
3/25/2021 9:45:00 AM 7.41 45.338 0.041 6.82 4.69 11.61
3/25/2021 10:00:00 AM 7.44 45.392 0.041 6.81 4.53 11.6
3/25/2021 10:15:00 AM 7.56 45.608 0.041 6.82 4.64 11.62
3/25/2021 10:30:00 AM 7.62 45.716 0.041 6.84 4.68 11.61
3/25/2021 10:45:00 AM 7.69 45.842 0.041 6.84 4.78 11.61
3/25/2021 11:00:00 AM 7.85 46.13 0.04 6.86 4.86 11.59
3/25/2021 11:15:00 AM 8 46.4 0.04 6.87 4.4 11.57
3/25/2021 11:30:00 AM 8.16 46.688 0.04 6.86 4.96 11.53
3/25/2021 11:45:00 AM 8.34 47.012 0.04 6.87 4.64 11.5
3/25/2021 12:00:00 PM 8.53 47.354 0.04 6.86 4.79 11.46
3/25/2021 12:15:00 PM 8.72 47.696 0.04 6.89 4.4 11.4
3/25/2021 12:30:00 PM 8.91 48.038 0.04 6.87 4.23 11.36
3/25/2021 12:45:00 PM 9.13 48.434 0.04 6.89 4.4 11.32
3/25/2021 1:00:00 PM 9.3 48.74 0.04 6.88 4.65 11.26
3/25/2021 1:15:00 PM 9.45 49.01 0.04 6.9 4.77 11.21
3/25/2021 1:30:00 PM 9.63 49.334 0.04 6.88 4.71 11.17
3/25/2021 1:45:00 PM 9.83 49.694 0.04 6.89 4.74 11.12
3/25/2021 2:00:00 PM 10 50 0.04 6.9 4.35 11.07
3/25/2021 2:15:00 PM 10.15 50.27 0.04 6.87 4.48 11.02
3/25/2021 2:30:00 PM 10.27 50.486 0.04 6.9 4.67 10.99
3/25/2021 2:45:00 PM 10.38 50.684 0.04 6.91 4.64 10.95
3/25/2021 3:00:00 PM 10.5 50.9 0.04 6.76 4.6 10.91
3/25/2021 3:15:00 PM 10.6 51.08 0.04 6.9 4.58 10.87
3/25/2021 3:30:00 PM 10.66 51.188 0.04 6.92 4.8 10.84
3/25/2021 3:45:00 PM 10.69 51.242 0.04 6.91 4.72 10.82
3/25/2021 4:00:00 PM 10.68 51.224 0.04 6.9 4.47 10.8
3/25/2021 4:15:00 PM 10.65 51.17 0.04 6.91 4.41 10.78
3/25/2021 4:30:00 PM 10.62 51.116 0.04 6.92 4.77 10.77
3/25/2021 4:45:00 PM 10.57 51.026 0.04 6.89 4.82 10.76
3/25/2021 5:00:00 PM 10.51 50.918 0.04 6.88 4.74 10.76
3/25/2021 5:15:00 PM 10.46 50.828 0.04 6.87 4.59 10.76
3/25/2021 5:30:00 PM 10.39 50.702 0.04 6.88 4.55 10.76
3/25/2021 5:45:00 PM 10.3 50.54 0.04 6.87 5.15 10.76
3/25/2021 6:00:00 PM 10.23 50.414 0.04 6.87 5.06 10.76
3/25/2021 6:15:00 PM 10.12 50.216 0.04 6.86 4.48 10.75
3/25/2021 6:30:00 PM 10.02 50.036 0.04 6.86 4.69 10.75
3/25/2021 6:45:00 PM 9.91 49.838 0.04 6.83 5.23 10.76
3/25/2021 7:00:00 PM 9.79 49.622 0.04 6.82 4.82 10.77
3/25/2021 7:15:00 PM 9.67 49.406 0.04 6.8 4.52 10.77
3/25/2021 7:30:00 PM 9.56 49.208 0.04 6.78 4.93 10.78
3/25/2021 7:45:00 PM 9.46 49.028 0.04 6.68 5.18 10.79
3/25/2021 8:00:00 PM 9.37 48.866 0.04 6.77 4.89 10.8
3/25/2021 8:15:00 PM 9.27 48.686 0.04 6.61 4.58 10.81
3/25/2021 8:30:00 PM 9.18 48.524 0.041 6.77 4.83 10.84
3/25/2021 8:45:00 PM 9.11 48.398 0.041 6.65 4.68 10.86
3/25/2021 9:00:00 PM 9.03 48.254 0.041 6.76 4.98 10.87
3/25/2021 9:15:00 PM 8.96 48.128 0.041 6.75 5.03 10.89
3/25/2021 9:30:00 PM 8.9 48.02 0.041 6.78 5.18 10.91
3/25/2021 9:45:00 PM 8.85 47.93 0.04 6.75 4.91 10.92
3/25/2021 10:00:00 PM 8.79 47.822 0.041 6.78 4.94 10.94
3/25/2021 10:15:00 PM 8.74 47.732 0.041 6.76 5.28 10.94
3/25/2021 10:30:00 PM 8.71 47.678 0.04 6.8 4.86 10.95
3/25/2021 10:45:00 PM 8.67 47.606 0.041 6.78 4.6 10.96
3/25/2021 11:00:00 PM 8.63 47.534 0.04 6.78 4.79 10.97
3/25/2021 11:15:00 PM 8.61 47.498 0.041 6.78 4.76 10.98
3/25/2021 11:30:00 PM 8.58 47.444 0.041 6.79 5.2 10.98
3/25/2021 11:45:00 PM 8.56 47.408 0.041 6.79 5.21 10.99
3/26/2021 12:00:00 AM 8.55 47.39 0.041 6.75 4.82 10.99
3/26/2021 12:15:00 AM 8.54 47.372 0.04 6.78 5.14 10.99
3/26/2021 12:30:00 AM 8.52 47.336 0.04 6.75 4.92 11
3/26/2021 12:45:00 AM 8.52 47.336 0.04 6.79 4.89 11
3/26/2021 1:00:00 AM 8.51 47.318 0.041 6.62 4.94 10.99
3/26/2021 1:15:00 AM 8.5 47.3 0.04 6.8 4.73 10.99
3/26/2021 1:30:00 AM 8.5 47.3 0.041 6.76 4.82 10.99
3/26/2021 1:45:00 AM 8.49 47.282 0.04 6.78 4.65 10.99
3/26/2021 2:00:00 AM 8.48 47.264 0.04 6.78 4.59 10.99
3/26/2021 2:15:00 AM 8.47 47.246 0.04 6.74 5.3 10.99
3/26/2021 2:30:00 AM 8.45 47.21 0.04 6.77 4.63 10.99
3/26/2021 2:45:00 AM 8.44 47.192 0.04 6.78 4.51 10.99
3/26/2021 3:00:00 AM 8.45 47.21 0.04 6.79 4.96 10.98
3/26/2021 3:15:00 AM 8.44 47.192 0.04 6.78 4.59 10.98
3/26/2021 3:30:00 AM 8.45 47.21 0.04 6.78 4.92 10.97
3/26/2021 3:45:00 AM 8.46 47.228 0.04 6.77 4.64 10.97
3/26/2021 4:00:00 AM 8.48 47.264 0.04 6.79 4.68 10.96
3/26/2021 4:15:00 AM 8.49 47.282 0.04 6.79 4.56 10.95
3/26/2021 4:30:00 AM 8.5 47.3 0.04 6.79 4.64 10.94
3/26/2021 4:45:00 AM 8.5 47.3 0.04 6.76 4.71 10.94
3/26/2021 5:00:00 AM 8.48 47.264 0.04 6.77 4.88 10.93
3/26/2021 5:15:00 AM 8.44 47.192 0.04 6.78 4.62 10.94
3/26/2021 5:30:00 AM 8.42 47.156 0.04 6.77 4.86 10.94
3/26/2021 5:45:00 AM 8.41 47.138 0.04 6.77 4.43 10.93
3/26/2021 6:00:00 AM 8.4 47.12 0.04 6.77 4.4 10.93
3/26/2021 6:15:00 AM 8.42 47.156 0.04 6.77 4.69 10.93
3/26/2021 6:30:00 AM 8.41 47.138 0.04 6.77 4.9 10.93
3/26/2021 6:45:00 AM 8.4 47.12 0.04 6.77 4.81 10.93
3/26/2021 7:00:00 AM 8.4 47.12 0.04 6.73 4.97 10.93
3/26/2021 7:15:00 AM 8.41 47.138 0.04 6.77 4.42 10.93
3/26/2021 7:30:00 AM 8.4 47.12 0.04 6.73 5.32 10.94
3/26/2021 7:45:00 AM 8.38 47.084 0.04 6.72 4.76 10.95
3/26/2021 8:00:00 AM 8.41 47.138 0.04 6.8 4.85 10.98
3/26/2021 8:15:00 AM 8.45 47.21 0.04 6.77 4.43 10.99
3/26/2021 8:30:00 AM 8.47 47.246 0.04 6.8 2.31 11
3/26/2021 8:45:00 AM 8.5 47.3 0.04 6.78 4.94 11.02
3/26/2021 9:00:00 AM 8.52 47.336 0.04 6.83 4.65 11.02
3/26/2021 9:15:00 AM 8.61 47.498 0.04 6.81 4.74 11.06
3/26/2021 9:30:00 AM 8.68 47.624 0.041 6.82 4.12 11.05
3/26/2021 9:45:00 AM 8.71 47.678 0.04 6.81 4.28 11.03
3/26/2021 10:00:00 AM 8.74 47.732 0.041 6.86 4.71 11.02
3/26/2021 10:15:00 AM 8.77 47.786 0.041 6.83 4.33 11.01
3/26/2021 10:30:00 AM 8.79 47.822 0.04 6.84 4.46 10.99
3/26/2021 10:45:00 AM 8.85 47.93 0.04 6.83 4.5 11.02
3/26/2021 11:00:00 AM 8.93 48.074 0.041 6.87 4.45 11.03
3/26/2021 11:15:00 AM 8.97 48.146 0.041 6.86 4.28 11.02
3/26/2021 11:30:00 AM 9.03 48.254 0.041 6.87 4.24 11.04
3/26/2021 11:45:00 AM 9.14 48.452 0.041 6.85 4.46 11.04
3/26/2021 12:00:00 PM 9.13 48.434 0.041 6.89 4.53 11
3/26/2021 12:15:00 PM 9.14 48.452 0.041 6.86 5.5 11.01
3/26/2021 12:30:00 PM 9.27 48.686 0.041 6.9 4.38 11.02
3/26/2021 12:45:00 PM 9.36 48.848 0.041 6.86 4.67 11.01
3/26/2021 1:00:00 PM 9.44 48.992 0.041 6.9 4.69 11.02
3/26/2021 1:15:00 PM 9.58 49.244 0.041 6.89 4.99 11.01
3/26/2021 1:30:00 PM 9.61 49.298 0.041 6.9 4.85 10.98
3/26/2021 1:45:00 PM 9.62 49.316 0.041 6.89 4.56 10.98
3/26/2021 2:00:00 PM 9.59 49.262 0.041 6.91 4.93 10.97
3/26/2021 2:15:00 PM 9.64 49.352 0.041 6.88 4.66 10.98
3/26/2021 2:30:00 PM 9.64 49.352 0.041 6.92 4.57 10.97
3/26/2021 2:45:00 PM 9.65 49.37 0.041 6.89 4.89 10.98
3/26/2021 3:00:00 PM 9.64 49.352 0.041 6.92 5 10.99
3/26/2021 3:15:00 PM 9.6 49.28 0.041 6.88 4.61 10.99
3/26/2021 3:30:00 PM 9.55 49.19 0.041 6.91 4.51 10.99
3/26/2021 3:45:00 PM 9.48 49.064 0.041 6.89 4.82 10.99
3/26/2021 4:00:00 PM 9.4 48.92 0.041 6.91 4.83 11.01
3/26/2021 4:15:00 PM 9.32 48.776 0.041 6.88 4.85 11.03
3/26/2021 4:30:00 PM 9.24 48.632 0.041 6.87 4.62 11.04
3/26/2021 4:45:00 PM 9.14 48.452 0.041 6.86 4.45 11.06
3/26/2021 5:00:00 PM 9.04 48.272 0.041 6.85 4.86 11.07
3/26/2021 5:15:00 PM 8.95 48.11 0.041 6.85 4.68 11.08
3/26/2021 5:30:00 PM 8.86 47.948 0.041 6.88 4.84 11.1
3/26/2021 5:45:00 PM 8.78 47.804 0.041 6.83 4.59 11.12
3/26/2021 6:00:00 PM 8.7 47.66 0.041 6.87 4.76 11.13
3/26/2021 6:15:00 PM 8.6 47.48 0.041 6.82 4.26 11.13
3/26/2021 6:30:00 PM 8.52 47.336 0.041 6.85 4.58 11.15
3/26/2021 6:45:00 PM 8.43 47.174 0.041 6.81 4.23 11.16
3/26/2021 7:00:00 PM 8.34 47.012 0.041 6.84 4.27 11.16
3/26/2021 7:15:00 PM 8.26 46.868 0.041 6.8 4.8 11.16
3/26/2021 7:30:00 PM 8.19 46.742 0.041 6.78 4.35 11.17
3/26/2021 7:45:00 PM 8.11 46.598 0.041 6.79 4.56 11.17
3/26/2021 8:00:00 PM 8.03 46.454 0.041 6.81 4.35 11.19
3/26/2021 8:15:00 PM 7.96 46.328 0.041 6.77 4.24 11.2
3/26/2021 8:30:00 PM 7.89 46.202 0.041 6.79 4.67 11.22
3/26/2021 8:45:00 PM 7.83 46.094 0.041 6.76 4.58 11.24
3/26/2021 9:00:00 PM 7.77 45.986 0.041 6.78 4.94 11.26
3/26/2021 9:15:00 PM 7.71 45.878 0.041 6.8 4.65 11.28
3/26/2021 9:30:00 PM 7.66 45.788 0.041 6.8 4.79 11.3
3/26/2021 9:45:00 PM 7.61 45.698 0.041 6.79 4.24 11.31
3/26/2021 10:00:00 PM 7.56 45.608 0.041 6.77 4.64 11.32
3/26/2021 10:15:00 PM 7.52 45.536 0.041 6.8 4.26 11.34
3/26/2021 10:30:00 PM 7.48 45.464 0.041 6.77 4.38 11.35
3/26/2021 10:45:00 PM 7.44 45.392 0.041 6.8 4.45 11.35
3/26/2021 11:00:00 PM 7.41 45.338 0.041 6.76 4.37 11.37
3/26/2021 11:15:00 PM 7.38 45.284 0.041 6.81 4.29 11.39
3/26/2021 11:30:00 PM 7.34 45.212 0.041 6.77 4.61 11.4
3/26/2021 11:45:00 PM 7.31 45.158 0.041 6.77 4.64 11.41
3/27/2021 12:00:00 AM 7.29 45.122 0.041 6.77 4.29 11.42
3/27/2021 12:15:00 AM 7.27 45.086 0.041 6.8 4.37 11.42
3/27/2021 12:30:00 AM 7.25 45.05 0.042 6.77 5.66 11.42
3/27/2021 12:45:00 AM 7.24 45.032 0.041 6.78 4.34 11.43
3/27/2021 1:00:00 AM 7.23 45.014 0.041 6.78 4.19 11.43
3/27/2021 1:15:00 AM 7.22 44.996 0.041 6.79 4.16 11.44
3/27/2021 1:30:00 AM 7.21 44.978 0.041 6.77 4.23 11.44
3/27/2021 1:45:00 AM 7.2 44.96 0.041 6.79 4 11.44
3/27/2021 2:00:00 AM 7.19 44.942 0.042 6.77 4.06 11.44
3/27/2021 2:15:00 AM 7.19 44.942 0.042 6.79 3.83 11.44
3/27/2021 2:30:00 AM 7.18 44.924 0.042 6.79 4.14 11.45
3/27/2021 2:45:00 AM 7.18 44.924 0.042 6.79 4.2 11.45
3/27/2021 3:00:00 AM 7.17 44.906 0.041 6.78 4.15 11.45
3/27/2021 3:15:00 AM 7.17 44.906 0.042 6.78 4.17 11.45
3/27/2021 3:30:00 AM 7.17 44.906 0.042 6.8 4.54 11.45
3/27/2021 3:45:00 AM 7.16 44.888 0.042 6.77 4.23 11.45
3/27/2021 4:00:00 AM 7.16 44.888 0.042 6.8 4.02 11.45
3/27/2021 4:15:00 AM 7.16 44.888 0.042 6.76 3.94 11.45
3/27/2021 4:30:00 AM 7.16 44.888 0.042 6.79 4.07 11.46
3/27/2021 4:45:00 AM 7.16 44.888 0.042 6.76 4.2 11.45
3/27/2021 5:00:00 AM 7.16 44.888 0.042 6.79 4.16 11.46
3/27/2021 5:15:00 AM 7.16 44.888 0.042 6.77 4.28 11.45
3/27/2021 5:30:00 AM 7.15 44.87 0.042 6.75 4.45 11.46
3/27/2021 5:45:00 AM 7.15 44.87 0.042 6.79 4.4 11.46
3/27/2021 6:00:00 AM 7.15 44.87 0.042 6.77 3.75 11.46
3/27/2021 6:15:00 AM 7.15 44.87 0.042 6.78 4.31 11.46
3/27/2021 6:30:00 AM 7.15 44.87 0.042 6.76 4.02 11.46
3/27/2021 6:45:00 AM 7.15 44.87 0.042 6.79 4.13 11.46
3/27/2021 7:00:00 AM 7.15 44.87 0.042 6.76 3.87 11.46
3/27/2021 7:15:00 AM 7.15 44.87 0.042 6.8 3.98 11.47
3/27/2021 7:30:00 AM 7.15 44.87 0.042 6.76 3.97 11.48
3/27/2021 7:45:00 AM 7.15 44.87 0.042 6.8 3.97 11.5
3/27/2021 8:00:00 AM 7.16 44.888 0.042 6.79 3.81 11.51
3/27/2021 8:15:00 AM 7.17 44.906 0.042 6.81 3.99 11.52
3/27/2021 8:30:00 AM 7.18 44.924 0.042 6.83 3.94 11.54
3/27/2021 8:45:00 AM 7.21 44.978 0.042 6.83 3.88 11.58
3/27/2021 9:00:00 AM 7.24 45.032 0.041 6.85 3.6 11.6
3/27/2021 9:15:00 AM 7.28 45.104 0.042 6.86 3.82 11.62
3/27/2021 9:30:00 AM 7.34 45.212 0.042 6.85 3.65 11.64
3/27/2021 9:45:00 AM 7.37 45.266 0.041 6.88 3.75 11.64
3/27/2021 10:00:00 AM 7.45 45.41 0.041 6.86 3.71 11.65
3/27/2021 10:15:00 AM 7.51 45.518 0.041 6.87 3.57 11.64
3/27/2021 10:30:00 AM 7.58 45.644 0.041 6.9 4.09 11.64
3/27/2021 10:45:00 AM 7.62 45.716 0.041 6.92 3.72 11.63
3/27/2021 11:00:00 AM 7.71 45.878 0.041 6.89 3.69 11.62
3/27/2021 11:15:00 AM 7.84 46.112 0.041 6.87 4 11.62
3/27/2021 11:30:00 AM 8.04 46.472 0.041 6.92 3.91 11.58
3/27/2021 11:45:00 AM 8.29 46.922 0.041 6.94 3.94 11.55
3/27/2021 12:00:00 PM 8.4 47.12 0.041 6.93 3.63 11.52
3/27/2021 12:15:00 PM 8.61 47.498 0.041 6.91 3.7 11.47
3/27/2021 12:30:00 PM 8.84 47.912 0.041 6.93 3.68 11.41
3/27/2021 12:45:00 PM 9.03 48.254 0.041 6.93 3.96 11.36
3/27/2021 1:00:00 PM 9.21 48.578 0.041 6.94 3.81 11.31
3/27/2021 1:15:00 PM 9.36 48.848 0.041 6.94 3.64 11.26
3/27/2021 1:30:00 PM 9.52 49.136 0.041 6.95 3.86 11.23
3/27/2021 1:45:00 PM 9.65 49.37 0.041 6.93 3.68 11.19
3/27/2021 2:00:00 PM 9.77 49.586 0.041 6.95 3.92 11.15
3/27/2021 2:15:00 PM 9.89 49.802 0.041 6.94 3.77 11.12
3/27/2021 2:30:00 PM 9.98 49.964 0.041 6.94 3.78 11.08
3/27/2021 2:45:00 PM 10.08 50.144 0.041 6.94 3.71 11.04
3/27/2021 3:00:00 PM 10.2 50.36 0.041 6.96 4.14 11.01
3/27/2021 3:15:00 PM 10.29 50.522 0.041 6.94 4.14 10.97
3/27/2021 3:30:00 PM 10.34 50.612 0.041 6.96 3.77 10.95
3/27/2021 3:45:00 PM 10.38 50.684 0.041 6.96 3.89 10.92
3/27/2021 4:00:00 PM 10.41 50.738 0.041 6.97 3.81 10.91
3/27/2021 4:15:00 PM 10.43 50.774 0.041 6.94 3.73 10.9
3/27/2021 4:30:00 PM 10.42 50.756 0.041 6.96 3.74 10.88
3/27/2021 4:45:00 PM 10.42 50.756 0.041 6.95 3.86 10.87
3/27/2021 5:00:00 PM 10.4 50.72 0.041 6.95 3.74 10.86
3/27/2021 5:15:00 PM 10.41 50.738 0.041 6.94 3.76 10.85
3/27/2021 5:30:00 PM 10.39 50.702 0.042 6.96 3.66 10.83
3/27/2021 5:45:00 PM 10.35 50.63 0.042 6.95 3.77 10.82
3/27/2021 6:00:00 PM 10.27 50.486 0.042 6.95 3.71 10.81
3/27/2021 6:15:00 PM 10.18 50.324 0.042 6.94 4.29 10.8
3/27/2021 6:30:00 PM 10.07 50.126 0.042 6.89 3.72 10.79
3/27/2021 6:45:00 PM 9.95 49.91 0.042 6.9 3.79 10.79
3/27/2021 7:00:00 PM 9.82 49.676 0.042 6.9 3.75 10.79
3/27/2021 7:15:00 PM 9.71 49.478 0.042 6.87 4.07 10.79
3/27/2021 7:30:00 PM 9.58 49.244 0.042 6.85 3.95 10.78
3/27/2021 7:45:00 PM 9.47 49.046 0.042 6.83 3.9 10.79
3/27/2021 8:00:00 PM 9.34 48.812 0.042 6.81 4.2 10.81
3/27/2021 8:15:00 PM 9.22 48.596 0.042 6.83 4.15 10.83
3/27/2021 8:30:00 PM 9.11 48.398 0.042 6.82 4.51 10.85
3/27/2021 8:45:00 PM 8.98 48.164 0.042 6.81 4.01 10.88
3/27/2021 9:00:00 PM 8.87 47.966 0.042 6.82 4.02 10.9
3/27/2021 9:15:00 PM 8.74 47.732 0.042 6.79 4.11 10.93
3/27/2021 9:30:00 PM 8.62 47.516 0.042 6.81 3.96 10.97
3/27/2021 9:45:00 PM 8.5 47.3 0.042 6.79 3.99 11
3/27/2021 10:00:00 PM 8.39 47.102 0.042 6.78 4.03 11.03
3/27/2021 10:15:00 PM 8.27 46.886 0.042 6.81 4.28 11.07
3/27/2021 10:30:00 PM 8.16 46.688 0.042 6.79 3.94 11.09
3/27/2021 10:45:00 PM 8.06 46.508 0.042 6.81 4.09 11.11
3/27/2021 11:00:00 PM 7.96 46.328 0.042 6.79 3.98 11.15
3/27/2021 11:15:00 PM 7.87 46.166 0.042 6.77 4.06 11.17
3/27/2021 11:30:00 PM 7.78 46.004 0.042 6.78 3.84 11.2
3/27/2021 11:45:00 PM 7.7 45.86 0.042 6.8 4.12 11.22
3/28/2021 12:00:00 AM 7.62 45.716 0.042 6.8 4.09 11.24
3/28/2021 12:15:00 AM 7.54 45.572 0.042 6.8 4.15 11.25
3/28/2021 12:30:00 AM 7.47 45.446 0.042 6.77 4.18 11.27
3/28/2021 12:45:00 AM 7.4 45.32 0.042 6.78 4.03 11.29
3/28/2021 1:00:00 AM 7.33 45.194 0.042 6.79 3.99 11.3
3/28/2021 1:15:00 AM 7.27 45.086 0.042 6.79 4.06 11.32
3/28/2021 1:30:00 AM 7.21 44.978 0.042 6.77 4.23 11.34
3/28/2021 1:45:00 AM 7.15 44.87 0.042 6.78 3.99 11.36
3/28/2021 2:00:00 AM 7.09 44.762 0.042 6.76 3.95 11.38
3/28/2021 2:15:00 AM 7.04 44.672 0.042 6.73 3.88 11.38
3/28/2021 2:30:00 AM 6.99 44.582 0.043 6.78 4.15 11.4
3/28/2021 2:45:00 AM 6.94 44.492 0.042 6.76 4.02 11.41
3/28/2021 3:00:00 AM 6.9 44.42 0.042 6.79 4.2 11.42
3/28/2021 3:15:00 AM 6.85 44.33 0.043 6.76 3.77 11.43
3/28/2021 3:30:00 AM 6.81 44.258 0.043 6.77 4.01 11.43
3/28/2021 3:45:00 AM 6.77 44.186 0.043 6.77 3.85 11.45
3/28/2021 4:00:00 AM 6.73 44.114 0.043 6.79 4.07 11.46
3/28/2021 4:15:00 AM 6.69 44.042 0.042 6.76 4.08 11.47
3/28/2021 4:30:00 AM 6.67 44.006 0.042 6.79 3.94 11.47
3/28/2021 4:45:00 AM 6.65 43.97 0.043 6.75 4 11.48
3/28/2021 5:00:00 AM 6.63 43.934 0.042 6.79 3.89 11.48
3/28/2021 5:15:00 AM 6.61 43.898 0.042 6.76 3.9 11.48
3/28/2021 5:30:00 AM 6.61 43.898 0.042 6.79 4.03 11.49
3/28/2021 5:45:00 AM 6.6 43.88 0.043 6.75 3.96 11.49
3/28/2021 6:00:00 AM 6.6 43.88 0.042 6.76 4.02 11.49
3/28/2021 6:15:00 AM 6.6 43.88 0.042 6.75 4.07 11.49
3/28/2021 6:30:00 AM 6.6 43.88 0.042 6.78 3.8 11.48
3/28/2021 6:45:00 AM 6.62 43.916 0.042 6.76 4.22 11.48
3/28/2021 7:00:00 AM 6.64 43.952 0.043 6.79 4.01 11.47
3/28/2021 7:15:00 AM 6.67 44.006 0.043 6.76 3.94 11.46
3/28/2021 7:30:00 AM 6.69 44.042 0.043 6.78 3.78 11.45
3/28/2021 7:45:00 AM 6.73 44.114 0.042 6.76 3.69 11.45
3/28/2021 8:00:00 AM 6.77 44.186 0.042 6.79 3.64 11.45
3/28/2021 8:15:00 AM 6.81 44.258 0.043 6.77 3.59 11.43
3/28/2021 8:30:00 AM 6.86 44.348 0.042 6.81 3.66 11.42
3/28/2021 8:45:00 AM 6.9 44.42 0.042 6.78 3.57 11.42
3/28/2021 9:00:00 AM 6.95 44.51 0.042 6.82 3.68 11.42
3/28/2021 9:15:00 AM 7 44.6 0.042 6.8 3.97 11.41
3/28/2021 9:30:00 AM 7.05 44.69 0.042 6.79 3.77 11.41
3/28/2021 9:45:00 AM 7.1 44.78 0.042 6.81 3.68 11.4
3/28/2021 10:00:00 AM 7.16 44.888 0.042 6.82 4.19 11.38
3/28/2021 10:15:00 AM 7.22 44.996 0.042 6.82 3.67 11.37
3/28/2021 10:30:00 AM 7.29 45.122 0.042 6.85 3.63 11.35
3/28/2021 10:45:00 AM 7.36 45.248 0.042 6.82 3.73 11.35
3/28/2021 11:00:00 AM 7.42 45.356 0.042 6.85 3.58 11.34
3/28/2021 11:15:00 AM 7.51 45.518 0.042 6.85 3.53 11.34
3/28/2021 11:30:00 AM 7.59 45.662 0.042 6.87 3.65 11.32
3/28/2021 11:45:00 AM 7.65 45.77 0.042 6.85 3.55 11.31
3/28/2021 12:00:00 PM 7.71 45.878 0.042 6.87 3.53 11.29
3/28/2021 12:15:00 PM 7.78 46.004 0.042 6.87 3.82 11.29
3/28/2021 12:30:00 PM 7.85 46.13 0.042 6.86 3.7 11.27
3/28/2021 12:45:00 PM 7.9 46.22 0.042 6.86 3.64 11.25
3/28/2021 1:00:00 PM 7.96 46.328 0.042 6.89 3.74 11.24
3/28/2021 1:15:00 PM 8.03 46.454 0.042 6.86 3.55 11.22
3/28/2021 1:30:00 PM 8.09 46.562 0.042 6.88 3.72 11.2
3/28/2021 1:45:00 PM 8.14 46.652 0.042 6.86 3.61 11.17
3/28/2021 2:00:00 PM 8.19 46.742 0.042 6.9 4.17 11.15
3/28/2021 2:15:00 PM 8.25 46.85 0.042 6.87 3.61 11.11
3/28/2021 2:30:00 PM 8.31 46.958 0.042 6.88 4.31 11.1
3/28/2021 2:45:00 PM 8.35 47.03 0.042 6.86 3.94 11.07
3/28/2021 3:00:00 PM 8.37 47.066 0.043 6.87 6.46 11.02
3/28/2021 3:15:00 PM 8.42 47.156 0.043 6.85 5.17 11.03
3/28/2021 3:30:00 PM 8.47 47.246 0.043 6.85 5.2 11.04
3/28/2021 3:45:00 PM 8.5 47.3 0.045 6.83 5.71 11
3/28/2021 4:00:00 PM 8.54 47.372 0.046 6.88 6.22 11.02
3/28/2021 4:15:00 PM 8.53 47.354 0.049 6.87 7.22 11.01
3/28/2021 4:30:00 PM 8.53 47.354 0.051 6.91 8.56 11.02
3/28/2021 4:45:00 PM 8.52 47.336 0.051 6.88 8.58 11.02
3/28/2021 5:00:00 PM 8.5 47.3 0.053 6.91 9.81 11.01
3/28/2021 5:15:00 PM 8.47 47.246 0.054 6.89 10.25 11.03
3/28/2021 5:30:00 PM 8.43 47.174 0.055 6.91 9.92 11.03
3/28/2021 5:45:00 PM 8.39 47.102 0.055 6.89 10.42 11.04
3/28/2021 6:00:00 PM 8.34 47.012 0.055 6.89 9.8 11.04
3/28/2021 6:15:00 PM 8.27 46.886 0.055 6.86 10.6 11.03
3/28/2021 6:30:00 PM 8.21 46.778 0.055 6.9 10.11 11.03
3/28/2021 6:45:00 PM 8.13 46.634 0.056 6.86 8.67 11.04
3/28/2021 7:00:00 PM 8.05 46.49 0.057 6.86 9.07 11.04
3/28/2021 7:15:00 PM 7.96 46.328 0.058 6.88 8.82 11.06
3/28/2021 7:30:00 PM 7.89 46.202 0.059 6.87 8.04 11.07
3/28/2021 7:45:00 PM 7.79 46.022 0.061 6.85 8.1 11.07
3/28/2021 8:00:00 PM 7.69 45.842 0.063 6.82 7.94 11.09
3/28/2021 8:15:00 PM 7.61 45.698 0.065 6.86 8.25 11.12
3/28/2021 8:30:00 PM 7.51 45.518 0.066 6.83 7.89 11.13
3/28/2021 8:45:00 PM 7.43 45.374 0.066 6.87 8.09 11.16
3/28/2021 9:00:00 PM 7.33 45.194 0.066 6.84 7.47 11.19
3/28/2021 9:15:00 PM 7.25 45.05 0.067 6.83 7.41 11.22
3/28/2021 9:30:00 PM 7.18 44.924 0.067 6.86 7.04 11.24
3/28/2021 9:45:00 PM 7.11 44.798 0.066 6.86 7.44 11.26
3/28/2021 10:00:00 PM 7.04 44.672 0.066 6.84 7.04 11.29
3/28/2021 10:15:00 PM 6.97 44.546 0.066 6.86 6.71 11.31
3/28/2021 10:30:00 PM 6.91 44.438 0.065 6.83 6.6 11.34
3/28/2021 10:45:00 PM 6.85 44.33 0.065 6.85 6.39 11.36
3/28/2021 11:00:00 PM 6.79 44.222 0.064 6.83 6.82 11.38
3/28/2021 11:15:00 PM 6.72 44.096 0.064 6.82 6.42 11.4
3/28/2021 11:30:00 PM 6.66 43.988 0.063 6.82 5.88 11.43
3/28/2021 11:45:00 PM 6.59 43.862 0.063 6.86 5.32 11.45
3/29/2021 12:00:00 AM 6.47 43.646 0.062 6.81 5.63 11.46
3/29/2021 12:15:00 AM 6.37 43.466 0.062 6.86 5.33 11.5
3/29/2021 12:30:00 AM 6.3 43.34 0.061 6.82 5.45 11.53
3/29/2021 12:45:00 AM 6.24 43.232 0.061 6.82 5.64 11.55
3/29/2021 1:00:00 AM 6.16 43.088 0.06 6.82 5.13 11.58
3/29/2021 1:15:00 AM 6.09 42.962 0.06 6.82 5.28 11.6
3/29/2021 1:30:00 AM 6.03 42.854 0.059 6.84 5.05 11.63
3/29/2021 1:45:00 AM 5.95 42.71 0.059 6.82 4.81 11.66
3/29/2021 2:00:00 AM 5.87 42.566 0.059 6.85 5.21 11.69
3/29/2021 2:15:00 AM 5.81 42.458 0.058 6.81 4.87 11.71
3/29/2021 2:30:00 AM 5.74 42.332 0.058 6.82 4.93 11.73
3/29/2021 2:45:00 AM 5.69 42.242 0.057 6.82 4.74 11.76
3/29/2021 3:00:00 AM 5.62 42.116 0.057 6.81 4.75 11.78
3/29/2021 3:15:00 AM 5.56 42.008 0.057 6.81 4.91 11.8
3/29/2021 3:30:00 AM 5.51 41.918 0.057 6.83 4.73 11.81
3/29/2021 3:45:00 AM 5.47 41.846 0.057 6.81 4.64 11.83
3/29/2021 4:00:00 AM 5.43 41.774 0.056 6.81 4.33 11.85
3/29/2021 4:15:00 AM 5.39 41.702 0.056 6.82 4.52 11.88
3/29/2021 4:30:00 AM 5.36 41.648 0.056 6.78 4.71 11.89
3/29/2021 4:45:00 AM 5.34 41.612 0.056 6.81 4.5 11.9
3/29/2021 5:00:00 AM 5.29 41.522 0.056 6.8 4.4 11.92
3/29/2021 5:15:00 AM 5.26 41.468 0.056 6.8 4.28 11.93
3/29/2021 5:30:00 AM 5.25 41.45 0.055 6.78 4.14 11.94
3/29/2021 5:45:00 AM 5.23 41.414 0.055 6.84 4.15 11.95
3/29/2021 6:00:00 AM 5.21 41.378 0.055 6.79 4.29 11.96
3/29/2021 6:15:00 AM 5.19 41.342 0.055 6.82 4.39 11.97
3/29/2021 6:30:00 AM 5.17 41.306 0.055 6.79 4.61 11.98
3/29/2021 6:45:00 AM 5.14 41.252 0.055 6.84 4.38 11.99
3/29/2021 7:00:00 AM 5.12 41.216 0.055 6.8 4.13 12.01
3/29/2021 7:15:00 AM 5.09 41.162 0.054 6.83 4.4 12.02
3/29/2021 7:30:00 AM 5.08 41.144 0.054 6.85 4.02 12.04
3/29/2021 7:45:00 AM 5.06 41.108 0.054 6.82 4.17 12.06
3/29/2021 8:00:00 AM 5.04 41.072 0.054 6.78 4.04 12.07
3/29/2021 8:15:00 AM 5.02 41.036 0.054 6.84 4.31 12.09
3/29/2021 8:30:00 AM 5.01 41.018 0.054 6.82 3.84 12.12
3/29/2021 8:45:00 AM 5.01 41.018 0.054 6.87 3.68 12.16
3/29/2021 9:00:00 AM 5 41 0.053 6.85 3.9 12.19
3/29/2021 9:15:00 AM 5 41 0.053 6.83 3.7 12.21
3/29/2021 9:30:00 AM 5 41 0.053 6.89 3.72 12.23
3/29/2021 9:45:00 AM 5.01 41.018 0.053 6.86 3.87 12.25
3/29/2021 10:00:00 AM 5.02 41.036 0.053 6.9 3.86 12.27
3/29/2021 10:15:00 AM 5.05 41.09 0.053 6.91 3.76 12.29
3/29/2021 10:30:00 AM 5.08 41.144 0.052 6.89 3.79 12.3
3/29/2021 10:45:00 AM 5.12 41.216 0.052 6.92 3.65 12.32
3/29/2021 11:00:00 AM 5.19 41.342 0.052 6.88 3.88 12.33
3/29/2021 11:15:00 AM 5.27 41.486 0.052 6.91 3.89 12.33
3/29/2021 11:30:00 AM 5.37 41.666 0.052 6.91 3.94 12.33
3/29/2021 11:45:00 AM 5.51 41.918 0.052 6.95 3.83 12.31
3/29/2021 12:00:00 PM 5.63 42.134 0.051 6.93 3.63 12.3
3/29/2021 12:15:00 PM 5.8 42.44 0.051 6.96 3.72 12.27
3/29/2021 12:30:00 PM 6.07 42.926 0.051 6.93 4.28 12.23
3/29/2021 12:45:00 PM 6.26 43.268 0.051 6.95 3.66 12.18
3/29/2021 1:00:00 PM 6.27 43.286 0.051 6.95 3.63 12.13
3/29/2021 1:15:00 PM 6.39 43.502 0.051 6.96 3.67 12.11
3/29/2021 1:30:00 PM 6.56 43.808 0.051 6.94 3.6 12.07
3/29/2021 1:45:00 PM 6.77 44.186 0.05 6.96 3.71 12
3/29/2021 2:00:00 PM 6.97 44.546 0.05 6.93 3.78 11.95
3/29/2021 2:15:00 PM 7.18 44.924 0.05 6.96 4.03 11.89
3/29/2021 2:30:00 PM 7.4 45.32 0.05 6.94 3.7 11.81
3/29/2021 2:45:00 PM 7.59 45.662 0.05 6.96 3.58 11.75
3/29/2021 3:00:00 PM 7.76 45.968 0.05 6.94 3.78 11.7
3/29/2021 3:15:00 PM 7.9 46.22 0.05 6.94 3.75 11.65
3/29/2021 3:30:00 PM 8.02 46.436 0.05 6.97 3.75 11.6
3/29/2021 3:45:00 PM 8.11 46.598 0.049 6.94 3.7 11.56
3/29/2021 4:00:00 PM 8.19 46.742 0.049 6.97 3.85 11.52
3/29/2021 4:15:00 PM 8.25 46.85 0.049 6.94 3.67 11.5
3/29/2021 4:30:00 PM 8.28 46.904 0.049 6.96 3.8 11.47
3/29/2021 4:45:00 PM 8.27 46.886 0.049 6.94 3.64 11.46
3/29/2021 5:00:00 PM 8.25 46.85 0.049 6.95 3.68 11.45
3/29/2021 5:15:00 PM 8.21 46.778 0.049 6.95 3.74 11.44
3/29/2021 5:30:00 PM 8.14 46.652 0.049 6.95 3.85 11.44
3/29/2021 5:45:00 PM 8.07 46.526 0.049 6.92 3.76 11.44
3/29/2021 6:00:00 PM 7.99 46.382 0.049 6.95 3.73 11.44
3/29/2021 6:15:00 PM 7.89 46.202 0.049 6.91 3.66 11.45
3/29/2021 6:30:00 PM 7.77 45.986 0.049 6.91 3.85 11.45
3/29/2021 6:45:00 PM 7.65 45.77 0.049 6.9 3.76 11.46
3/29/2021 7:00:00 PM 7.53 45.554 0.049 6.91 3.86 11.46
3/29/2021 7:15:00 PM 7.41 45.338 0.049 6.89 3.9 11.47
3/29/2021 7:30:00 PM 7.28 45.104 0.049 6.89 3.98 11.49
3/29/2021 7:45:00 PM 7.15 44.87 0.049 6.86 3.97 11.51
3/29/2021 8:00:00 PM 7.02 44.636 0.049 6.88 3.99 11.53
3/29/2021 8:15:00 PM 6.88 44.384 0.049 6.85 4.05 11.56
3/29/2021 8:30:00 PM 6.76 44.168 0.049 6.87 3.89 11.59
3/29/2021 8:45:00 PM 6.63 43.934 0.049 6.83 4.07 11.63
3/29/2021 9:00:00 PM 6.5 43.7 0.049 6.84 3.8 11.66
3/29/2021 9:15:00 PM 6.39 43.502 0.049 6.83 3.97 11.7
3/29/2021 9:30:00 PM 6.27 43.286 0.049 6.83 4.26 11.73
3/29/2021 9:45:00 PM 6.17 43.106 0.049 6.83 3.94 11.76
3/29/2021 10:00:00 PM 6.07 42.926 0.048 6.84 3.96 11.79
3/29/2021 10:15:00 PM 5.97 42.746 0.048 6.85 3.97 11.83
3/29/2021 10:30:00 PM 5.89 42.602 0.048 6.82 3.97 11.86
3/29/2021 10:45:00 PM 5.8 42.44 0.048 6.83 4.02 11.88
3/29/2021 11:00:00 PM 5.73 42.314 0.048 6.82 3.97 11.9
3/29/2021 11:15:00 PM 5.65 42.17 0.048 6.8 3.92 11.92
3/29/2021 11:30:00 PM 5.58 42.044 0.048 6.83 4.42 11.94
3/29/2021 11:45:00 PM 5.52 41.936 0.048 6.82 3.93 11.97
3/30/2021 12:00:00 AM 5.46 41.828 0.048 6.83 3.94 11.99
3/30/2021 12:15:00 AM 5.4 41.72 0.048 6.81 3.97 12.01
3/30/2021 12:30:00 AM 5.35 41.63 0.048 6.82 3.89 12.03
3/30/2021 12:45:00 AM 5.3 41.54 0.047 6.8 4.19 12.04
3/30/2021 1:00:00 AM 5.25 41.45 0.047 6.81 3.9 12.06
3/30/2021 1:15:00 AM 5.2 41.36 0.047 6.78 4.05 12.08
3/30/2021 1:30:00 AM 5.16 41.288 0.047 6.81 3.81 12.09
3/30/2021 1:45:00 AM 5.11 41.198 0.047 6.78 3.77 12.1
3/30/2021 2:00:00 AM 5.07 41.126 0.047 6.8 3.86 12.12
3/30/2021 2:15:00 AM 5.03 41.054 0.047 6.78 3.75 12.13
3/30/2021 2:30:00 AM 4.99 40.982 0.047 6.78 3.73 12.15
3/30/2021 2:45:00 AM 4.95 40.91 0.047 6.77 3.67 12.15
3/30/2021 3:00:00 AM 4.92 40.856 0.047 6.79 3.79 12.16
3/30/2021 3:15:00 AM 4.89 40.802 0.047 6.77 4.01 12.18
3/30/2021 3:30:00 AM 4.85 40.73 0.047 6.79 4.05 12.19
3/30/2021 3:45:00 AM 4.82 40.676 0.047 6.77 3.67 12.2
3/30/2021 4:00:00 AM 4.78 40.604 0.047 6.8 3.76 12.21
3/30/2021 4:15:00 AM 4.75 40.55 0.046 6.78 3.89 12.22
3/30/2021 4:30:00 AM 4.73 40.514 0.047 6.79 3.86 12.23
3/30/2021 4:45:00 AM 4.7 40.46 0.046 6.77 3.88 12.24
3/30/2021 5:00:00 AM 4.67 40.406 0.046 6.8 3.65 12.25
3/30/2021 5:15:00 AM 4.64 40.352 0.046 6.78 3.85 12.26
3/30/2021 5:30:00 AM 4.62 40.316 0.046 6.79 3.87 12.27
3/30/2021 5:45:00 AM 4.59 40.262 0.046 6.78 3.63 12.28
3/30/2021 6:00:00 AM 4.57 40.226 0.046 6.78 3.69 12.29
3/30/2021 6:15:00 AM 4.55 40.19 0.046 6.76 3.78 12.29
3/30/2021 6:30:00 AM 4.53 40.154 0.047 6.79 3.84 12.3
3/30/2021 6:45:00 AM 4.51 40.118 0.046 6.76 3.93 12.31
3/30/2021 7:00:00 AM 4.49 40.082 0.047 6.78 3.95 12.31
3/30/2021 7:15:00 AM 4.47 40.046 0.046 6.77 3.82 12.33
3/30/2021 7:30:00 AM 4.46 40.028 0.046 6.81 3.76 12.35
3/30/2021 7:45:00 AM 4.45 40.01 0.046 6.79 3.86 12.37
3/30/2021 8:00:00 AM 4.46 40.028 0.046 6.82 3.68 12.39
3/30/2021 8:15:00 AM 4.48 40.064 0.046 6.8 3.71 12.41
3/30/2021 8:30:00 AM 4.53 40.154 0.046 6.85 3.7 12.44
3/30/2021 8:45:00 AM 4.59 40.262 0.046 6.83 3.87 12.46
3/30/2021 9:00:00 AM 4.66 40.388 0.046 6.87 3.53 12.46
3/30/2021 9:15:00 AM 4.76 40.568 0.046 6.85 3.73 12.46
3/30/2021 9:30:00 AM 4.87 40.766 0.046 6.89 3.54 12.45
3/30/2021 9:45:00 AM 5.01 41.018 0.046 6.87 3.57 12.43
3/30/2021 10:00:00 AM 5.16 41.288 0.046 6.9 3.74 12.41
3/30/2021 10:15:00 AM 5.32 41.576 0.046 6.9 3.48 12.38
3/30/2021 10:30:00 AM 5.51 41.918 0.046 6.91 3.53 12.34
3/30/2021 10:45:00 AM 5.7 42.26 0.046 6.89 3.59 12.3
3/30/2021 11:00:00 AM 5.92 42.656 0.046 6.94 3.62 12.25
3/30/2021 11:15:00 AM 6.13 43.034 0.046 6.9 3.6 12.19
3/30/2021 11:30:00 AM 6.36 43.448 0.046 6.93 3.5 12.13
3/30/2021 11:45:00 AM 6.6 43.88 0.045 6.92 3.6 12.07
3/30/2021 12:00:00 PM 6.84 44.312 0.045 6.94 3.49 12
3/30/2021 12:15:00 PM 7.08 44.744 0.045 6.95 3.49 11.94
3/30/2021 12:30:00 PM 7.34 45.212 0.045 6.94 3.43 11.87
3/30/2021 12:45:00 PM 7.6 45.68 0.045 6.93 3.82 11.78
3/30/2021 1:00:00 PM 7.86 46.148 0.045 6.95 3.4 11.71
3/30/2021 1:15:00 PM 8.12 46.616 0.045 6.94 3.29 11.63
3/30/2021 1:30:00 PM 8.38 47.084 0.045 6.97 3.36 11.56
3/30/2021 1:45:00 PM 8.63 47.534 0.045 6.95 3.52 11.49
3/30/2021 2:00:00 PM 8.87 47.966 0.045 6.97 3.31 11.41
3/30/2021 2:15:00 PM 9.11 48.398 0.045 6.95 3.44 11.35
3/30/2021 2:30:00 PM 9.33 48.794 0.045 6.96 3.69 11.28
3/30/2021 2:45:00 PM 9.53 49.154 0.045 6.94 3.51 11.22
3/30/2021 3:00:00 PM 9.7 49.46 0.045 6.95 3.44 11.17
3/30/2021 3:15:00 PM 9.86 49.748 0.045 6.94 3.58 11.12
3/30/2021 3:30:00 PM 9.99 49.982 0.045 6.98 3.58 11.07
3/30/2021 3:45:00 PM 10.11 50.198 0.045 6.95 3.57 11.03
3/30/2021 4:00:00 PM 10.19 50.342 0.045 6.98 3.65 10.99
3/30/2021 4:15:00 PM 10.23 50.414 0.045 6.95 3.72 10.96
3/30/2021 4:30:00 PM 10.23 50.414 0.045 6.97 3.7 10.95
3/30/2021 4:45:00 PM 10.22 50.396 0.045 6.96 3.51 10.93
3/30/2021 5:00:00 PM 10.22 50.396 0.045 6.97 3.66 10.91
3/30/2021 5:15:00 PM 10.19 50.342 0.045 6.96 3.89 10.9
3/30/2021 5:30:00 PM 10.14 50.252 0.045 6.98 3.64 10.89
3/30/2021 5:45:00 PM 10.06 50.108 0.045 6.96 4.04 10.88
3/30/2021 6:00:00 PM 9.97 49.946 0.045 6.96 3.75 10.88
3/30/2021 6:15:00 PM 9.85 49.73 0.045 6.95 3.51 10.89
3/30/2021 6:30:00 PM 9.75 49.55 0.045 6.95 3.69 10.9
3/30/2021 6:45:00 PM 9.64 49.352 0.045 6.9 3.68 10.9
3/30/2021 7:00:00 PM 9.52 49.136 0.045 6.93 3.69 10.9
3/30/2021 7:15:00 PM 9.39 48.902 0.045 6.91 3.76 10.91
3/30/2021 7:30:00 PM 9.27 48.686 0.045 6.88 3.84 10.91
3/30/2021 7:45:00 PM 9.13 48.434 0.045 6.85 3.84 10.93
3/30/2021 8:00:00 PM 9 48.2 0.045 6.84 3.84 10.94
3/30/2021 8:15:00 PM 8.88 47.984 0.045 6.87 3.95 10.96
3/30/2021 8:30:00 PM 8.76 47.768 0.045 6.83 3.83 10.98
3/30/2021 8:45:00 PM 8.65 47.57 0.045 6.87 4.1 11
3/30/2021 9:00:00 PM 8.55 47.39 0.045 6.84 3.97 11.03
3/30/2021 9:15:00 PM 8.44 47.192 0.045 6.85 3.86 11.06
3/30/2021 9:30:00 PM 8.34 47.012 0.045 6.83 3.99 11.09
3/30/2021 9:45:00 PM 8.25 46.85 0.045 6.86 4.12 11.12
3/30/2021 10:00:00 PM 8.16 46.688 0.045 6.82 3.99 11.14
3/30/2021 10:15:00 PM 8.08 46.544 0.045 6.85 4.08 11.16
3/30/2021 10:30:00 PM 8.01 46.418 0.045 6.82 3.85 11.18
3/30/2021 10:45:00 PM 7.94 46.292 0.045 6.84 3.89 11.2
3/30/2021 11:00:00 PM 7.87 46.166 0.045 6.82 3.95 11.23
3/30/2021 11:15:00 PM 7.81 46.058 0.045 6.84 4.08 11.25
3/30/2021 11:30:00 PM 7.74 45.932 0.045 6.82 3.98 11.26
3/30/2021 11:45:00 PM 7.68 45.824 0.045 6.83 3.82 11.28
3/31/2021 12:00:00 AM 7.62 45.716 0.044 6.82 4 11.29
3/31/2021 12:15:00 AM 7.57 45.626 0.044 6.83 3.71 11.31
3/31/2021 12:30:00 AM 7.51 45.518 0.044 6.81 3.89 11.32
3/31/2021 12:45:00 AM 7.46 45.428 0.045 6.83 3.87 11.33
3/31/2021 1:00:00 AM 7.42 45.356 0.044 6.8 4.2 11.34
3/31/2021 1:15:00 AM 7.38 45.284 0.044 6.81 3.84 11.36
3/31/2021 1:30:00 AM 7.34 45.212 0.044 6.81 3.67 11.37
3/31/2021 1:45:00 AM 7.31 45.158 0.044 6.79 3.93 11.38
3/31/2021 2:00:00 AM 7.27 45.086 0.044 6.84 3.73 11.39
3/31/2021 2:15:00 AM 7.24 45.032 0.044 6.82 3.78 11.4
3/31/2021 2:30:00 AM 7.21 44.978 0.044 6.82 3.87 11.41
3/31/2021 2:45:00 AM 7.18 44.924 0.044 6.82 3.83 11.41
3/31/2021 3:00:00 AM 7.16 44.888 0.044 6.8 4.14 11.42
3/31/2021 3:15:00 AM 7.13 44.834 0.044 6.81 3.7 11.43
3/31/2021 3:30:00 AM 7.1 44.78 0.044 6.79 3.82 11.44
3/31/2021 3:45:00 AM 7.08 44.744 0.044 6.83 3.76 11.44
3/31/2021 4:00:00 AM 7.06 44.708 0.044 6.79 3.94 11.44
3/31/2021 4:15:00 AM 7.04 44.672 0.044 6.82 3.58 11.44
3/31/2021 4:30:00 AM 7.03 44.654 0.044 6.79 3.77 11.44
3/31/2021 4:45:00 AM 7.01 44.618 0.044 6.82 3.69 11.45
3/31/2021 5:00:00 AM 7 44.6 0.044 6.8 3.84 11.45
3/31/2021 5:15:00 AM 6.99 44.582 0.044 6.82 3.87 11.45
3/31/2021 5:30:00 AM 6.98 44.564 0.044 6.8 3.81 11.46
3/31/2021 5:45:00 AM 6.97 44.546 0.044 6.79 3.8 11.46
3/31/2021 6:00:00 AM 6.96 44.528 0.044 6.81 3.77 11.46
3/31/2021 6:15:00 AM 6.95 44.51 0.044 6.79 3.77 11.46
3/31/2021 6:30:00 AM 6.95 44.51 0.044 6.81 3.96 11.46
3/31/2021 6:45:00 AM 6.94 44.492 0.044 6.8 4.02 11.46
3/31/2021 7:00:00 AM 6.93 44.474 0.044 6.81 3.66 11.47
3/31/2021 7:15:00 AM 6.93 44.474 0.044 6.78 3.93 11.47
3/31/2021 7:30:00 AM 6.93 44.474 0.044 6.81 3.73 11.48
3/31/2021 7:45:00 AM 6.94 44.492 0.044 6.79 3.73 11.49
3/31/2021 8:00:00 AM 6.95 44.51 0.044 6.84 3.88 11.5
3/31/2021 8:15:00 AM 6.97 44.546 0.044 6.8 3.62 11.5
3/31/2021 8:30:00 AM 6.98 44.564 0.044 6.81 4.24 11.51
3/31/2021 8:45:00 AM 7 44.6 0.044 6.8 3.72 11.51
3/31/2021 9:00:00 AM 7.02 44.636 0.044 6.84 3.58 11.52
3/31/2021 9:15:00 AM 7.05 44.69 0.044 6.82 3.84 11.53
3/31/2021 9:30:00 AM 7.07 44.726 0.044 6.82 3.51 11.53
3/31/2021 9:45:00 AM 7.09 44.762 0.044 6.81 3.89 11.53
3/31/2021 10:00:00 AM 7.12 44.816 0.044 6.85 3.83 11.52
3/31/2021 10:15:00 AM 7.15 44.87 0.043 6.83 3.74 11.54
3/31/2021 10:30:00 AM 7.19 44.942 0.044 6.86 3.94 11.54
3/31/2021 10:45:00 AM 7.23 45.014 0.043 6.84 3.94 11.55
3/31/2021 11:00:00 AM 7.26 45.068 0.044 6.88 3.79 11.55
3/31/2021 11:15:00 AM 7.29 45.122 0.043 6.85 3.85 11.54
3/31/2021 11:30:00 AM 7.32 45.176 0.044 6.87 3.92 11.53
3/31/2021 11:45:00 AM 7.34 45.212 0.043 6.86 3.84 11.51
3/31/2021 12:00:00 PM 7.37 45.266 0.044 6.86 4.08 11.51
3/31/2021 12:15:00 PM 7.4 45.32 0.044 6.85 4.16 11.5
3/31/2021 12:30:00 PM 7.43 45.374 0.044